Provisional Data: Chemung River at West Elmira, NY


Please select a monitoring station.
Please select start date.
Please select start date.

Toggle Unit: C/F Toggle Unit: C/F
Sample Time Temperature (C) Temperature (F) Specific Conductivity (mS/cm) pH   Turbidity (NTU+) DO (mg/L)
6/3/2022 12:00:00 AM 23.57 74.426 0.379 8.14 6.23 7.87
6/3/2022 12:15:00 AM 23.5 74.3 0.379 8.12 7.36 7.8
6/3/2022 12:30:00 AM 23.42 74.156 0.379 8.12 6.47 7.77
6/3/2022 12:45:00 AM 23.36 74.048 0.378 8.11 5.32 7.73
6/3/2022 1:00:00 AM 23.29 73.922 0.377 8.1 5.75 7.69
6/3/2022 1:15:00 AM 23.21 73.778 0.377 8.09 6.25 7.65
6/3/2022 1:30:00 AM 23.16 73.688 0.377 8.08 6.68 7.62
6/3/2022 1:45:00 AM 23.07 73.526 0.376 8.07 5.61 7.61
6/3/2022 2:00:00 AM 23.01 73.418 0.375 8.07 5.97 7.59
6/3/2022 2:15:00 AM 22.95 73.31 0.375 8.06 6.27 7.56
6/3/2022 2:30:00 AM 22.89 73.202 0.374 8.06 6.77 7.53
6/3/2022 2:45:00 AM 22.82 73.076 0.374 8.05 6.33 7.5
6/3/2022 3:00:00 AM 22.76 72.968 0.373 8.04 6.56 7.47
6/3/2022 3:15:00 AM 22.71 72.878 0.373 8.03 6.33 7.44
6/3/2022 3:30:00 AM 22.64 72.752 0.372 8.03 7.14 7.42
6/3/2022 3:45:00 AM 22.59 72.662 0.371 8.02 6.62 7.41
6/3/2022 4:00:00 AM 22.52 72.536 0.371 8.01 6.3 7.36
6/3/2022 4:15:00 AM 22.46 72.42799 0.37 8 6.4 7.35
6/3/2022 4:30:00 AM 22.37 72.266 0.37 8 6.9 7.33
6/3/2022 4:45:00 AM 22.29 72.122 0.369 7.99 6.87 7.31
6/3/2022 5:00:00 AM 22.22 71.996 0.369 7.98 7.48 7.28
6/3/2022 5:15:00 AM 22.14 71.852 0.368 7.97 7.05 7.27
6/3/2022 5:30:00 AM 22.05 71.69 0.368 7.97 6.9 7.26
6/3/2022 5:45:00 AM 21.98 71.564 0.367 7.96 6.95 7.24
6/3/2022 6:00:00 AM 21.9 71.42 0.367 7.95 7.12 7.23
6/3/2022 6:15:00 AM 21.82 71.276 0.367 7.95 8.44 7.2
6/3/2022 6:30:00 AM 21.76 71.168 0.366 7.93 7.72 7.2
6/3/2022 6:45:00 AM 21.72 71.096 0.366 7.93 8.84 7.22
6/3/2022 7:00:00 AM 21.67 71.006 0.366 7.94 7.85 7.27
6/3/2022 7:15:00 AM 21.64 70.952 0.366 7.94 7.91 7.28
6/3/2022 7:30:00 AM 21.6 70.88 0.366 7.94 10.24 7.31
6/3/2022 7:45:00 AM 21.59 70.862 0.366 7.94 8.26 7.34
6/3/2022 8:00:00 AM 21.58 70.844 0.366 7.94 7.66 7.41
6/3/2022 8:15:00 AM 21.56 70.808 0.366 7.95 9.74 7.47
6/3/2022 8:30:00 AM 21.58 70.844 0.366 7.96 7.83 7.58
6/3/2022 8:45:00 AM 21.61 70.898 0.366 7.98 7.3 7.67
6/3/2022 9:00:00 AM 21.65 70.97 0.366 7.98 7.78 7.73
6/3/2022 9:15:00 AM 21.67 71.006 0.366 8 7.47 7.86
6/3/2022 9:30:00 AM 21.71 71.078 0.366 8.02 6.91 7.95
6/3/2022 9:45:00 AM 21.78 71.204 0.366 8.02 7.06 8.01
6/3/2022 10:00:00 AM 21.88 71.384 0.366 8.05 6.74 8.14
6/3/2022 10:15:00 AM 22.01 71.618 0.366 8.07 7.19 8.26
6/3/2022 10:30:00 AM 22.13 71.834 0.366 8.09 6.66 8.37
6/3/2022 10:45:00 AM 22.24 72.032 0.365 8.1 7.01 8.47
6/3/2022 11:00:00 AM 22.29 72.122 0.365 8.12 7 8.52
6/3/2022 11:15:00 AM 22.39 72.302 0.365 8.14 6.9 8.59
6/3/2022 11:30:00 AM 22.49 72.482 0.364 8.15 7.33 8.67
6/3/2022 11:45:00 AM 22.59 72.662 0.364 8.16 6.43 8.76
6/3/2022 12:00:00 PM 22.71 72.878 0.363 8.18 6.51 8.82
6/3/2022 12:15:00 PM 22.86 73.148 0.363 8.2 6.33 8.9
6/3/2022 12:30:00 PM 22.99 73.382 0.362 8.21 6.25 8.96
6/3/2022 12:45:00 PM 23.16 73.688 0.361 8.23 6.28 9.04
6/3/2022 1:00:00 PM 23.26 73.868 0.361 8.24 5.71 9.06
6/3/2022 1:15:00 PM 23.34 74.012 0.36 8.25 6.06 9.13
6/3/2022 1:30:00 PM 23.48 74.264 0.359 8.26 6.52 9.18
6/3/2022 1:45:00 PM 23.65 74.57 0.359 8.27 6.79 9.25
6/3/2022 2:00:00 PM 23.82 74.876 0.358 8.28 6.83 9.27
6/3/2022 2:15:00 PM 23.99 75.182 0.357 8.3 7.97 9.37
6/3/2022 2:30:00 PM 24.1 75.38 0.356 8.32 7.34 9.39
6/3/2022 2:45:00 PM 24.2 75.56 0.355 8.33 6.25 9.47
6/3/2022 3:00:00 PM 24.25 75.65 0.354 8.34 6.17 9.44
6/3/2022 3:15:00 PM 24.32 75.776 0.353 8.34 6.52 9.5
6/3/2022 3:30:00 PM 24.4 75.92 0.352 8.35 6.31 9.49
6/3/2022 3:45:00 PM 24.46 76.028 0.351 8.36 6.6 9.5
6/3/2022 4:00:00 PM 24.5 76.1 0.35 8.36 6.26 9.52
6/3/2022 4:15:00 PM 24.54 76.172 0.35 8.37 6.41 9.55
6/3/2022 4:30:00 PM 24.58 76.244 0.349 8.38 6.03 9.56
6/3/2022 4:45:00 PM 24.6 76.28 0.348 8.38 6.86 9.59
6/3/2022 5:00:00 PM 24.61 76.298 0.347 8.39 6.13 9.6
6/3/2022 5:15:00 PM 24.55 76.19 0.346 8.39 6.36 9.57
6/3/2022 5:30:00 PM 24.52 76.136 0.345 8.39 6.93 9.55
6/3/2022 5:45:00 PM 24.49 76.082 0.345 8.39 7.87 9.5
6/3/2022 6:00:00 PM 24.46 76.028 0.344 8.4 6.88 9.51
6/3/2022 6:15:00 PM 24.41 75.938 0.343 8.4 8.23 9.49
6/3/2022 6:30:00 PM 24.35 75.83 0.343 8.4 7.01 9.46
6/3/2022 6:45:00 PM 24.29 75.722 0.342 8.4 6.26 9.46
6/3/2022 7:00:00 PM 24.23 75.614 0.342 8.4 6.64 9.41
6/3/2022 7:15:00 PM 24.16 75.488 0.341 8.4 6.06 9.41
6/3/2022 7:30:00 PM 24.09 75.362 0.341 8.4 5.92 9.36
6/3/2022 7:45:00 PM 23.99 75.182 0.341 8.39 6.7 9.28
6/3/2022 8:00:00 PM 23.86 74.948 0.34 8.38 6.81 9.19
6/3/2022 8:15:00 PM 23.75 74.75 0.34 8.36 6.76 9.11
6/3/2022 8:30:00 PM 23.62 74.516 0.34 8.34 6.17 9.02
6/3/2022 8:45:00 PM 23.5 74.3 0.34 8.33 6.29 8.94
6/3/2022 9:00:00 PM 23.4 74.12 0.34 8.31 6.27 8.83
6/3/2022 9:15:00 PM 23.3 73.94 0.341 8.3 6.01 8.78
6/3/2022 9:30:00 PM 23.2 73.76 0.341 8.28 6.53 8.7
6/3/2022 9:45:00 PM 23.09 73.562 0.341 8.27 6.39 8.63
6/3/2022 10:00:00 PM 22.99 73.382 0.341 8.24 6.31 8.53
6/3/2022 10:15:00 PM 22.89 73.202 0.342 8.23 6.46 8.46
6/3/2022 10:30:00 PM 22.79 73.022 0.342 8.22 6.09 8.39
6/3/2022 10:45:00 PM 22.69 72.842 0.342 8.2 8.21 8.29
6/3/2022 11:00:00 PM 22.59 72.662 0.343 8.19 6.12 8.26
6/3/2022 11:15:00 PM 22.49 72.482 0.343 8.18 6.05 8.22
6/3/2022 11:30:00 PM 22.4 72.32 0.344 8.17 5.94 8.18
6/3/2022 11:45:00 PM 22.3 72.14 0.344 8.16 6.03 8.12
6/4/2022 12:00:00 AM 22.21 71.978 0.344 8.15 6.09 8.09
6/4/2022 12:15:00 AM 22.13 71.834 0.345 8.14 5.94 8.05
6/4/2022 12:30:00 AM 22.04 71.672 0.345 8.13 5.91 7.98
6/4/2022 12:45:00 AM 21.96 71.528 0.346 8.12 5.9 7.94
6/4/2022 1:00:00 AM 21.86 71.348 0.346 8.11 6.3 7.91
6/4/2022 1:15:00 AM 21.78 71.204 0.347 8.11 6.13 7.89
6/4/2022 1:30:00 AM 21.69 71.042 0.347 8.1 6.49 7.86
6/4/2022 1:45:00 AM 21.62 70.916 0.348 8.09 6.04 7.8
6/4/2022 2:00:00 AM 21.54 70.772 0.348 8.08 6.54 7.79
6/4/2022 2:15:00 AM 21.46 70.628 0.349 8.08 6.01 7.76
6/4/2022 2:30:00 AM 21.39 70.502 0.349 8.08 5.72 7.76
6/4/2022 2:45:00 AM 21.32 70.376 0.35 8.07 5.67 7.73
6/4/2022 3:00:00 AM 21.25 70.25 0.35 8.06 5.84 7.7
6/4/2022 3:15:00 AM 21.18 70.124 0.351 8.06 5.7 7.68
6/4/2022 3:30:00 AM 21.1 69.98 0.351 8.06 6.04 7.69
6/4/2022 3:45:00 AM 21.04 69.872 0.352 8.05 5.96 7.65
6/4/2022 4:00:00 AM 20.96 69.728 0.352 8.05 5.62 7.63
6/4/2022 4:15:00 AM 20.89 69.602 0.352 8.04 5.9 7.61
6/4/2022 4:30:00 AM 20.82 69.476 0.353 8.03 5.98 7.59
6/4/2022 4:45:00 AM 20.75 69.35 0.353 8.03 5.78 7.58
6/4/2022 5:00:00 AM 20.68 69.224 0.354 8.03 5.86 7.58
6/4/2022 5:15:00 AM 20.61 69.098 0.354 8.02 6.35 7.56
6/4/2022 5:30:00 AM 20.53 68.954 0.354 8.01 6.03 7.52
6/4/2022 5:45:00 AM 20.47 68.846 0.355 8 14.49 7.48
6/4/2022 6:00:00 AM 20.4 68.72 0.355 8 7.21 7.44
6/4/2022 6:15:00 AM 20.34 68.612 0.356 7.99 7.76 7.46
6/4/2022 6:30:00 AM 20.28 68.504 0.356 7.99 5.67 7.48
6/4/2022 6:45:00 AM 20.25 68.45 0.356 7.99 6.17 7.51
6/4/2022 7:00:00 AM 20.22 68.396 0.356 7.98 7.19 7.48
6/4/2022 7:15:00 AM 20.18 68.324 0.357 7.99 6.18 7.56
6/4/2022 7:30:00 AM 20.18 68.324 0.357 7.99 5.81 7.62
6/4/2022 7:45:00 AM 20.15 68.27 0.357 7.99 6.03 7.65
6/4/2022 8:00:00 AM 20.15 68.27 0.358 8 6.22 7.69
6/4/2022 8:15:00 AM 20.16 68.288 0.358 8.01 5.8 7.77
6/4/2022 8:30:00 AM 20.23 68.414 0.358 8.02 8.36 7.83
6/4/2022 8:45:00 AM 20.28 68.504 0.358 8.03 9.47 7.91
6/4/2022 9:00:00 AM 20.36 68.648 0.359 8.05 6.12 8.06
6/4/2022 9:15:00 AM 20.42 68.756 0.359 8.06 6.31 8.16
6/4/2022 9:30:00 AM 20.49 68.882 0.359 8.07 5.4 8.22
6/4/2022 9:45:00 AM 20.57 69.026 0.359 8.09 5.23 8.33
6/4/2022 10:00:00 AM 20.68 69.224 0.36 8.1 5.27 8.4
6/4/2022 10:15:00 AM 20.78 69.404 0.36 8.11 5.44 8.49
6/4/2022 10:30:00 AM 20.93 69.674 0.36 8.13 5.75 8.59
6/4/2022 10:45:00 AM 21.06 69.908 0.36 8.15 5.28 8.7
6/4/2022 11:00:00 AM 21.19 70.142 0.36 8.16 5.51 8.79
6/4/2022 11:15:00 AM 21.34 70.412 0.36 8.18 5.82 8.87
6/4/2022 11:30:00 AM 21.49 70.682 0.361 8.2 4.91 9.01
6/4/2022 11:45:00 AM 21.62 70.916 0.361 8.22 5.47 9.1
6/4/2022 12:00:00 PM 21.77 71.186 0.361 8.24 5.5 9.21
6/4/2022 12:15:00 PM 21.92 71.456 0.361 8.25 5.65 9.28
6/4/2022 12:30:00 PM 22.05 71.69 0.361 8.27 5.67 9.34
6/4/2022 12:45:00 PM 22.2 71.96 0.362 8.29 5.27 9.43
6/4/2022 1:00:00 PM 22.32 72.176 0.362 8.3 5.31 9.48
6/4/2022 1:15:00 PM 22.48 72.464 0.362 8.32 5.24 9.55
6/4/2022 1:30:00 PM 22.6 72.68 0.362 8.33 5.52 9.58
6/4/2022 1:45:00 PM 22.74 72.932 0.362 8.34 5.63 9.66
6/4/2022 2:00:00 PM 22.85 73.13 0.363 8.36 5.39 9.72
6/4/2022 2:15:00 PM 22.97 73.346 0.363 8.37 6.52 9.74
6/4/2022 2:30:00 PM 23.09 73.562 0.363 8.39 5.45 9.82
6/4/2022 2:45:00 PM 23.17 73.706 0.363 8.4 5.57 9.85
6/4/2022 3:00:00 PM 23.22 73.796 0.363 8.41 4.99 9.87
6/4/2022 3:15:00 PM 23.29 73.922 0.364 8.42 5.77 9.9
6/4/2022 3:30:00 PM 23.35 74.03 0.364 8.42 5.06 9.91
6/4/2022 3:45:00 PM 23.41 74.138 0.364 8.42 5.02 9.91
6/4/2022 4:00:00 PM 23.49 74.282 0.364 8.45 4.77 9.99
6/4/2022 4:15:00 PM 23.5 74.3 0.364 8.44 5.48 9.95
6/4/2022 4:30:00 PM 23.55 74.39 0.364 8.46 4.81 9.98
6/4/2022 4:45:00 PM 23.59 74.462 0.365 8.47 4.75 10.03
6/4/2022 5:00:00 PM 23.62 74.516 0.365 8.47 5.01 10.06
6/4/2022 5:15:00 PM 23.61 74.498 0.365 8.48 5.24 10.05
6/4/2022 5:30:00 PM 23.62 74.516 0.365 8.49 5.23 10.07
6/4/2022 5:45:00 PM 23.61 74.498 0.365 8.5 4.84 10.05
6/4/2022 6:00:00 PM 23.58 74.444 0.365 8.5 4.92 10.04
6/4/2022 6:15:00 PM 23.54 74.372 0.366 8.51 4.67 10.04
6/4/2022 6:30:00 PM 23.49 74.282 0.366 8.51 5.15 9.98
6/4/2022 6:45:00 PM 23.43 74.174 0.366 8.52 4.88 9.97
6/4/2022 7:00:00 PM 23.38 74.084 0.366 8.52 4.83 9.96
6/4/2022 7:15:00 PM 23.34 74.012 0.366 8.52 4.82 9.93
6/4/2022 7:30:00 PM 23.28 73.904 0.366 8.51 5.11 9.83
6/4/2022 7:45:00 PM 23.21 73.778 0.367 8.51 4.87 9.79
6/4/2022 8:00:00 PM 23.13 73.634 0.367 8.5 6.83 9.7
6/4/2022 8:15:00 PM 23.05 73.49 0.367 8.49 5.41 9.59
6/4/2022 8:30:00 PM 22.96 73.328 0.367 8.49 7.6 9.55
6/4/2022 8:45:00 PM 22.87 73.166 0.367 8.49 5.15 9.45
6/4/2022 9:00:00 PM 22.79 73.022 0.368 8.47 4.95 9.38
6/4/2022 9:15:00 PM 22.72 72.896 0.368 8.46 4.62 9.28
6/4/2022 9:30:00 PM 22.64 72.752 0.368 8.45 5.31 9.19
6/4/2022 9:45:00 PM 22.56 72.608 0.368 8.44 5.12 9.11
6/4/2022 10:00:00 PM 22.49 72.482 0.369 8.43 5.59 9.03
6/4/2022 10:15:00 PM 22.4 72.32 0.369 8.41 5.31 8.96
6/4/2022 10:30:00 PM 22.31 72.158 0.369 8.39 5.05 8.86
6/4/2022 10:45:00 PM 22.23 72.014 0.37 8.38 4.93 8.79
6/4/2022 11:00:00 PM 22.13 71.834 0.37 8.37 4.39 8.72
6/4/2022 11:15:00 PM 22.04 71.672 0.37 8.36 4.78 8.66
6/4/2022 11:30:00 PM 21.94 71.492 0.37 8.35 5 8.59
6/4/2022 11:45:00 PM 21.84 71.312 0.371 8.33 5.57 8.51
6/5/2022 12:00:00 AM 21.75 71.15 0.371 8.31 4.92 8.46
6/5/2022 12:15:00 AM 21.66 70.988 0.372 8.3 5.17 8.4
6/5/2022 12:30:00 AM 21.55 70.79 0.372 8.28 5.22 8.34
6/5/2022 12:45:00 AM 21.45 70.61 0.372 8.28 4.84 8.3
6/5/2022 1:00:00 AM 21.35 70.43 0.373 8.27 5.1 8.24
6/5/2022 1:15:00 AM 21.26 70.268 0.373 8.26 4.96 8.21
6/5/2022 1:30:00 AM 21.15 70.07 0.373 8.24 5.15 8.15
6/5/2022 1:45:00 AM 21.06 69.908 0.374 8.23 5.24 8.12
6/5/2022 2:00:00 AM 20.95 69.71 0.374 8.22 4.89 8.08
6/5/2022 2:15:00 AM 20.85 69.53 0.374 8.2 5.05 8.02
6/5/2022 2:30:00 AM 20.75 69.35 0.375 8.19 5.02 7.97
6/5/2022 2:45:00 AM 20.67 69.206 0.375 8.18 4.96 7.97
6/5/2022 3:00:00 AM 20.58 69.044 0.375 8.18 5.09 7.94
6/5/2022 3:15:00 AM 20.48 68.864 0.375 8.18 5.06 7.92
6/5/2022 3:30:00 AM 20.4 68.72 0.376 8.16 5.28 7.88
6/5/2022 3:45:00 AM 20.31 68.558 0.376 8.16 5.73 7.89
6/5/2022 4:00:00 AM 20.24 68.432 0.376 8.15 5.85 7.87
6/5/2022 4:15:00 AM 20.15 68.27 0.377 8.16 4.94 7.85
6/5/2022 4:30:00 AM 20.07 68.126 0.377 8.14 5.18 7.83
6/5/2022 4:45:00 AM 19.99 67.982 0.377 8.14 5.2 7.84
6/5/2022 5:00:00 AM 19.91 67.838 0.377 8.14 5.66 7.81
6/5/2022 5:15:00 AM 19.83 67.694 0.378 8.13 5.62 7.81
6/5/2022 5:30:00 AM 19.75 67.55 0.378 8.13 5.66 7.77
6/5/2022 5:45:00 AM 19.68 67.424 0.378 8.12 5.49 7.78
6/5/2022 6:00:00 AM 19.61 67.298 0.379 8.12 5.35 7.78
6/5/2022 6:15:00 AM 19.55 67.19 0.379 8.1 5.38 7.79
6/5/2022 6:30:00 AM 19.5 67.1 0.379 8.07 5.46 7.77
6/5/2022 6:45:00 AM 19.46 67.028 0.379 8.09 5.54 7.78
6/5/2022 7:00:00 AM 19.43 66.974 0.38 8.1 5.66 7.81
6/5/2022 7:15:00 AM 19.39 66.902 0.38 8.11 5.17 7.87
6/5/2022 7:30:00 AM 19.38 66.884 0.38 8.11 5.2 7.91
6/5/2022 7:45:00 AM 19.39 66.902 0.38 8.12 5.5 7.95
6/5/2022 8:00:00 AM 19.38 66.884 0.38 8.13 5.05 8.02
6/5/2022 8:15:00 AM 19.33 66.794 0.381 8.13 4.58 8.05
6/5/2022 8:30:00 AM 19.33 66.794 0.381 8.14 5.04 8.15
6/5/2022 8:45:00 AM 19.37 66.866 0.381 8.16 5.39 8.27
6/5/2022 9:00:00 AM 19.4 66.92 0.382 8.17 4.88 8.38
6/5/2022 9:15:00 AM 19.41 66.938 0.382 8.18 4.72 8.43
6/5/2022 9:30:00 AM 19.46 67.028 0.382 8.2 4.88 8.54
6/5/2022 9:45:00 AM 19.56 67.208 0.382 8.22 4.98 8.64
6/5/2022 10:00:00 AM 19.64 67.352 0.383 8.23 5.25 8.75
6/5/2022 10:15:00 AM 19.7 67.46 0.383 8.24 4.76 8.84
6/5/2022 10:30:00 AM 19.8 67.64 0.383 8.26 4.51 8.94
6/5/2022 10:45:00 AM 19.91 67.838 0.383 8.28 6.57 9.02
6/5/2022 11:00:00 AM 19.99 67.982 0.383 8.28 5.12 9.11
6/5/2022 11:15:00 AM 20.11 68.198 0.384 8.3 4.73 9.24
6/5/2022 11:30:00 AM 20.22 68.396 0.384 8.32 5.32 9.31
6/5/2022 11:45:00 AM 20.38 68.684 0.384 8.33 4.95 9.43
6/5/2022 12:00:00 PM 20.54 68.972 0.385 8.35 4.38 9.54
6/5/2022 12:15:00 PM 20.72 69.296 0.385 8.36 4.16 9.65
6/5/2022 12:30:00 PM 20.86 69.548 0.385 8.37 4.45 9.73
6/5/2022 12:45:00 PM 21 69.8 0.385 8.38 5.25 9.76
6/5/2022 1:00:00 PM 21.16 70.088 0.386 8.39 5.1 9.83
6/5/2022 1:15:00 PM 21.33 70.394 0.386 8.41 4.63 9.91
6/5/2022 1:30:00 PM 21.49 70.682 0.386 8.41 4.43 9.95
6/5/2022 1:45:00 PM 21.63 70.934 0.386 8.43 4.78 10.03
6/5/2022 2:00:00 PM 21.82 71.276 0.387 8.44 5.16 10.09
6/5/2022 2:15:00 PM 21.96 71.528 0.387 8.45 4.86 10.16
6/5/2022 2:30:00 PM 22.13 71.834 0.387 8.46 4.53 10.22
6/5/2022 2:45:00 PM 22.19 71.942 0.388 8.46 4.71 10.21
6/5/2022 3:00:00 PM 22.26 72.068 0.388 8.47 4.41 10.23
6/5/2022 3:15:00 PM 22.32 72.176 0.388 8.48 4.95 10.24
6/5/2022 3:30:00 PM 22.37 72.266 0.388 8.48 4.37 10.29
6/5/2022 3:45:00 PM 22.52 72.536 0.389 8.48 4.35 10.32
6/5/2022 4:00:00 PM 22.62 72.716 0.389 8.5 4.69 10.37
6/5/2022 4:15:00 PM 22.7 72.86 0.389 8.5 4.26 10.4
6/5/2022 4:30:00 PM 22.78 73.004 0.389 8.51 4.42 10.44
6/5/2022 4:45:00 PM 22.85 73.13 0.39 8.51 4.53 10.45
6/5/2022 5:00:00 PM 22.92 73.256 0.39 8.52 4.27 10.47
6/5/2022 5:15:00 PM 22.99 73.382 0.39 8.52 4.13 10.46
6/5/2022 5:30:00 PM 23.06 73.508 0.39 8.54 4.35 10.52
6/5/2022 5:45:00 PM 23.09 73.562 0.39 8.54 4.62 10.48
6/5/2022 6:00:00 PM 23.1 73.58 0.39 8.54 4.82 10.52
6/5/2022 6:15:00 PM 23.1 73.58 0.39 8.55 4.43 10.48
6/5/2022 6:30:00 PM 23.07 73.526 0.39 8.55 4.69 10.48
6/5/2022 6:45:00 PM 23.05 73.49 0.39 8.55 4.91 10.42
6/5/2022 7:00:00 PM 23.02 73.436 0.39 8.56 4.66 10.4
6/5/2022 7:15:00 PM 22.98 73.364 0.39 8.56 4.61 10.37
6/5/2022 7:30:00 PM 22.9 73.22 0.39 8.56 4.52 10.29
6/5/2022 7:45:00 PM 22.83 73.094 0.39 8.54 5.06 10.16
6/5/2022 8:00:00 PM 22.78 73.004 0.39 8.54 4.79 10.07
6/5/2022 8:15:00 PM 22.76 72.968 0.39 8.54 4.96 9.99
6/5/2022 8:30:00 PM 22.72 72.896 0.39 8.53 4.68 9.92
6/5/2022 8:45:00 PM 22.71 72.878 0.39 8.52 4.37 9.81
6/5/2022 9:00:00 PM 22.67 72.806 0.39 8.51 4.82 9.72
6/5/2022 9:15:00 PM 22.64 72.752 0.39 8.5 5.04 9.64
6/5/2022 9:30:00 PM 22.6 72.68 0.39 8.49 5.61 9.54
6/5/2022 9:45:00 PM 22.56 72.608 0.39 8.48 5.16 9.45
6/5/2022 10:00:00 PM 22.53 72.554 0.39 8.47 5.21 9.37
6/5/2022 10:15:00 PM 22.49 72.482 0.39 8.46 4.64 9.26
6/5/2022 10:30:00 PM 22.44 72.392 0.39 8.45 5.01 9.17
6/5/2022 10:45:00 PM 22.4 72.32 0.39 8.43 5.02 9.09
6/5/2022 11:00:00 PM 22.34 72.212 0.39 8.42 5.32 8.97
6/5/2022 11:15:00 PM 22.28 72.104 0.39 8.41 5.42 8.91
6/5/2022 11:30:00 PM 22.22 71.996 0.39 8.39 4.95 8.82
6/5/2022 11:45:00 PM 22.16 71.888 0.39 8.37 5.18 8.73
6/6/2022 12:00:00 AM 22.11 71.798 0.39 8.36 5.23 8.64
6/6/2022 12:15:00 AM 22.04 71.672 0.39 8.34 4.56 8.51
6/6/2022 12:30:00 AM 21.98 71.564 0.39 8.33 4.95 8.5
6/6/2022 12:45:00 AM 21.93 71.474 0.39 8.32 5.2 8.43
6/6/2022 1:00:00 AM 21.87 71.366 0.39 8.3 5.2 8.36
6/6/2022 1:15:00 AM 21.81 71.258 0.39 8.29 5.37 8.31
6/6/2022 1:30:00 AM 21.75 71.15 0.39 8.28 5.25 8.24
6/6/2022 1:45:00 AM 21.7 71.06 0.39 8.27 4.72 8.2
6/6/2022 2:00:00 AM 21.64 70.952 0.39 8.25 5.19 8.12
6/6/2022 2:15:00 AM 21.57 70.826 0.39 8.24 5.12 8.08
6/6/2022 2:30:00 AM 21.51 70.718 0.39 8.23 5.16 8.02
6/6/2022 2:45:00 AM 21.45 70.61 0.39 8.22 5.42 8
6/6/2022 3:00:00 AM 21.38 70.484 0.39 8.2 5.15 7.95
6/6/2022 3:15:00 AM 21.32 70.376 0.39 8.2 5.01 7.92
6/6/2022 3:30:00 AM 21.26 70.268 0.39 8.18 5.2 7.87
6/6/2022 3:45:00 AM 21.2 70.16 0.39 8.18 6.35 7.86
6/6/2022 4:00:00 AM 21.14 70.052 0.39 8.17 5.07 7.79
6/6/2022 4:15:00 AM 21.08 69.944 0.39 8.16 4.71 7.79
6/6/2022 4:30:00 AM 21.03 69.854 0.39 8.16 5.38 7.75
6/6/2022 4:45:00 AM 20.96 69.728 0.39 8.15 5.45 7.74
6/6/2022 5:00:00 AM 20.91 69.638 0.39 8.14 5.51 7.71
6/6/2022 5:15:00 AM 20.86 69.548 0.39 8.13 6.05 7.69
6/6/2022 5:30:00 AM 20.79 69.422 0.39 8.12 5.59 7.66
6/6/2022 5:45:00 AM 20.74 69.332 0.39 8.12 5.7 7.65
6/6/2022 6:00:00 AM 20.69 69.242 0.39 8.11 5.88 7.63
6/6/2022 6:15:00 AM 20.63 69.134 0.39 8.1 5.87 7.63
6/6/2022 6:30:00 AM 20.59 69.062 0.39 8.1 5.81 7.62
6/6/2022 6:45:00 AM 20.57 69.026 0.39 8.11 5.34 7.65
6/6/2022 7:00:00 AM 20.56 69.008 0.39 8.11 5.28 7.69
6/6/2022 7:15:00 AM 20.55 68.99 0.391 8.1 5.34 7.69
6/6/2022 7:30:00 AM 20.55 68.99 0.39 8.11 5.02 7.77
6/6/2022 7:45:00 AM 20.57 69.026 0.39 8.12 5.14 7.81
6/6/2022 8:00:00 AM 20.56 69.008 0.391 8.13 5.37 7.9
6/6/2022 8:15:00 AM 20.57 69.026 0.391 8.13 5.26 7.98
6/6/2022 8:30:00 AM 20.61 69.098 0.39 8.15 5.14 8.09
6/6/2022 8:45:00 AM 20.67 69.206 0.39 8.16 4.99 8.19
6/6/2022 9:00:00 AM 20.74 69.332 0.39 8.18 4.93 8.31
6/6/2022 9:15:00 AM 20.8 69.44 0.39 8.2 5.03 8.43
6/6/2022 9:30:00 AM 20.86 69.548 0.391 8.22 5.36 8.49
6/6/2022 9:45:00 AM 20.94 69.692 0.391 8.23 5.17 8.64
6/6/2022 10:00:00 AM 21.03 69.854 0.391 8.24 4.78 8.73
6/6/2022 10:15:00 AM 21.13 70.034 0.391 8.25 5.13 8.82
6/6/2022 10:30:00 AM 21.26 70.268 0.391 8.27 5.41 8.93
6/6/2022 10:45:00 AM 21.43 70.574 0.391 8.29 5.24 9.06
6/6/2022 11:00:00 AM 21.58 70.844 0.391 8.31 4.74 9.18
6/6/2022 11:15:00 AM 21.72 71.096 0.391 8.33 4.75 9.32
6/6/2022 11:30:00 AM 21.88 71.384 0.391 8.35 5.51 9.41
6/6/2022 11:45:00 AM 22.04 71.672 0.391 8.37 5.4 9.54
6/6/2022 12:00:00 PM 22.16 71.888 0.391 8.38 5.66 9.61
6/6/2022 12:15:00 PM 22.31 72.158 0.391 8.4 5.78 9.7
6/6/2022 12:30:00 PM 22.46 72.42799 0.391 8.41 4.73 9.8
6/6/2022 12:45:00 PM 22.6 72.68 0.391 8.42 5.8 9.86
6/6/2022 1:00:00 PM 22.74 72.932 0.391 8.43 4.7 9.94
6/6/2022 1:15:00 PM 22.92 73.256 0.391 8.45 5.18 10.04
6/6/2022 1:30:00 PM 23.05 73.49 0.392 8.46 7.11 10.08
6/6/2022 1:45:00 PM 23.11 73.598 0.392 8.47 5.24 10.16
6/6/2022 2:00:00 PM 23.23 73.814 0.392 8.48 4.78 10.18
6/6/2022 2:15:00 PM 23.35 74.03 0.392 8.49 4.83 10.2
6/6/2022 2:30:00 PM 23.44 74.192 0.392 8.5 5.38 10.3
6/6/2022 2:45:00 PM 23.55 74.39 0.392 8.51 4.53 10.34
6/6/2022 3:00:00 PM 23.64 74.552 0.392 8.52 5.88 10.4
6/6/2022 3:15:00 PM 23.69 74.642 0.392 8.52 4.81 10.38
6/6/2022 3:30:00 PM 23.78 74.804 0.393 8.54 5.31 10.49
6/6/2022 3:45:00 PM 23.83 74.894 0.393 8.54 5.02 10.5
6/6/2022 4:00:00 PM 23.87 74.966 0.393 8.54 4.97 10.53
6/6/2022 4:15:00 PM 23.88 74.984 0.393 8.55 4.78 10.48
6/6/2022 4:30:00 PM 23.9 75.02 0.393 8.55 6.03 10.52
6/6/2022 4:45:00 PM 23.92 75.056 0.393 8.56 5.06 10.56
6/6/2022 5:00:00 PM 23.91 75.038 0.393 8.56 4.6 10.57
6/6/2022 5:15:00 PM 23.9 75.02 0.393 8.57 4.2 10.56
6/6/2022 5:30:00 PM 23.9 75.02 0.393 8.57 4.53 10.55
6/6/2022 5:45:00 PM 23.91 75.038 0.393 8.57 5.22 10.54
6/6/2022 6:00:00 PM 23.91 75.038 0.393 8.57 4.21 10.56
6/6/2022 6:15:00 PM 23.89 75.002 0.393 8.57 4.42 10.49
6/6/2022 6:30:00 PM 23.84 74.912 0.393 8.57 4.45 10.51
6/6/2022 6:45:00 PM 23.8 74.84 0.393 8.56 5.01 10.46
6/6/2022 7:00:00 PM 23.73 74.714 0.393 8.57 4.35 10.41
6/6/2022 7:15:00 PM 23.7 74.66 0.393 8.56 4.16 10.34
6/6/2022 7:30:00 PM 23.66 74.588 0.393 8.56 4.83 10.27
6/6/2022 7:45:00 PM 23.61 74.498 0.393 8.56 4.65 10.23
6/6/2022 8:00:00 PM 23.56 74.408 0.394 8.55 4.55 10.13
6/6/2022 8:15:00 PM 23.5 74.3 0.394 8.53 4.63 10
6/6/2022 8:30:00 PM 23.46 74.228 0.394 8.52 4.87 9.93
6/6/2022 8:45:00 PM 23.4 74.12 0.394 8.51 4.67 9.81
6/6/2022 9:00:00 PM 23.36 74.048 0.394 8.5 4.61 9.71
6/6/2022 9:15:00 PM 23.31 73.958 0.394 8.49 4.81 9.58
6/6/2022 9:30:00 PM 23.26 73.868 0.394 8.47 4.77 9.47
6/6/2022 9:45:00 PM 23.22 73.796 0.394 8.46 4.54 9.35
6/6/2022 10:00:00 PM 23.18 73.724 0.395 8.45 4.83 9.24
6/6/2022 10:15:00 PM 23.13 73.634 0.395 8.43 4.51 9.13
6/6/2022 10:30:00 PM 23.08 73.544 0.395 8.41 4.74 9
6/6/2022 10:45:00 PM 23.04 73.472 0.395 8.4 4.66 8.91
6/6/2022 11:00:00 PM 22.99 73.382 0.395 8.38 6.28 8.8
6/6/2022 11:15:00 PM 22.94 73.292 0.395 8.36 4.53 8.7
6/6/2022 11:30:00 PM 22.89 73.202 0.395 8.35 4.84 8.62
6/6/2022 11:45:00 PM 22.85 73.13 0.395 8.34 5.17 8.54
6/7/2022 12:00:00 AM 22.79 73.022 0.395 8.32 4.77 8.47
6/7/2022 12:15:00 AM 22.74 72.932 0.395 8.31 4.76 8.39
6/7/2022 12:30:00 AM 22.69 72.842 0.395 8.29 4.8 8.32
6/7/2022 12:45:00 AM 22.64 72.752 0.395 8.28 4.98 8.23
6/7/2022 1:00:00 AM 22.58 72.644 0.395 8.26 4.43 8.12
6/7/2022 1:15:00 AM 22.54 72.57201 0.395 8.25 4.94 8.1
6/7/2022 1:30:00 AM 22.49 72.482 0.395 8.23 4.71 8.02
6/7/2022 1:45:00 AM 22.44 72.392 0.395 8.23 5.12 7.97
6/7/2022 2:00:00 AM 22.39 72.302 0.395 8.21 5.2 7.92
6/7/2022 2:15:00 AM 22.34 72.212 0.395 8.2 4.84 7.86
6/7/2022 2:30:00 AM 22.29 72.122 0.395 8.19 5.32 7.79
6/7/2022 2:45:00 AM 22.23 72.014 0.395 8.17 5.35 7.74
6/7/2022 3:00:00 AM 22.18 71.924 0.395 8.16 4.85 7.72
6/7/2022 3:15:00 AM 22.14 71.852 0.395 8.15 4.73 7.67
6/7/2022 3:30:00 AM 22.1 71.78 0.395 8.14 5.43 7.63
6/7/2022 3:45:00 AM 22.05 71.69 0.395 8.13 4.96 7.59
6/7/2022 4:00:00 AM 22 71.6 0.395 8.13 4.28 7.56
6/7/2022 4:15:00 AM 21.95 71.51 0.395 8.12 4.63 7.55
6/7/2022 4:30:00 AM 21.91 71.438 0.395 8.11 4.98 7.47
6/7/2022 4:45:00 AM 21.87 71.366 0.395 8.1 4.85 7.46
6/7/2022 5:00:00 AM 21.82 71.276 0.395 8.09 5.23 7.43
6/7/2022 5:15:00 AM 21.78 71.204 0.395 8.08 4.56 7.41
6/7/2022 5:30:00 AM 21.73 71.114 0.395 8.07 4.77 7.37
6/7/2022 5:45:00 AM 21.69 71.042 0.395 8.07 4.86 7.37
6/7/2022 6:00:00 AM 21.65 70.97 0.395 8.07 4.98 7.35
6/7/2022 6:15:00 AM 21.61 70.898 0.395 8.06 4.45 7.28
6/7/2022 6:30:00 AM 21.58 70.844 0.394 8.05 4.47 7.3
6/7/2022 6:45:00 AM 21.55 70.79 0.395 8.05 5.17 7.3
6/7/2022 7:00:00 AM 21.53 70.754 0.395 8.05 4.84 7.32
6/7/2022 7:15:00 AM 21.51 70.718 0.395 8.06 5.13 7.35
6/7/2022 7:30:00 AM 21.47 70.646 0.395 8.06 5.26 7.39
6/7/2022 7:45:00 AM 21.44 70.592 0.395 8.06 5.04 7.42
6/7/2022 8:00:00 AM 21.41 70.538 0.395 8.07 4.75 7.48
6/7/2022 8:15:00 AM 21.39 70.502 0.395 8.07 4.7 7.51
6/7/2022 8:30:00 AM 21.39 70.502 0.395 8.09 4.56 7.62
6/7/2022 8:45:00 AM 21.4 70.52 0.395 8.11 4.88 7.75
6/7/2022 9:00:00 AM 21.43 70.574 0.395 8.13 4.46 7.87
6/7/2022 9:15:00 AM 21.45 70.61 0.395 8.14 4.24 7.98
6/7/2022 9:30:00 AM 21.48 70.664 0.395 8.16 4.38 8.1
6/7/2022 9:45:00 AM 21.54 70.772 0.395 8.18 4.37 8.22
6/7/2022 10:00:00 AM 21.56 70.808 0.395 8.19 4.35 8.28
6/7/2022 10:15:00 AM 21.56 70.808 0.395 8.2 4.16 8.37
6/7/2022 10:30:00 AM 21.56 70.808 0.395 8.22 4.33 8.46
6/7/2022 10:45:00 AM 21.56 70.808 0.395 8.23 4.24 8.5
6/7/2022 11:00:00 AM 21.55 70.79 0.395 8.24 4.24 8.6
6/7/2022 11:15:00 AM 21.54 70.772 0.395 8.26 4.58 8.67
6/7/2022 11:30:00 AM 21.52 70.736 0.395 8.26 4.29 8.7
6/7/2022 11:45:00 AM 21.5 70.7 0.395 8.27 3.92 8.74
6/7/2022 12:00:00 PM 21.5 70.7 0.395 8.28 4.14 8.77
6/7/2022 12:15:00 PM 21.5 70.7 0.396 8.28 3.99 8.8
6/7/2022 12:30:00 PM 21.48 70.664 0.396 8.29 3.9 8.83
6/7/2022 12:45:00 PM 21.48 70.664 0.396 8.29 4.93 8.85
6/7/2022 1:00:00 PM 21.47 70.646 0.396 8.3 4.05 8.92
6/7/2022 1:15:00 PM 21.44 70.592 0.396 8.3 4.34 8.88
6/7/2022 1:30:00 PM 21.43 70.574 0.396 8.31 4.05 8.94
6/7/2022 1:45:00 PM 21.43 70.574 0.396 8.3 4.54 8.97
6/7/2022 2:00:00 PM 21.44 70.592 0.396 8.32 4.47 8.99
6/7/2022 2:15:00 PM 21.43 70.574 0.396 8.32 4.34 9.05
6/7/2022 2:30:00 PM 21.43 70.574 0.396 8.32 3.97 9.05
6/7/2022 2:45:00 PM 21.44 70.592 0.397 8.33 4.33 9.07
6/7/2022 3:00:00 PM 21.45 70.61 0.397 8.33 4.07 9.14
6/7/2022 3:15:00 PM 21.46 70.628 0.397 8.34 4.22 9.17
6/7/2022 3:30:00 PM 21.44 70.592 0.397 8.34 4.14 9.19
6/7/2022 3:45:00 PM 21.42 70.556 0.397 8.34 4.28 9.16
6/7/2022 4:00:00 PM 21.41 70.538 0.397 8.34 4.1 9.19
6/7/2022 4:15:00 PM 21.41 70.538 0.397 8.34 3.66 9.21
6/7/2022 4:30:00 PM 21.4 70.52 0.397 8.34 3.81 9.18
6/7/2022 4:45:00 PM 21.38 70.484 0.398 8.34 3.7 9.16
6/7/2022 5:00:00 PM 21.38 70.484 0.398 8.34 3.99 9.17
6/7/2022 5:15:00 PM 21.36 70.448 0.398 8.33 4.21 9.12
6/7/2022 5:30:00 PM 21.35 70.43 0.399 8.32 3.98 9.08
6/7/2022 5:45:00 PM 21.35 70.43 0.399 8.32 3.6 9.07
6/7/2022 6:00:00 PM 21.36 70.448 0.399 8.32 4.29 9.1
6/7/2022 6:15:00 PM 21.35 70.43 0.4 8.32 3.94 9.09
6/7/2022 6:30:00 PM 21.34 70.412 0.4 8.31 4 9.05
6/7/2022 6:45:00 PM 21.32 70.376 0.4 8.31 4.19 9.03
6/7/2022 7:00:00 PM 21.31 70.358 0.4 8.31 3.67 9.04
6/7/2022 7:15:00 PM 21.3 70.34 0.401 8.3 4.04 9.02
6/7/2022 7:30:00 PM 21.29 70.32201 0.401 8.31 3.78 9.03
6/7/2022 7:45:00 PM 21.27 70.286 0.402 8.3 3.96 8.96
6/7/2022 8:00:00 PM 21.25 70.25 0.402 8.3 4.2 8.94
6/7/2022 8:15:00 PM 21.23 70.214 0.402 8.28 3.96 8.89
6/7/2022 8:30:00 PM 21.2 70.16 0.403 8.27 4.22 8.82
6/7/2022 8:45:00 PM 21.18 70.124 0.403 8.26 4.3 8.76
6/7/2022 9:00:00 PM 21.15 70.07 0.403 8.25 4.41 8.69
6/7/2022 9:15:00 PM 21.12 70.016 0.404 8.24 4.07 8.62
6/7/2022 9:30:00 PM 21.09 69.962 0.404 8.22 4.47 8.54
6/7/2022 9:45:00 PM 21.05 69.89 0.404 8.21 4.62 8.47
6/7/2022 10:00:00 PM 21.03 69.854 0.405 8.2 4.76 8.42
6/7/2022 10:15:00 PM 21 69.8 0.405 8.18 4.3 8.33
6/7/2022 10:30:00 PM 20.97 69.746 0.405 8.16 4.25 8.26
6/7/2022 10:45:00 PM 20.94 69.692 0.405 8.15 4.41 8.19
6/7/2022 11:00:00 PM 20.91 69.638 0.406 8.14 4.41 8.15
6/7/2022 11:15:00 PM 20.89 69.602 0.406 8.13 4.41 8.09
6/7/2022 11:30:00 PM 20.86 69.548 0.406 8.12 4.58 8.05
6/7/2022 11:45:00 PM 20.83 69.494 0.406 8.11 4.51 8
6/8/2022 12:00:00 AM 20.81 69.458 0.407 8.1 4.45 7.97
6/8/2022 12:15:00 AM 20.79 69.422 0.407 8.09 4.46 7.92
6/8/2022 12:30:00 AM 20.76 69.368 0.407 8.08 5.29 7.87
6/8/2022 12:45:00 AM 20.74 69.332 0.407 8.07 4.37 7.82
6/8/2022 1:00:00 AM 20.72 69.296 0.407 8.06 4.82 7.8
6/8/2022 1:15:00 AM 20.69 69.242 0.408 8.05 4.44 7.75
6/8/2022 1:30:00 AM 20.66 69.188 0.408 8.05 4.82 7.74
6/8/2022 1:45:00 AM 20.63 69.134 0.408 8.04 4.38 7.69
6/8/2022 2:00:00 AM 20.59 69.062 0.408 8.04 4.42 7.66
6/8/2022 2:15:00 AM 20.56 69.008 0.408 8.03 4.69 7.63
6/8/2022 2:30:00 AM 20.5 68.9 0.408 8.02 4.21 7.6
6/8/2022 2:45:00 AM 20.46 68.828 0.408 8.02 4.6 7.59
6/8/2022 3:00:00 AM 20.42 68.756 0.409 8.01 4.74 7.56
6/8/2022 3:15:00 AM 20.37 68.666 0.409 8.01 4.57 7.54
6/8/2022 3:30:00 AM 20.3 68.54 0.409 8 4.28 7.52
6/8/2022 3:45:00 AM 20.25 68.45 0.409 8 4.64 7.52
6/8/2022 4:00:00 AM 20.17 68.306 0.409 8 4.45 7.52
6/8/2022 4:15:00 AM 20.12 68.216 0.409 8 5.02 7.51
6/8/2022 4:30:00 AM 20.05 68.09 0.409 7.99 4.94 7.49
6/8/2022 4:45:00 AM 19.99 67.982 0.41 7.98 5 7.47
6/8/2022 5:00:00 AM 19.93 67.874 0.41 7.98 4.75 7.45
6/8/2022 5:15:00 AM 19.87 67.766 0.41 7.98 4.76 7.45
6/8/2022 5:30:00 AM 19.81 67.658 0.41 7.98 4.87 7.44
6/8/2022 5:45:00 AM 19.75 67.55 0.41 7.97 4.81 7.43
6/8/2022 6:00:00 AM 19.7 67.46 0.41 7.97 4.64 7.34
6/8/2022 6:15:00 AM 19.65 67.37 0.41 7.97 5.22 7.44
6/8/2022 6:30:00 AM 19.62 67.316 0.41 7.97 5.02 7.46
6/8/2022 6:45:00 AM 19.61 67.298 0.41 7.97 4.55 7.47
6/8/2022 7:00:00 AM 19.6 67.28 0.411 7.97 4.65 7.5
6/8/2022 7:15:00 AM 19.6 67.28 0.411 7.97 4.46 7.52
6/8/2022 7:30:00 AM 19.6 67.28 0.411 7.98 4.64 7.57
6/8/2022 7:45:00 AM 19.62 67.316 0.411 7.98 4.79 7.64
6/8/2022 8:00:00 AM 19.62 67.316 0.411 7.99 4.63 7.71
6/8/2022 8:15:00 AM 19.62 67.316 0.411 8 4.25 7.77
6/8/2022 8:30:00 AM 19.65 67.37 0.411 8 4.47 7.82
6/8/2022 8:45:00 AM 19.69 67.442 0.412 8.02 4.61 7.94
6/8/2022 9:00:00 AM 19.76 67.568 0.412 8.03 4.37 8.06
6/8/2022 9:15:00 AM 19.85 67.73 0.412 8.05 4.49 8.19
6/8/2022 9:30:00 AM 19.92 67.856 0.412 8.06 4.19 8.28
6/8/2022 9:45:00 AM 20.03 68.054 0.412 8.08 5.27 8.39
6/8/2022 10:00:00 AM 20.09 68.162 0.412 8.1 4.41 8.5
6/8/2022 10:15:00 AM 20.23 68.414 0.412 8.12 4.27 8.61
6/8/2022 10:30:00 AM 20.38 68.684 0.413 8.13 4.7 8.7
6/8/2022 10:45:00 AM 20.54 68.972 0.413 8.14 4.7 8.81
6/8/2022 11:00:00 AM 20.72 69.296 0.413 8.16 4.55 8.93
6/8/2022 11:15:00 AM 20.77 69.386 0.413 8.18 4.39 9
6/8/2022 11:30:00 AM 20.95 69.71 0.413 8.19 4.27 9.07
6/8/2022 11:45:00 AM 21.06 69.908 0.413 8.2 4.4 9.19
6/8/2022 12:00:00 PM 21.21 70.17799 0.413 8.22 4.53 9.3
6/8/2022 12:15:00 PM 21.33 70.394 0.413 8.24 4.07 9.37
6/8/2022 12:30:00 PM 21.48 70.664 0.414 8.25 4.12 9.46
6/8/2022 12:45:00 PM 21.53 70.754 0.414 8.27 4.13 9.53
6/8/2022 1:00:00 PM 21.57 70.826 0.414 8.28 3.93 9.57
6/8/2022 1:15:00 PM 21.69 71.042 0.414 8.29 4.15 9.64
6/8/2022 1:30:00 PM 21.83 71.294 0.414 8.31 4.06 9.75
6/8/2022 1:45:00 PM 21.84 71.312 0.414 8.31 4 9.77
6/8/2022 2:00:00 PM 21.86 71.348 0.414 8.32 3.94 9.81
6/8/2022 2:15:00 PM 21.91 71.438 0.414 8.33 3.96 9.83
6/8/2022 2:30:00 PM 22.01 71.618 0.415 8.34 3.74 9.91
6/8/2022 2:45:00 PM 22.15 71.87 0.415 8.35 3.81 9.97
6/8/2022 3:00:00 PM 22.33 72.194 0.415 8.36 3.79 10.02
6/8/2022 3:15:00 PM 22.44 72.392 0.415 8.36 4.5 10.04
6/8/2022 3:30:00 PM 22.56 72.608 0.416 8.37 4.38 10.05
6/8/2022 3:45:00 PM 22.63 72.734 0.416 8.38 3.93 10.1
6/8/2022 4:00:00 PM 22.71 72.878 0.416 8.38 4.33 10.11
6/8/2022 4:15:00 PM 22.81 73.058 0.416 8.39 3.71 10.12
6/8/2022 4:30:00 PM 22.87 73.166 0.416 8.39 4.01 10.14
6/8/2022 4:45:00 PM 22.93 73.274 0.417 8.4 4.16 10.16
6/8/2022 5:00:00 PM 22.96 73.328 0.417 8.4 4.76 10.15
6/8/2022 5:15:00 PM 22.98 73.364 0.417 8.41 4.01 10.19
6/8/2022 5:30:00 PM 23.01 73.418 0.417 8.41 3.96 10.18
6/8/2022 5:45:00 PM 23.03 73.454 0.417 8.41 4.01 10.17
6/8/2022 6:00:00 PM 23.01 73.418 0.417 8.41 4.15 10.17
6/8/2022 6:15:00 PM 22.98 73.364 0.418 8.42 3.98 10.16
6/8/2022 6:30:00 PM 22.92 73.256 0.418 8.42 3.98 10.14
6/8/2022 6:45:00 PM 22.87 73.166 0.418 8.42 3.98 10.11
6/8/2022 7:00:00 PM 22.81 73.058 0.418 8.41 4.13 10.05
6/8/2022 7:15:00 PM 22.75 72.95 0.418 8.41 3.85 10
6/8/2022 7:30:00 PM 22.7 72.86 0.419 8.41 4.25 9.93
6/8/2022 7:45:00 PM 22.66 72.788 0.419 8.41 4 9.88
6/8/2022 8:00:00 PM 22.62 72.716 0.419 8.4 3.82 9.82
6/8/2022 8:15:00 PM 22.58 72.644 0.419 8.39 3.95 9.77
6/8/2022 8:30:00 PM 22.52 72.536 0.419 8.38 4.09 9.67
6/8/2022 8:45:00 PM 22.46 72.42799 0.42 8.38 4.37 9.62
6/8/2022 9:00:00 PM 22.4 72.32 0.42 8.37 4.08 9.52
6/8/2022 9:15:00 PM 22.35 72.23 0.42 8.36 4.41 9.44
6/8/2022 9:30:00 PM 22.29 72.122 0.42 8.34 4.26 9.37
6/8/2022 9:45:00 PM 22.24 72.032 0.421 8.33 4.39 9.27
6/8/2022 10:00:00 PM 22.18 71.924 0.421 8.32 4.39 9.19
6/8/2022 10:15:00 PM 22.13 71.834 0.421 8.31 4.66 9.08
6/8/2022 10:30:00 PM 22.08 71.744 0.421 8.3 4.44 9.01
6/8/2022 10:45:00 PM 22.03 71.654 0.421 8.28 4.67 8.92
6/8/2022 11:00:00 PM 21.99 71.582 0.421 8.27 4.32 8.83
6/8/2022 11:15:00 PM 21.94 71.492 0.422 8.26 4.61 8.75
6/8/2022 11:30:00 PM 21.89 71.402 0.422 8.25 4.38 8.68
6/8/2022 11:45:00 PM 21.86 71.348 0.422 8.24 4.65 8.63
6/9/2022 12:00:00 AM 21.82 71.276 0.422 8.22 4.88 8.52
6/9/2022 12:15:00 AM 21.78 71.204 0.422 8.21 4.61 8.47
6/9/2022 12:30:00 AM 21.75 71.15 0.422 8.2 6.75 8.39
6/9/2022 12:45:00 AM 21.72 71.096 0.422 8.19 5.5 8.32
6/9/2022 1:00:00 AM 21.68 71.024 0.422 8.18 5.03 8.26
6/9/2022 1:15:00 AM 21.63 70.934 0.422 8.17 5 8.21
6/9/2022 1:30:00 AM 21.57 70.826 0.421 8.16 5.17 8.15
6/9/2022 1:45:00 AM 21.48 70.664 0.418 8.15 6.73 8.12
6/9/2022 2:00:00 AM 21.34 70.412 0.412 8.14 12.55 8.12
6/9/2022 2:15:00 AM 21.35 70.43 0.415 8.14 7.91 8.06
6/9/2022 2:30:00 AM 21.29 70.32201 0.414 8.13 11.33 8.03
6/9/2022 2:45:00 AM 21.17 70.106 0.409 8.11 16.44 8.01
6/9/2022 3:00:00 AM 21.06 69.908 0.409 8.11 14.05 7.99
6/9/2022 3:15:00 AM 20.96 69.728 0.408 8.1 15.13 8
6/9/2022 3:30:00 AM 20.84 69.512 0.406 8.09 18.58 7.98
6/9/2022 3:45:00 AM 20.61 69.098 0.397 8.09 28.73 8.03
6/9/2022 4:00:00 AM 20.6 69.08 0.401 8.08 22.47 7.98
6/9/2022 4:15:00 AM 20.46 68.828 0.398 8.06 32.96 7.97
6/9/2022 4:30:00 AM 20.17 68.306 0.391 8.04 44.62 8
6/9/2022 4:45:00 AM 20 68 0.386 8.02 47.35 8
6/9/2022 5:00:00 AM 19.93 67.874 0.384 8.01 42.32 7.99
6/9/2022 5:15:00 AM 19.91 67.838 0.384 8 38.82 7.94
6/9/2022 5:30:00 AM 19.91 67.838 0.385 7.99 32.1 7.9
6/9/2022 5:45:00 AM 19.91 67.838 0.386 7.98 25.85 7.86
6/9/2022 6:00:00 AM 19.93 67.874 0.388 7.98 21.7 7.8
6/9/2022 6:15:00 AM 19.97 67.946 0.39 7.98 18.59 7.77
6/9/2022 6:30:00 AM 19.99 67.982 0.392 7.98 16.12 7.72
6/9/2022 6:45:00 AM 20.01 68.018 0.393 7.97 15.1 7.64
6/9/2022 7:00:00 AM 20.02 68.036 0.395 7.97 12.37 7.63
6/9/2022 7:15:00 AM 20.04 68.07201 0.396 7.97 11.4 7.6
6/9/2022 7:30:00 AM 20.04 68.07201 0.397 7.97 10.83 7.59
6/9/2022 7:45:00 AM 20.06 68.108 0.397 7.97 9.05 7.59
6/9/2022 8:00:00 AM 20.06 68.108 0.397 7.97 8.13 7.59
6/9/2022 8:15:00 AM 20.07 68.126 0.398 7.96 8.35 7.57
6/9/2022 8:30:00 AM 20.13 68.234 0.398 7.98 8.73 7.65
6/9/2022 8:45:00 AM 20.23 68.414 0.399 8 7.57 7.75
6/9/2022 9:00:00 AM 20.26 68.468 0.4 8.01 7.21 7.81
6/9/2022 9:15:00 AM 20.29 68.522 0.401 8.03 6.52 7.89
6/9/2022 9:30:00 AM 20.35 68.63 0.402 8.05 7.32 8.01
6/9/2022 9:45:00 AM 20.37 68.666 0.402 8.06 6.58 8.05
6/9/2022 10:00:00 AM 20.33 68.594 0.4 8.06 6.73 8.07
6/9/2022 10:15:00 AM 20.29 68.522 0.398 8.05 6.61 8.07
6/9/2022 10:30:00 AM 20.2 68.36 0.395 8.05 7.93 8.07
6/9/2022 10:45:00 AM 20.11 68.198 0.393 8.04 7.93 8.12
6/9/2022 11:00:00 AM 20.07 68.126 0.392 8.04 8.28 8.18
6/9/2022 11:15:00 AM 20.1 68.18 0.393 8.05 7.68 8.28
6/9/2022 11:30:00 AM 20.14 68.252 0.394 8.06 7.58 8.37
6/9/2022 11:45:00 AM 20.18 68.324 0.395 8.08 6.47 8.44
6/9/2022 12:00:00 PM 20.24 68.432 0.396 8.09 10.02 8.49
6/9/2022 12:15:00 PM 20.25 68.45 0.397 8.1 7.4 8.52
6/9/2022 12:30:00 PM 20.25 68.45 0.399 8.11 6.81 8.55
6/9/2022 12:45:00 PM 20.25 68.45 0.399 8.11 7.09 8.59
6/9/2022 1:00:00 PM 20.23 68.414 0.4 8.11 6.91 8.61
6/9/2022 1:15:00 PM 20.31 68.558 0.401 8.11 6.97 8.62
6/9/2022 1:30:00 PM 20.35 68.63 0.401 8.12 6.69 8.66
6/9/2022 1:45:00 PM 20.44 68.792 0.401 8.12 7.63 8.7
6/9/2022 2:00:00 PM 20.48 68.864 0.401 8.12 8.02 8.75
6/9/2022 2:15:00 PM 20.46 68.828 0.4 8.13 9.14 8.77
6/9/2022 2:30:00 PM 20.49 68.882 0.398 8.13 9.26 8.78
6/9/2022 2:45:00 PM 20.54 68.972 0.395 8.13 10.04 8.81
6/9/2022 3:00:00 PM 20.54 68.972 0.393 8.13 10.31 8.82
6/9/2022 3:15:00 PM 20.48 68.864 0.391 8.12 10.6 8.8
6/9/2022 3:30:00 PM 20.45 68.81 0.388 8.12 10.82 8.8
6/9/2022 3:45:00 PM 20.44 68.792 0.386 8.12 10.85 8.83
6/9/2022 4:00:00 PM 20.43 68.774 0.384 8.12 12.64 8.82
6/9/2022 4:15:00 PM 20.39 68.702 0.382 8.12 11.94 8.84
6/9/2022 4:30:00 PM 20.38 68.684 0.38 8.13 12.13 8.87
6/9/2022 4:45:00 PM 20.35 68.63 0.379 8.12 13.33 8.84
6/9/2022 5:00:00 PM 20.31 68.558 0.378 8.12 13.47 8.8
6/9/2022 5:15:00 PM 20.28 68.504 0.377 8.12 13.5 8.81
6/9/2022 5:30:00 PM 20.25 68.45 0.376 8.12 13.86 8.82
6/9/2022 5:45:00 PM 20.23 68.414 0.376 8.12 13.86 8.78
6/9/2022 6:00:00 PM 20.22 68.396 0.375 8.12 17.41 8.77
6/9/2022 6:15:00 PM 20.18 68.324 0.375 8.12 14.08 8.76
6/9/2022 6:30:00 PM 20.18 68.324 0.375 8.12 14 8.76
6/9/2022 6:45:00 PM 20.17 68.306 0.374 8.11 14.37 8.74
6/9/2022 7:00:00 PM 20.15 68.27 0.374 8.11 13.09 8.74
6/9/2022 7:15:00 PM 20.12 68.216 0.374 8.11 12.61 8.71
6/9/2022 7:30:00 PM 20.11 68.198 0.373 8.1 13.5 8.7
6/9/2022 7:45:00 PM 20.08 68.144 0.372 8.09 13.15 8.66
6/9/2022 8:00:00 PM 20.03 68.054 0.372 8.08 12.4 8.62
6/9/2022 8:15:00 PM 20 68 0.371 8.07 13.34 8.56
6/9/2022 8:30:00 PM 19.95 67.91 0.37 8.07 14.25 8.56
6/9/2022 8:45:00 PM 19.91 67.838 0.37 8.06 12.46 8.54
6/9/2022 9:00:00 PM 19.87 67.766 0.369 8.04 13.64 8.49
6/9/2022 9:15:00 PM 19.83 67.694 0.369 8.03 13.68 8.45
6/9/2022 9:30:00 PM 19.79 67.622 0.369 8.03 13.52 8.43
6/9/2022 9:45:00 PM 19.75 67.55 0.368 8.02 12.33 8.39
6/9/2022 10:00:00 PM 19.7 67.46 0.368 8.01 12.81 8.37
6/9/2022 10:15:00 PM 19.66 67.388 0.368 8.01 13.52 8.34
6/9/2022 10:30:00 PM 19.61 67.298 0.368 8.01 12.8 8.33
6/9/2022 10:45:00 PM 19.56 67.208 0.368 8 12.53 8.33
6/9/2022 11:00:00 PM 19.52 67.136 0.369 8 12.47 8.32
6/9/2022 11:15:00 PM 19.46 67.028 0.369 8 12.63 8.31
6/9/2022 11:30:00 PM 19.42 66.956 0.369 8 11.56 8.3
6/9/2022 11:45:00 PM 19.37 66.866 0.37 8 12.12 8.3
6/10/2022 12:00:00 AM 19.31 66.758 0.37 8 12.49 8.3
6/10/2022 12:15:00 AM 19.26 66.668 0.37 8 12.7 8.29
6/10/2022 12:30:00 AM 19.21 66.578 0.37 8 11.2 8.3
6/10/2022 12:45:00 AM 19.15 66.47 0.37 8 11.35 8.29
6/10/2022 1:00:00 AM 19.11 66.398 0.37 8 11.1 8.28
6/10/2022 1:15:00 AM 19.07 66.326 0.369 7.99 11.14 8.28
6/10/2022 1:30:00 AM 19.04 66.272 0.368 7.99 10.8 8.28
6/10/2022 1:45:00 AM 19.01 66.218 0.367 7.99 10.57 8.28
6/10/2022 2:00:00 AM 18.98 66.164 0.367 7.99 10.38 8.27
6/10/2022 2:15:00 AM 18.95 66.11 0.365 7.98 10.37 8.25
6/10/2022 2:30:00 AM 18.92 66.056 0.364 7.98 10.52 8.24
6/10/2022 2:45:00 AM 18.89 66.002 0.363 7.98 11.19 8.23
6/10/2022 3:00:00 AM 18.87 65.966 0.361 7.97 10.75 8.2
6/10/2022 3:15:00 AM 18.83 65.894 0.36 7.96 11.23 8.19
6/10/2022 3:30:00 AM 18.8 65.84 0.358 7.95 10.54 8.18
6/10/2022 3:45:00 AM 18.77 65.786 0.357 7.95 11.37 8.16
6/10/2022 4:00:00 AM 18.73 65.714 0.356 7.94 11.2 8.15
6/10/2022 4:15:00 AM 18.7 65.66 0.354 7.94 11.02 8.12
6/10/2022 4:30:00 AM 18.66 65.588 0.353 7.93 12.1 8.11
6/10/2022 4:45:00 AM 18.63 65.534 0.35 7.92 11.79 8.11
6/10/2022 5:00:00 AM 18.58 65.444 0.349 7.92 13.28 8.09
6/10/2022 5:15:00 AM 18.54 65.372 0.348 7.91 12.62 8.07
6/10/2022 5:30:00 AM 18.51 65.318 0.347 7.91 12.78 8.05
6/10/2022 5:45:00 AM 18.48 65.264 0.346 7.91 13.04 8.06
6/10/2022 6:00:00 AM 18.45 65.21 0.344 7.9 14.19 8.04
6/10/2022 6:15:00 AM 18.42 65.156 0.343 7.9 12.77 8.03
6/10/2022 6:30:00 AM 18.4 65.12 0.342 7.89 12.58 8.04
6/10/2022 6:45:00 AM 18.39 65.102 0.341 7.89 13.01 8.04
6/10/2022 7:00:00 AM 18.38 65.084 0.339 7.89 13.02 8.06
6/10/2022 7:15:00 AM 18.39 65.102 0.338 7.89 13.12 8.07
6/10/2022 7:30:00 AM 18.4 65.12 0.336 7.89 13.52 8.08
6/10/2022 7:45:00 AM 18.43 65.174 0.335 7.89 12.91 8.11
6/10/2022 8:00:00 AM 18.48 65.264 0.334 7.9 12.85 8.15
6/10/2022 8:15:00 AM 18.54 65.372 0.332 7.9 12.23 8.19
6/10/2022 8:30:00 AM 18.61 65.498 0.33 7.91 13.1 8.23
6/10/2022 8:45:00 AM 18.69 65.642 0.329 7.91 12.19 8.29
6/10/2022 9:00:00 AM 18.76 65.768 0.328 7.92 13.24 8.35
6/10/2022 9:15:00 AM 18.85 65.93 0.326 7.93 11.85 8.41
6/10/2022 9:30:00 AM 18.94 66.092 0.325 7.94 14.63 8.48
6/10/2022 9:45:00 AM 19.05 66.29 0.324 7.95 12.45 8.55
6/10/2022 10:00:00 AM 19.19 66.542 0.322 7.97 12.49 8.63
6/10/2022 10:15:00 AM 19.34 66.812 0.321 7.99 12.51 8.71
6/10/2022 10:30:00 AM 19.49 67.082 0.32 8.01 10.49 8.79
6/10/2022 10:45:00 AM 19.61 67.298 0.319 8.02 11.84 8.85
6/10/2022 11:00:00 AM 19.73 67.514 0.318 8.04 11.16 8.9
6/10/2022 11:15:00 AM 19.86 67.748 0.317 8.05 11.14 8.96
6/10/2022 11:30:00 AM 19.99 67.982 0.316 8.06 10.73 9.01
6/10/2022 11:45:00 AM 20.11 68.198 0.315 8.08 10.06 9.06
6/10/2022 12:00:00 PM 20.22 68.396 0.314 8.09 10.1 9.12
6/10/2022 12:15:00 PM 20.37 68.666 0.313 8.11 10.27 9.19
6/10/2022 12:30:00 PM 20.49 68.882 0.313 8.12 10.22 9.23
6/10/2022 12:45:00 PM 20.59 69.062 0.312 8.14 10.91 9.27
6/10/2022 1:00:00 PM 20.7 69.26 0.311 8.15 10.24 9.33
6/10/2022 1:15:00 PM 20.83 69.494 0.311 8.17 10.15 9.37
6/10/2022 1:30:00 PM 20.89 69.602 0.31 8.17 9.29 9.39
6/10/2022 1:45:00 PM 20.95 69.71 0.31 8.19 9.58 9.42
6/10/2022 2:00:00 PM 20.99 69.782 0.309 8.19 9.31 9.45
6/10/2022 2:15:00 PM 21.07 69.926 0.309 8.21 9.94 9.49
6/10/2022 2:30:00 PM 21.08 69.944 0.309 8.22 9.41 9.5
6/10/2022 2:45:00 PM 21.14 70.052 0.308 8.23 7.92 9.55
6/10/2022 3:00:00 PM 21.22 70.196 0.308 8.24 9 9.57
6/10/2022 3:15:00 PM 21.21 70.17799 0.308 8.25 8.33 9.57
6/10/2022 3:30:00 PM 21.2 70.16 0.308 8.25 8.86 9.58
6/10/2022 3:45:00 PM 21.21 70.17799 0.308 8.26 8.18 9.59
6/10/2022 4:00:00 PM 21.21 70.17799 0.308 8.27 7.84 9.59
6/10/2022 4:15:00 PM 21.23 70.214 0.308 8.26 8.17 9.59
6/10/2022 4:30:00 PM 21.24 70.232 0.308 8.28 7.83 9.63
6/10/2022 4:45:00 PM 21.28 70.304 0.308 8.29 8.9 9.66
6/10/2022 5:00:00 PM 21.28 70.304 0.308 8.3 8.37 9.67
6/10/2022 5:15:00 PM 21.3 70.34 0.308 8.31 8.59 9.68
6/10/2022 5:30:00 PM 21.29 70.32201 0.307 8.31 8.26 9.68
6/10/2022 5:45:00 PM 21.27 70.286 0.307 8.32 8.18 9.68
6/10/2022 6:00:00 PM 21.25 70.25 0.307 8.32 7.63 9.67
6/10/2022 6:15:00 PM 21.23 70.214 0.307 8.32 8.12 9.65
6/10/2022 6:30:00 PM 21.23 70.214 0.307 8.32 7.97 9.65
6/10/2022 6:45:00 PM 21.22 70.196 0.307 8.33 7.6 9.64
6/10/2022 7:00:00 PM 21.2 70.16 0.307 8.33 7.72 9.63
6/10/2022 7:15:00 PM 21.16 70.088 0.307 8.33 8.03 9.6
6/10/2022 7:30:00 PM 21.14 70.052 0.307 8.33 7.42 9.57
6/10/2022 7:45:00 PM 21.08 69.944 0.306 8.32 7.73 9.54
6/10/2022 8:00:00 PM 21.02 69.836 0.306 8.32 7.81 9.49
6/10/2022 8:15:00 PM 20.95 69.71 0.306 8.31 8.16 9.42
6/10/2022 8:30:00 PM 20.88 69.584 0.306 8.29 7.53 9.37
6/10/2022 8:45:00 PM 20.81 69.458 0.306 8.29 8.03 9.33
6/10/2022 9:00:00 PM 20.74 69.332 0.306 8.28 8.66 9.26
6/10/2022 9:15:00 PM 20.66 69.188 0.306 8.26 8.09 9.2
6/10/2022 9:30:00 PM 20.59 69.062 0.306 8.25 8.6 9.15
6/10/2022 9:45:00 PM 20.52 68.936 0.306 8.24 8.56 9.09
6/10/2022 10:00:00 PM 20.45 68.81 0.306 8.22 8.29 9.03
6/10/2022 10:15:00 PM 20.38 68.684 0.306 8.21 7.87 8.97
6/10/2022 10:30:00 PM 20.31 68.558 0.306 8.2 7.73 8.93
6/10/2022 10:45:00 PM 20.24 68.432 0.306 8.19 7.7 8.89
6/10/2022 11:00:00 PM 20.17 68.306 0.306 8.18 8.77 8.85
6/10/2022 11:15:00 PM 20.1 68.18 0.306 8.17 8.27 8.8
6/10/2022 11:30:00 PM 20.03 68.054 0.306 8.16 8.19 8.77
6/10/2022 11:45:00 PM 19.96 67.92799 0.307 8.15 8.48 8.73
6/11/2022 12:00:00 AM 19.89 67.802 0.307 8.13 7.56 8.67
6/11/2022 12:15:00 AM 19.83 67.694 0.307 8.13 7.64 8.66
6/11/2022 12:30:00 AM 19.76 67.568 0.308 8.12 7.7 8.62
6/11/2022 12:45:00 AM 19.7 67.46 0.308 8.11 7.43 8.59
6/11/2022 1:00:00 AM 19.64 67.352 0.308 8.11 8.9 8.56
6/11/2022 1:15:00 AM 19.59 67.262 0.309 8.1 7.69 8.53
6/11/2022 1:30:00 AM 19.53 67.154 0.309 8.09 8.09 8.5
6/11/2022 1:45:00 AM 19.48 67.064 0.31 8.08 7.9 8.48
6/11/2022 2:00:00 AM 19.42 66.956 0.31 8.08 7.77 8.45
6/11/2022 2:15:00 AM 19.38 66.884 0.311 8.07 7.59 8.43
6/11/2022 2:30:00 AM 19.33 66.794 0.311 8.06 7.52 8.4
6/11/2022 2:45:00 AM 19.27 66.686 0.312 8.06 7.46 8.38
6/11/2022 3:00:00 AM 19.23 66.614 0.312 8.05 7.85 8.35
6/11/2022 3:15:00 AM 19.17 66.506 0.313 8.04 7.2 8.33
6/11/2022 3:30:00 AM 19.13 66.434 0.313 8.04 8.06 8.31
6/11/2022 3:45:00 AM 19.08 66.344 0.314 8.03 7.31 8.29
6/11/2022 4:00:00 AM 19.02 66.236 0.314 8.03 6.89 8.27
6/11/2022 4:15:00 AM 18.98 66.164 0.315 8.02 7.21 8.25
6/11/2022 4:30:00 AM 18.93 66.074 0.315 8.01 7.35 8.22
6/11/2022 4:45:00 AM 18.88 65.984 0.316 8.01 7.51 8.2
6/11/2022 5:00:00 AM 18.83 65.894 0.316 8 7.35 8.19
6/11/2022 5:15:00 AM 18.78 65.804 0.317 8 7.62 8.17
6/11/2022 5:30:00 AM 18.73 65.714 0.317 7.99 8.73 8.14
6/11/2022 5:45:00 AM 18.67 65.606 0.318 7.98 7.61 8.12
6/11/2022 6:00:00 AM 18.63 65.534 0.318 7.98 12.2 8.11
6/11/2022 6:15:00 AM 18.59 65.462 0.319 7.98 8.3 7.99
6/11/2022 6:30:00 AM 18.56 65.408 0.319 7.98 6.97 8.11
6/11/2022 6:45:00 AM 18.53 65.354 0.32 7.97 7.84 8.09
6/11/2022 7:00:00 AM 18.5 65.3 0.321 7.97 8.09 8.11
6/11/2022 7:15:00 AM 18.52 65.336 0.321 7.98 7.01 8.16
6/11/2022 7:30:00 AM 18.52 65.336 0.321 7.99 10.37 8.23
6/11/2022 7:45:00 AM 18.52 65.336 0.322 7.99 10.03 8.28
6/11/2022 8:00:00 AM 18.51 65.318 0.322 8 6.4 8.3
6/11/2022 8:15:00 AM 18.52 65.336 0.323 8.01 6.58 8.37
6/11/2022 8:30:00 AM 18.53 65.354 0.324 8.02 6.07 8.45
6/11/2022 8:45:00 AM 18.56 65.408 0.324 8.04 5.89 8.52
6/11/2022 9:00:00 AM 18.6 65.48 0.325 8.05 5.93 8.63
6/11/2022 9:15:00 AM 18.63 65.534 0.325 8.07 6.13 8.68
6/11/2022 9:30:00 AM 18.68 65.624 0.326 8.08 7.42 8.76
6/11/2022 9:45:00 AM 18.77 65.786 0.326 8.11 5.81 8.88
6/11/2022 10:00:00 AM 18.82 65.876 0.327 8.13 7.47 8.94
6/11/2022 10:15:00 AM 18.84 65.912 0.327 8.14 5.88 9.01
6/11/2022 10:30:00 AM 18.88 65.984 0.328 8.15 6.28 9.05
6/11/2022 10:45:00 AM 18.92 66.056 0.328 8.17 5.23 9.14
6/11/2022 11:00:00 AM 18.95 66.11 0.329 8.19 5.21 9.18
6/11/2022 11:15:00 AM 19 66.2 0.33 8.2 5.64 9.23
6/11/2022 11:30:00 AM 19.02 66.236 0.33 8.21 4.83 9.25
6/11/2022 11:45:00 AM 19.02 66.236 0.331 8.21 5.16 9.27
6/11/2022 12:00:00 PM 19.05 66.29 0.332 8.23 5.32 9.33
6/11/2022 12:15:00 PM 19.09 66.362 0.332 8.24 5.36 9.38
6/11/2022 12:30:00 PM 19.11 66.398 0.333 8.25 4.93 9.41
6/11/2022 12:45:00 PM 19.13 66.434 0.334 8.26 4.85 9.43
6/11/2022 1:00:00 PM 19.15 66.47 0.334 8.27 5.19 9.44
6/11/2022 1:15:00 PM 19.15 66.47 0.335 8.28 4.74 9.47
6/11/2022 1:30:00 PM 19.16 66.488 0.336 8.29 4.55 9.48
6/11/2022 1:45:00 PM 19.17 66.506 0.336 8.29 5.29 9.5
6/11/2022 2:00:00 PM 19.19 66.542 0.337 8.3 4.45 9.52
6/11/2022 2:15:00 PM 19.22 66.596 0.338 8.32 4.68 9.55
6/11/2022 2:30:00 PM 19.27 66.686 0.338 8.33 4.75 9.62
6/11/2022 2:45:00 PM 19.45 67.01 0.339 8.35 4.22 9.7
6/11/2022 3:00:00 PM 19.57 67.226 0.339 8.36 4.58 9.76
6/11/2022 3:15:00 PM 19.63 67.334 0.34 8.37 4.33 9.8
6/11/2022 3:30:00 PM 19.73 67.514 0.34 8.39 4.39 9.9
6/11/2022 3:45:00 PM 19.83 67.694 0.341 8.4 4.21 9.94
6/11/2022 4:00:00 PM 19.91 67.838 0.343 8.41 4.11 9.98
6/11/2022 4:15:00 PM 19.92 67.856 0.344 8.42 4.25 10.01
6/11/2022 4:30:00 PM 20 68 0.344 8.44 4.07 10.07
6/11/2022 4:45:00 PM 20.06 68.108 0.345 8.45 4.43 10.13
6/11/2022 5:00:00 PM 20.1 68.18 0.345 8.45 4.23 10.13
6/11/2022 5:15:00 PM 20.14 68.252 0.346 8.46 4.24 10.16
6/11/2022 5:30:00 PM 20.2 68.36 0.347 8.47 4.29 10.18
6/11/2022 5:45:00 PM 20.26 68.468 0.347 8.48 4.16 10.22
6/11/2022 6:00:00 PM 20.29 68.522 0.348 8.49 4.39 10.23
6/11/2022 6:15:00 PM 20.29 68.522 0.348 8.49 4.88 10.23
6/11/2022 6:30:00 PM 20.25 68.45 0.349 8.49 4.31 10.21
6/11/2022 6:45:00 PM 20.2 68.36 0.349 8.48 4.42 10.15
6/11/2022 7:00:00 PM 20.16 68.288 0.35 8.48 4.9 10.08
6/11/2022 7:15:00 PM 20.12 68.216 0.351 8.47 4.54 10.02
6/11/2022 7:30:00 PM 20.09 68.162 0.351 8.46 4.51 9.96
6/11/2022 7:45:00 PM 20.07 68.126 0.352 8.45 5 9.89
6/11/2022 8:00:00 PM 20.04 68.07201 0.352 8.45 4.53 9.85
6/11/2022 8:15:00 PM 20 68 0.353 8.44 4.36 9.78
6/11/2022 8:30:00 PM 19.96 67.92799 0.353 8.43 4.61 9.71
6/11/2022 8:45:00 PM 19.91 67.838 0.354 8.41 4.67 9.65
6/11/2022 9:00:00 PM 19.85 67.73 0.354 8.4 5.11 9.56
6/11/2022 9:15:00 PM 19.78 67.604 0.355 8.39 5.01 9.49
6/11/2022 9:30:00 PM 19.71 67.478 0.355 8.38 5.05 9.42
6/11/2022 9:45:00 PM 19.64 67.352 0.355 8.35 5.27 9.32
6/11/2022 10:00:00 PM 19.57 67.226 0.356 8.34 6.44 9.25
6/11/2022 10:15:00 PM 19.5 67.1 0.356 8.33 4.98 9.18
6/11/2022 10:30:00 PM 19.44 66.992 0.357 8.31 5.1 9.11
6/11/2022 10:45:00 PM 19.37 66.866 0.357 8.29 5.69 9.06
6/11/2022 11:00:00 PM 19.31 66.758 0.357 8.28 4.72 9.01
6/11/2022 11:15:00 PM 19.25 66.65 0.358 8.27 4.63 8.95
6/11/2022 11:30:00 PM 19.2 66.56 0.358 8.26 5.1 8.86
6/11/2022 11:45:00 PM 19.14 66.452 0.358 8.24 5.16 8.85
6/12/2022 12:00:00 AM 19.09 66.362 0.359 8.23 7.41 8.81
6/12/2022 12:15:00 AM 19.03 66.254 0.359 8.22 4.79 8.77
6/12/2022 12:30:00 AM 18.98 66.164 0.359 8.21 4.79 8.74
6/12/2022 12:45:00 AM 18.93 66.074 0.359 8.2 5.89 8.67
6/12/2022 1:00:00 AM 18.88 65.984 0.36 8.19 5.13 8.68
6/12/2022 1:15:00 AM 18.84 65.912 0.36 8.18 4.96 8.64
6/12/2022 1:30:00 AM 18.79 65.82201 0.36 8.17 4.68 8.61
6/12/2022 1:45:00 AM 18.75 65.75 0.361 8.16 5.2 8.58
6/12/2022 2:00:00 AM 18.71 65.67799 0.361 8.15 4.9 8.54
6/12/2022 2:15:00 AM 18.67 65.606 0.361 8.15 5.6 8.53
6/12/2022 2:30:00 AM 18.63 65.534 0.361 8.14 4.66 8.5
6/12/2022 2:45:00 AM 18.59 65.462 0.362 8.13 4.85 8.49
6/12/2022 3:00:00 AM 18.56 65.408 0.362 8.12 4.73 8.46
6/12/2022 3:15:00 AM 18.52 65.336 0.362 8.11 4.66 8.43
6/12/2022 3:30:00 AM 18.48 65.264 0.362 8.11 4.82 8.41
6/12/2022 3:45:00 AM 18.45 65.21 0.362 8.1 4.81 8.38
6/12/2022 4:00:00 AM 18.41 65.138 0.363 8.1 5.07 8.37
6/12/2022 4:15:00 AM 18.38 65.084 0.363 8.09 4.58 8.34
6/12/2022 4:30:00 AM 18.35 65.03 0.363 8.08 4.93 8.33
6/12/2022 4:45:00 AM 18.32 64.976 0.363 8.08 4.47 8.31
6/12/2022 5:00:00 AM 18.3 64.94 0.363 8.07 5.06 8.3
6/12/2022 5:15:00 AM 18.27 64.886 0.364 8.06 4.68 8.27
6/12/2022 5:30:00 AM 18.24 64.832 0.364 8.06 4.78 8.25
6/12/2022 5:45:00 AM 18.21 64.778 0.364 8.05 6.72 8.22
6/12/2022 6:00:00 AM 18.18 64.724 0.364 8.05 5.55 8.24
6/12/2022 6:15:00 AM 18.17 64.706 0.364 8.04 6.01 8.19
6/12/2022 6:30:00 AM 18.14 64.652 0.364 8.03 5.02 8.19
6/12/2022 6:45:00 AM 18.12 64.616 0.364 8.04 5.06 8.21
6/12/2022 7:00:00 AM 18.1 64.58 0.365 8.03 4.66 8.23
6/12/2022 7:15:00 AM 18.09 64.562 0.365 8.04 5.2 8.25
6/12/2022 7:30:00 AM 18.1 64.58 0.365 8.04 4.56 8.3
6/12/2022 7:45:00 AM 18.11 64.598 0.365 8.04 5.09 8.33
6/12/2022 8:00:00 AM 18.13 64.634 0.365 8.05 4.62 8.38
6/12/2022 8:15:00 AM 18.2 64.76 0.365 8.06 4.86 8.48
6/12/2022 8:30:00 AM 18.26 64.868 0.365 8.07 4.96 8.57
6/12/2022 8:45:00 AM 18.27 64.886 0.365 8.08 4.55 8.6
6/12/2022 9:00:00 AM 18.31 64.958 0.365 8.11 4.81 8.7
6/12/2022 9:15:00 AM 18.35 65.03 0.366 8.11 4.05 8.79
6/12/2022 9:30:00 AM 18.38 65.084 0.366 8.12 3.94 8.87
6/12/2022 9:45:00 AM 18.41 65.138 0.366 8.14 4.1 8.94
6/12/2022 10:00:00 AM 18.45 65.21 0.366 8.15 4.19 9.02
6/12/2022 10:15:00 AM 18.52 65.336 0.366 8.16 5.37 9.09
6/12/2022 10:30:00 AM 18.64 65.552 0.366 8.18 4.57 9.17
6/12/2022 10:45:00 AM 18.72 65.696 0.366 8.19 4.87 9.21
6/12/2022 11:00:00 AM 18.89 66.002 0.366 8.2 6.72 9.34
6/12/2022 11:15:00 AM 19.09 66.362 0.366 8.24 3.76 9.49
6/12/2022 11:30:00 AM 19.27 66.686 0.366 8.26 4.95 9.58
6/12/2022 11:45:00 AM 19.42 66.956 0.366 8.28 3.74 9.7
6/12/2022 12:00:00 PM 19.55 67.19 0.366 8.31 4.1 9.83
6/12/2022 12:15:00 PM 19.69 67.442 0.366 8.33 4 9.91
6/12/2022 12:30:00 PM 19.86 67.748 0.366 8.35 3.5 9.99
6/12/2022 12:45:00 PM 20.02 68.036 0.366 8.36 3.65 10.07
6/12/2022 1:00:00 PM 20.11 68.198 0.367 8.38 3.77 10.11
6/12/2022 1:15:00 PM 20.17 68.306 0.366 8.39 4.27 10.17
6/12/2022 1:30:00 PM 20.23 68.414 0.367 8.4 3.63 10.18
6/12/2022 1:45:00 PM 20.27 68.486 0.367 8.42 4.1 10.26
6/12/2022 2:00:00 PM 20.32 68.576 0.367 8.42 3.42 10.29
6/12/2022 2:15:00 PM 20.33 68.594 0.366 8.44 3.54 10.31
6/12/2022 2:30:00 PM 20.4 68.72 0.366 8.45 3.23 10.38
6/12/2022 2:45:00 PM 20.45 68.81 0.366 8.46 3.37 10.37
6/12/2022 3:00:00 PM 20.51 68.918 0.366 8.46 3.65 10.45
6/12/2022 3:15:00 PM 20.56 69.008 0.366 8.48 3.54 10.46
6/12/2022 3:30:00 PM 20.59 69.062 0.366 8.49 3.23 10.5
6/12/2022 3:45:00 PM 20.63 69.134 0.366 8.5 3.53 10.54
6/12/2022 4:00:00 PM 20.64 69.152 0.366 8.5 3.16 10.5
6/12/2022 4:15:00 PM 20.65 69.17 0.366 8.51 3.32 10.52
6/12/2022 4:30:00 PM 20.66 69.188 0.366 8.51 3.18 10.5
6/12/2022 4:45:00 PM 20.66 69.188 0.364 8.51 4.54 10.41
6/12/2022 5:00:00 PM 20.66 69.188 0.364 8.51 5.58 10.37
6/12/2022 5:15:00 PM 20.69 69.242 0.364 8.52 3.91 10.38
6/12/2022 5:30:00 PM 20.72 69.296 0.364 8.52 4.57 10.38
6/12/2022 5:45:00 PM 20.74 69.332 0.364 8.52 5.23 10.35
6/12/2022 6:00:00 PM 20.77 69.386 0.364 8.52 5.06 10.34
6/12/2022 6:15:00 PM 20.82 69.476 0.364 8.52 4.1 10.35
6/12/2022 6:30:00 PM 20.83 69.494 0.364 8.53 3.83 10.36
6/12/2022 6:45:00 PM 20.85 69.53 0.365 8.53 3.72 10.37
6/12/2022 7:00:00 PM 20.86 69.548 0.365 8.54 3.52 10.39
6/12/2022 7:15:00 PM 20.87 69.566 0.365 8.54 4.94 10.35
6/12/2022 7:30:00 PM 20.85 69.53 0.365 8.53 3.55 10.29
6/12/2022 7:45:00 PM 20.81 69.458 0.365 8.52 3.46 10.2
6/12/2022 8:00:00 PM 20.79 69.422 0.366 8.52 3.36 10.15
6/12/2022 8:15:00 PM 20.76 69.368 0.366 8.51 3.41 10.08
6/12/2022 8:30:00 PM 20.73 69.314 0.366 8.5 3.45 10
6/12/2022 8:45:00 PM 20.69 69.242 0.366 8.48 3.37 9.91
6/12/2022 9:00:00 PM 20.66 69.188 0.367 8.47 3.8 9.81
6/12/2022 9:15:00 PM 20.63 69.134 0.367 8.46 3.86 9.72
6/12/2022 9:30:00 PM 20.61 69.098 0.367 8.45 3.72 9.65
6/12/2022 9:45:00 PM 20.59 69.062 0.367 8.43 3.6 9.56
6/12/2022 10:00:00 PM 20.56 69.008 0.368 8.42 3.91 9.48
6/12/2022 10:15:00 PM 20.53 68.954 0.368 8.41 4.53 9.39
6/12/2022 10:30:00 PM 20.49 68.882 0.369 8.39 3.92 9.32
6/12/2022 10:45:00 PM 20.45 68.81 0.369 8.38 3.39 9.23
6/12/2022 11:00:00 PM 20.42 68.756 0.369 8.37 3.66 9.18
6/12/2022 11:15:00 PM 20.38 68.684 0.37 8.35 3.72 9.06
6/12/2022 11:30:00 PM 20.34 68.612 0.37 8.34 3.65 9.01
6/12/2022 11:45:00 PM 20.3 68.54 0.371 8.32 3.73 8.95
6/13/2022 12:00:00 AM 20.26 68.468 0.371 8.31 3.99 8.88
6/13/2022 12:15:00 AM 20.22 68.396 0.372 8.3 3.61 8.83
6/13/2022 12:30:00 AM 20.17 68.306 0.372 8.28 3.86 8.75
6/13/2022 12:45:00 AM 20.13 68.234 0.373 8.26 3.88 8.68
6/13/2022 1:00:00 AM 20.09 68.162 0.373 8.25 3.82 8.62
6/13/2022 1:15:00 AM 20.05 68.09 0.373 8.23 4.21 8.58
6/13/2022 1:30:00 AM 20.01 68.018 0.374 8.22 3.63 8.53
6/13/2022 1:45:00 AM 19.96 67.92799 0.374 8.21 3.79 8.47
6/13/2022 2:00:00 AM 19.91 67.838 0.375 8.2 4.01 8.43
6/13/2022 2:15:00 AM 19.86 67.748 0.375 8.19 4.29 8.42
6/13/2022 2:30:00 AM 19.83 67.694 0.376 8.18 4.04 8.38
6/13/2022 2:45:00 AM 19.79 67.622 0.376 8.17 4.01 8.33
6/13/2022 3:00:00 AM 19.75 67.55 0.377 8.16 3.95 8.29
6/13/2022 3:15:00 AM 19.72 67.496 0.377 8.15 4.22 8.26
6/13/2022 3:30:00 AM 19.69 67.442 0.378 8.14 4.2 8.21
6/13/2022 3:45:00 AM 19.65 67.37 0.378 8.13 3.9 8.2
6/13/2022 4:00:00 AM 19.62 67.316 0.379 8.12 4.05 8.15
6/13/2022 4:15:00 AM 19.58 67.244 0.379 8.11 4.59 8.13
6/13/2022 4:30:00 AM 19.56 67.208 0.38 8.1 4.06 8.11
6/13/2022 4:45:00 AM 19.54 67.172 0.38 8.09 3.98 8.08
6/13/2022 5:00:00 AM 19.51 67.118 0.381 8.09 4.12 8.06
6/13/2022 5:15:00 AM 19.48 67.064 0.381 8.08 4.16 8.04
6/13/2022 5:30:00 AM 19.46 67.028 0.382 8.07 3.95 8
6/13/2022 5:45:00 AM 19.44 66.992 0.382 8.07 4.5 7.98
6/13/2022 6:00:00 AM 19.42 66.956 0.382 8.06 4.32 7.98
6/13/2022 6:15:00 AM 19.4 66.92 0.383 8.06 4.45 7.97
6/13/2022 6:30:00 AM 19.38 66.884 0.383 8.05 4.21 7.95
6/13/2022 6:45:00 AM 19.37 66.866 0.384 8.05 4.06 7.93
6/13/2022 7:00:00 AM 19.36 66.848 0.384 8.05 4 7.96
6/13/2022 7:15:00 AM 19.36 66.848 0.385 8.05 4.33 7.96
6/13/2022 7:30:00 AM 19.37 66.866 0.383 8.05 3.83 8.02
6/13/2022 7:45:00 AM 19.37 66.866 0.385 8.05 4.22 8.04
6/13/2022 8:00:00 AM 19.39 66.902 0.386 8.06 4.52 8.1
6/13/2022 8:15:00 AM 19.42 66.956 0.386 8.07 3.9 8.17
6/13/2022 8:30:00 AM 19.45 67.01 0.386 8.08 4.43 8.26
6/13/2022 8:45:00 AM 19.49 67.082 0.386 8.09 3.89 8.32
6/13/2022 9:00:00 AM 19.52 67.136 0.387 8.1 3.92 8.41
6/13/2022 9:15:00 AM 19.56 67.208 0.387 8.11 3.63 8.51
6/13/2022 9:30:00 AM 19.63 67.334 0.387 8.13 3.82 8.6
6/13/2022 9:45:00 AM 19.68 67.424 0.387 8.15 3.83 8.69
6/13/2022 10:00:00 AM 19.74 67.532 0.388 8.16 3.7 8.8
6/13/2022 10:15:00 AM 19.83 67.694 0.388 8.18 4.07 8.89
6/13/2022 10:30:00 AM 19.9 67.82 0.388 8.19 3.49 8.97
6/13/2022 10:45:00 AM 20.05 68.09 0.388 8.21 3.52 9.08
6/13/2022 11:00:00 AM 20.22 68.396 0.388 8.23 3.51 9.18
6/13/2022 11:15:00 AM 20.38 68.684 0.388 8.25 3.53 9.29
6/13/2022 11:30:00 AM 20.56 69.008 0.389 8.26 3.46 9.37
6/13/2022 11:45:00 AM 20.76 69.368 0.389 8.28 3.45 9.49
6/13/2022 12:00:00 PM 20.98 69.764 0.389 8.3 3.54 9.59
6/13/2022 12:15:00 PM 21.2 70.16 0.389 8.32 3.56 9.69
6/13/2022 12:30:00 PM 21.4 70.52 0.389 8.34 3.4 9.79
6/13/2022 12:45:00 PM 21.57 70.826 0.389 8.35 3.37 9.83
6/13/2022 1:00:00 PM 21.73 71.114 0.39 8.36 3.46 9.87
6/13/2022 1:15:00 PM 21.89 71.402 0.39 8.38 3.21 9.94
6/13/2022 1:30:00 PM 22.03 71.654 0.39 8.39 3.4 10.03
6/13/2022 1:45:00 PM 22.18 71.924 0.39 8.41 3.31 10.07
6/13/2022 2:00:00 PM 22.35 72.23 0.39 8.42 3.83 10.12
6/13/2022 2:15:00 PM 22.52 72.536 0.39 8.43 3.15 10.16
6/13/2022 2:30:00 PM 22.66 72.788 0.39 8.44 3.35 10.23
6/13/2022 2:45:00 PM 22.84 73.112 0.39 8.46 3.27 10.3
6/13/2022 3:00:00 PM 23 73.4 0.39 8.47 4.55 10.32
6/13/2022 3:15:00 PM 23.1 73.58 0.391 8.47 3.41 10.31
6/13/2022 3:30:00 PM 23.21 73.778 0.391 8.48 2.79 10.34
6/13/2022 3:45:00 PM 23.34 74.012 0.391 8.49 12.51 10.32
6/13/2022 4:00:00 PM 23.47 74.246 0.39 8.5 3.21 10.4
6/13/2022 4:15:00 PM 23.56 74.408 0.39 8.52 3.1 10.42
6/13/2022 4:30:00 PM 23.63 74.534 0.39 8.52 3.93 10.43
6/13/2022 4:45:00 PM 23.71 74.67799 0.39 8.53 3.44 10.45
6/13/2022 5:00:00 PM 23.74 74.732 0.39 8.53 3.25 10.41
6/13/2022 5:15:00 PM 23.8 74.84 0.39 8.55 3.18 10.42
6/13/2022 5:30:00 PM 23.82 74.876 0.39 8.55 3.45 10.41
6/13/2022 5:45:00 PM 23.85 74.93 0.39 8.55 3.15 10.38
6/13/2022 6:00:00 PM 23.84 74.912 0.389 8.56 3.82 10.35
6/13/2022 6:15:00 PM 23.83 74.894 0.389 8.57 2.96 10.36
6/13/2022 6:30:00 PM 23.81 74.858 0.389 8.57 4.74 10.31
6/13/2022 6:45:00 PM 23.77 74.786 0.389 8.57 4.03 10.27
6/13/2022 7:00:00 PM 23.74 74.732 0.389 8.57 4.26 10.21
6/13/2022 7:15:00 PM 23.69 74.642 0.388 8.58 3.83 10.18
6/13/2022 7:30:00 PM 23.64 74.552 0.388 8.58 3.25 10.12
6/13/2022 7:45:00 PM 23.58 74.444 0.388 8.56 3.84 10.02
6/13/2022 8:00:00 PM 23.53 74.354 0.388 8.57 3.57 9.94
6/13/2022 8:15:00 PM 23.47 74.246 0.388 8.56 4.34 9.82
6/13/2022 8:30:00 PM 23.37 74.066 0.388 8.55 7.38 9.75
6/13/2022 8:45:00 PM 23.3 73.94 0.388 8.55 3.4 9.65
6/13/2022 9:00:00 PM 23.22 73.796 0.387 8.53 3.6 9.55
6/13/2022 9:15:00 PM 23.16 73.688 0.387 8.52 3.86 9.47
6/13/2022 9:30:00 PM 23.09 73.562 0.387 8.51 4.14 9.36
6/13/2022 9:45:00 PM 23.03 73.454 0.387 8.5 3.57 9.27
6/13/2022 10:00:00 PM 22.95 73.31 0.387 8.49 3.66 9.17
6/13/2022 10:15:00 PM 22.89 73.202 0.387 8.48 3.97 9.06
6/13/2022 10:30:00 PM 22.82 73.076 0.387 8.46 3.68 8.96
6/13/2022 10:45:00 PM 22.75 72.95 0.387 8.44 3.69 8.86
6/13/2022 11:00:00 PM 22.68 72.824 0.387 8.43 4.02 8.77
6/13/2022 11:15:00 PM 22.61 72.698 0.387 8.41 3.78 8.65
6/13/2022 11:30:00 PM 22.55 72.59 0.387 8.4 4.07 8.64
6/13/2022 11:45:00 PM 22.48 72.464 0.387 8.38 3.89 8.54
6/14/2022 12:00:00 AM 22.41 72.338 0.387 8.37 3.56 8.48
6/14/2022 12:15:00 AM 22.35 72.23 0.387 8.36 3.65 8.41
6/14/2022 12:30:00 AM 22.29 72.122 0.387 8.35 3.71 8.35
6/14/2022 12:45:00 AM 22.24 72.032 0.387 8.34 3.73 8.29
6/14/2022 1:00:00 AM 22.17 71.906 0.387 8.32 4.45 8.2
6/14/2022 1:15:00 AM 22.11 71.798 0.387 8.3 5.11 8.16
6/14/2022 1:30:00 AM 22.05 71.69 0.387 8.29 4.39 8.11
6/14/2022 1:45:00 AM 22 71.6 0.387 8.27 3.89 8.05
6/14/2022 2:00:00 AM 21.94 71.492 0.387 8.26 4.36 7.99
6/14/2022 2:15:00 AM 21.89 71.402 0.388 8.26 4.26 7.95
6/14/2022 2:30:00 AM 21.84 71.312 0.388 8.24 4.42 7.91
6/14/2022 2:45:00 AM 21.79 71.222 0.388 8.23 4.02 7.87
6/14/2022 3:00:00 AM 21.74 71.132 0.388 8.22 4.2 7.83
6/14/2022 3:15:00 AM 21.69 71.042 0.388 8.21 4.06 7.8
6/14/2022 3:30:00 AM 21.65 70.97 0.387 8.2 4.16 7.78
6/14/2022 3:45:00 AM 21.61 70.898 0.387 8.19 4.29 7.74
6/14/2022 4:00:00 AM 21.57 70.826 0.387 8.18 3.82 7.71
6/14/2022 4:15:00 AM 21.53 70.754 0.387 8.17 4.34 7.69
6/14/2022 4:30:00 AM 21.49 70.682 0.387 8.16 4.81 7.66
6/14/2022 4:45:00 AM 21.44 70.592 0.387 8.15 5.39 7.62
6/14/2022 5:00:00 AM 21.4 70.52 0.387 8.14 4.87 7.59
6/14/2022 5:15:00 AM 21.37 70.466 0.387 8.13 7.12 7.53
6/14/2022 5:30:00 AM 21.33 70.394 0.387 8.13 4.66 7.54
6/14/2022 5:45:00 AM 21.3 70.34 0.387 8.12 4.35 7.55
6/14/2022 6:00:00 AM 21.26 70.268 0.387 8.11 4.5 7.52
6/14/2022 6:15:00 AM 21.23 70.214 0.387 8.1 4.53 7.48
6/14/2022 6:30:00 AM 21.2 70.16 0.387 8.1 4.42 7.46
6/14/2022 6:45:00 AM 21.16 70.088 0.387 8.08 4.31 7.45
6/14/2022 7:00:00 AM 21.14 70.052 0.387 8.08 6.24 7.44
6/14/2022 7:15:00 AM 21.12 70.016 0.387 8.08 4.63 7.47
6/14/2022 7:30:00 AM 21.11 69.998 0.387 8.08 5.36 7.5
6/14/2022 7:45:00 AM 21.11 69.998 0.387 8.08 4.32 7.53
6/14/2022 8:00:00 AM 21.11 69.998 0.387 8.08 5.55 7.57
6/14/2022 8:15:00 AM 21.13 70.034 0.387 8.1 4.61 7.7
6/14/2022 8:30:00 AM 21.17 70.106 0.387 8.11 3.98 7.81
6/14/2022 8:45:00 AM 21.22 70.196 0.387 8.12 5.12 7.89
6/14/2022 9:00:00 AM 21.26 70.268 0.387 8.14 4.31 8
6/14/2022 9:15:00 AM 21.3 70.34 0.387 8.15 4.56 8.08
6/14/2022 9:30:00 AM 21.37 70.466 0.387 8.17 3.93 8.24
6/14/2022 9:45:00 AM 21.47 70.646 0.387 8.19 3.73 8.34
6/14/2022 10:00:00 AM 21.55 70.79 0.387 8.21 3.7 8.49
6/14/2022 10:15:00 AM 21.64 70.952 0.387 8.23 3.58 8.58
6/14/2022 10:30:00 AM 21.78 71.204 0.387 8.24 3.63 8.7
6/14/2022 10:45:00 AM 21.93 71.474 0.387 8.26 4.09 8.83
6/14/2022 11:00:00 AM 22.05 71.69 0.387 8.27 4.51 8.9
6/14/2022 11:15:00 AM 22.21 71.978 0.387 8.3 3.82 9.04
6/14/2022 11:30:00 AM 22.36 72.248 0.387 8.32 3.64 9.17
6/14/2022 11:45:00 AM 22.5 72.5 0.387 8.33 3.7 9.28
6/14/2022 12:00:00 PM 22.64 72.752 0.387 8.35 4.01 9.32
6/14/2022 12:15:00 PM 22.81 73.058 0.387 8.36 3.63 9.43
6/14/2022 12:30:00 PM 23 73.4 0.387 8.38 3.79 9.55
6/14/2022 12:45:00 PM 23.14 73.652 0.387 8.4 3.35 9.62
6/14/2022 1:00:00 PM 23.3 73.94 0.387 8.41 3.47 9.66
6/14/2022 1:15:00 PM 23.44 74.192 0.387 8.42 6.27 9.72
6/14/2022 1:30:00 PM 23.66 74.588 0.387 8.44 3.48 9.88
6/14/2022 1:45:00 PM 23.8 74.84 0.387 8.45 3.21 9.9
6/14/2022 2:00:00 PM 23.99 75.182 0.387 8.46 3.26 9.98
6/14/2022 2:15:00 PM 24.14 75.452 0.387 8.47 3.27 10.04
6/14/2022 2:30:00 PM 24.29 75.722 0.387 8.48 3.49 10.07
6/14/2022 2:45:00 PM 24.45 76.01 0.386 8.49 3.08 10.13
6/14/2022 3:00:00 PM 24.57 76.226 0.386 8.5 4.33 10.1
6/14/2022 3:15:00 PM 24.63 76.334 0.386 8.51 2.94 10.14
6/14/2022 3:30:00 PM 24.74 76.532 0.386 8.51 4.34 10.13
6/14/2022 3:45:00 PM 24.84 76.712 0.386 8.52 3.77 10.14
6/14/2022 4:00:00 PM 24.91 76.838 0.386 8.52 4.3 10.12
6/14/2022 4:15:00 PM 25.01 77.018 0.386 8.53 2.96 10.18
6/14/2022 4:30:00 PM 25.09 77.162 0.385 8.54 3.4 10.19
6/14/2022 4:45:00 PM 25.13 77.234 0.385 8.54 3.27 10.15
6/14/2022 5:00:00 PM 25.19 77.342 0.385 8.55 2.97 10.14
6/14/2022 5:15:00 PM 25.23 77.414 0.385 8.55 3.17 10.11
6/14/2022 5:30:00 PM 25.26 77.468 0.384 8.56 3.16 10.12
6/14/2022 5:45:00 PM 25.27 77.486 0.384 8.56 2.97 10.08
6/14/2022 6:00:00 PM 25.26 77.468 0.384 8.56 3.35 10.04
6/14/2022 6:15:00 PM 25.24 77.432 0.384 8.56 3.26 9.95
6/14/2022 6:30:00 PM 25.23 77.414 0.384 8.57 3.19 9.97
6/14/2022 6:45:00 PM 25.2 77.36 0.383 8.57 3.18 9.92
6/14/2022 7:00:00 PM 25.16 77.288 0.383 8.57 3.2 9.87
6/14/2022 7:15:00 PM 25.13 77.234 0.383 8.57 3.27 9.81
6/14/2022 7:30:00 PM 25.09 77.162 0.383 8.56 3.42 9.75
6/14/2022 7:45:00 PM 25.02 77.036 0.382 8.56 3.19 9.65
6/14/2022 8:00:00 PM 24.96 76.92799 0.382 8.55 3.34 9.53
6/14/2022 8:15:00 PM 24.89 76.802 0.382 8.54 3.37 9.42
6/14/2022 8:30:00 PM 24.84 76.712 0.382 8.53 3.52 9.31
6/14/2022 8:45:00 PM 24.77 76.586 0.381 8.53 3.47 9.22
6/14/2022 9:00:00 PM 24.72 76.496 0.381 8.51 3.3 9.12
6/14/2022 9:15:00 PM 24.66 76.388 0.381 8.51 3.89 9.02
6/14/2022 9:30:00 PM 24.59 76.262 0.381 8.49 4.4 8.92
6/14/2022 9:45:00 PM 24.52 76.136 0.381 8.48 3.77 8.83
6/14/2022 10:00:00 PM 24.46 76.028 0.381 8.47 3.49 8.72
6/14/2022 10:15:00 PM 24.38 75.884 0.38 8.46 3.45 8.63
6/14/2022 10:30:00 PM 24.31 75.758 0.38 8.44 3.7 8.54
6/14/2022 10:45:00 PM 24.24 75.632 0.38 8.42 3.86 8.42
6/14/2022 11:00:00 PM 24.16 75.488 0.38 8.41 3.76 8.3
6/14/2022 11:15:00 PM 24.09 75.362 0.38 8.4 3.59 8.28
6/14/2022 11:30:00 PM 24 75.2 0.38 8.38 3.86 8.17
6/14/2022 11:45:00 PM 23.93 75.074 0.38 8.37 3.72 8.09
6/15/2022 12:00:00 AM 23.85 74.93 0.38 8.35 3.67 8.01
6/15/2022 12:15:00 AM 23.77 74.786 0.38 8.34 3.63 7.92
6/15/2022 12:30:00 AM 23.69 74.642 0.38 8.32 3.71 7.87
6/15/2022 12:45:00 AM 23.6 74.48 0.38 8.31 3.95 7.82
6/15/2022 1:00:00 AM 23.51 74.318 0.38 8.29 4.92 7.74
6/15/2022 1:15:00 AM 23.44 74.192 0.38 8.28 3.87 7.69
6/15/2022 1:30:00 AM 23.35 74.03 0.381 8.27 3.97 7.66
6/15/2022 1:45:00 AM 23.26 73.868 0.381 8.25 3.54 7.58
6/15/2022 2:00:00 AM 23.17 73.706 0.381 8.24 3.59 7.56
6/15/2022 2:15:00 AM 23.09 73.562 0.381 8.23 4.23 7.51
6/15/2022 2:30:00 AM 23 73.4 0.381 8.21 3.53 7.45
6/15/2022 2:45:00 AM 22.92 73.256 0.381 8.2 3.63 7.41
6/15/2022 3:00:00 AM 22.82 73.076 0.382 8.19 3.82 7.38
6/15/2022 3:15:00 AM 22.75 72.95 0.382 8.17 3.92 7.35
6/15/2022 3:30:00 AM 22.67 72.806 0.382 8.16 4.78 7.31
6/15/2022 3:45:00 AM 22.59 72.662 0.382 8.16 3.82 7.3
6/15/2022 4:00:00 AM 22.51 72.518 0.382 8.15 4.08 7.23
6/15/2022 4:15:00 AM 22.44 72.392 0.383 8.14 3.68 7.23
6/15/2022 4:30:00 AM 22.37 72.266 0.383 8.13 4.26 7.22
6/15/2022 4:45:00 AM 22.29 72.122 0.383 8.12 4.31 7.2
6/15/2022 5:00:00 AM 22.24 72.032 0.383 8.11 4.53 7.19
6/15/2022 5:15:00 AM 22.16 71.888 0.384 8.1 4.04 7.16
6/15/2022 5:30:00 AM 22.1 71.78 0.384 8.09 4.67 7.13
6/15/2022 5:45:00 AM 22.02 71.636 0.384 8.08 4.61 7.07
6/15/2022 6:00:00 AM 21.97 71.546 0.384 8.08 4.12 7.09
6/15/2022 6:15:00 AM 21.91 71.438 0.385 8.07 4.32 7.09
6/15/2022 6:30:00 AM 21.87 71.366 0.385 8.06 4.69 7.04
6/15/2022 6:45:00 AM 21.84 71.312 0.385 8.06 4.14 7.08
6/15/2022 7:00:00 AM 21.82 71.276 0.385 8.07 4.19 7.13
6/15/2022 7:15:00 AM 21.8 71.24 0.386 8.06 3.82 7.16
6/15/2022 7:30:00 AM 21.79 71.222 0.386 8.07 3.94 7.24
6/15/2022 7:45:00 AM 21.8 71.24 0.386 8.07 4.2 7.32
6/15/2022 8:00:00 AM 21.82 71.276 0.386 8.08 3.58 7.37
6/15/2022 8:15:00 AM 21.83 71.294 0.386 8.08 3.92 7.43
6/15/2022 8:30:00 AM 21.85 71.33 0.387 8.09 3.69 7.52
6/15/2022 8:45:00 AM 21.91 71.438 0.387 8.11 3.71 7.63
6/15/2022 9:00:00 AM 21.98 71.564 0.387 8.12 3.57 7.75
6/15/2022 9:15:00 AM 22.05 71.69 0.387 8.14 3.68 7.87
6/15/2022 9:30:00 AM 22.14 71.852 0.387 8.16 3.84 8
6/15/2022 9:45:00 AM 22.24 72.032 0.388 8.18 3.57 8.13
6/15/2022 10:00:00 AM 22.33 72.194 0.388 8.19 3.65 8.23
6/15/2022 10:15:00 AM 22.47 72.446 0.388 8.2 3.54 8.33
6/15/2022 10:30:00 AM 22.63 72.734 0.388 8.22 3.51 8.49
6/15/2022 10:45:00 AM 22.76 72.968 0.388 8.23 3.4 8.54
6/15/2022 11:00:00 AM 22.9 73.22 0.389 8.26 3.6 8.71
6/15/2022 11:15:00 AM 23.07 73.526 0.389 8.28 3.69 8.84
6/15/2022 11:30:00 AM 23.22 73.796 0.389 8.3 3.51 8.94
6/15/2022 11:45:00 AM 23.37 74.066 0.389 8.31 3.47 8.99
6/15/2022 12:00:00 PM 23.55 74.39 0.389 8.33 3.55 9.16
6/15/2022 12:15:00 PM 23.71 74.67799 0.389 8.35 3.4 9.3
6/15/2022 12:30:00 PM 23.9 75.02 0.39 8.36 3.33 9.38
6/15/2022 12:45:00 PM 24.1 75.38 0.39 8.39 3.29 9.48
6/15/2022 1:00:00 PM 24.26 75.668 0.39 8.39 3.54 9.56
6/15/2022 1:15:00 PM 24.45 76.01 0.39 8.41 3.71 9.69
6/15/2022 1:30:00 PM 24.59 76.262 0.39 8.43 3.55 9.77
6/15/2022 1:45:00 PM 24.68 76.424 0.391 8.44 3.41 9.84
6/15/2022 2:00:00 PM 24.79 76.622 0.391 8.45 3.24 9.89
6/15/2022 2:15:00 PM 24.89 76.802 0.391 8.46 3.45 9.96
6/15/2022 2:30:00 PM 24.97 76.946 0.391 8.47 3.1 10.01
6/15/2022 2:45:00 PM 25.1 77.18 0.391 8.48 2.91 10.05
6/15/2022 3:00:00 PM 25.28 77.504 0.392 8.49 2.87 10.13
6/15/2022 3:15:00 PM 25.38 77.684 0.392 8.49 3.09 10.16
6/15/2022 3:30:00 PM 25.46 77.828 0.392 8.5 2.98 10.16
6/15/2022 3:45:00 PM 25.56 78.008 0.392 8.5 2.84 10.16
6/15/2022 4:00:00 PM 25.66 78.188 0.392 8.51 3.12 10.19
6/15/2022 4:15:00 PM 25.71 78.278 0.393 8.51 3.04 10.23
6/15/2022 4:30:00 PM 25.71 78.278 0.393 8.52 3.04 10.18
6/15/2022 4:45:00 PM 25.78 78.404 0.393 8.52 3.2 10.2
6/15/2022 5:00:00 PM 25.84 78.512 0.393 8.52 2.82 10.17
6/15/2022 5:15:00 PM 25.88 78.584 0.394 8.52 3.26 10.14
6/15/2022 5:30:00 PM 25.93 78.674 0.394 8.53 3.43 10.13
6/15/2022 5:45:00 PM 25.94 78.692 0.394 8.53 2.98 10.14
6/15/2022 6:00:00 PM 25.95 78.71 0.394 8.54 3.34 10.11
6/15/2022 6:15:00 PM 25.94 78.692 0.394 8.53 2.99 10.09
6/15/2022 6:30:00 PM 25.91 78.638 0.394 8.53 3.09 9.99
6/15/2022 6:45:00 PM 25.9 78.62 0.394 8.53 3.48 9.97
6/15/2022 7:00:00 PM 25.87 78.566 0.394 8.53 3.05 9.91
6/15/2022 7:15:00 PM 25.85 78.53 0.394 8.53 3.22 9.84
6/15/2022 7:30:00 PM 25.81 78.458 0.395 8.52 2.99 9.74
6/15/2022 7:45:00 PM 25.76 78.368 0.396 8.52 3.27 9.64
6/15/2022 8:00:00 PM 25.7 78.26 0.397 8.51 3.27 9.54
6/15/2022 8:15:00 PM 25.66 78.188 0.397 8.5 3.41 9.42
6/15/2022 8:30:00 PM 25.62 78.116 0.397 8.49 3.93 9.31
6/15/2022 8:45:00 PM 25.59 78.062 0.397 8.48 3.07 9.21
6/15/2022 9:00:00 PM 25.56 78.008 0.398 8.47 3.38 9.1
6/15/2022 9:15:00 PM 25.54 77.972 0.398 8.46 3.08 9
6/15/2022 9:30:00 PM 25.5 77.9 0.398 8.44 3.38 8.89
6/15/2022 9:45:00 PM 25.47 77.846 0.398 8.43 3.41 8.78
6/15/2022 10:00:00 PM 25.43 77.774 0.398 8.42 3.75 8.65
6/15/2022 10:15:00 PM 25.4 77.72 0.398 8.4 3.37 8.56
6/15/2022 10:30:00 PM 25.37 77.666 0.398 8.39 3.28 8.46
6/15/2022 10:45:00 PM 25.34 77.612 0.398 8.37 3.2 8.36
6/15/2022 11:00:00 PM 25.3 77.54 0.398 8.36 4.75 8.26
6/15/2022 11:15:00 PM 25.26 77.468 0.398 8.34 3.38 8.15
6/15/2022 11:30:00 PM 25.23 77.414 0.398 8.33 3.52 8.08
6/15/2022 11:45:00 PM 25.18 77.324 0.397 8.32 3.68 8.01
6/16/2022 12:00:00 AM 25.13 77.234 0.397 8.3 3.76 7.92
6/16/2022 12:15:00 AM 25.08 77.144 0.397 8.29 3.6 7.84
6/16/2022 12:30:00 AM 25.03 77.054 0.397 8.27 3.63 7.76
6/16/2022 12:45:00 AM 24.98 76.964 0.397 8.26 3.51 7.69
6/16/2022 1:00:00 AM 24.93 76.874 0.397 8.24 3.28 7.61
6/16/2022 1:15:00 AM 24.88 76.784 0.397 8.22 3.38 7.51
6/16/2022 1:30:00 AM 24.84 76.712 0.396 8.21 3.7 7.44
6/16/2022 1:45:00 AM 24.79 76.622 0.396 8.2 3.94 7.4
6/16/2022 2:00:00 AM 24.73 76.514 0.396 8.18 4.05 7.32
6/16/2022 2:15:00 AM 24.68 76.424 0.396 8.17 3.06 7.27
6/16/2022 2:30:00 AM 24.64 76.352 0.396 8.15 3.4 7.2
6/16/2022 2:45:00 AM 24.59 76.262 0.396 8.14 4.77 7.18
6/16/2022 3:00:00 AM 24.54 76.172 0.396 8.13 3.78 7.12
6/16/2022 3:15:00 AM 24.5 76.1 0.396 8.11 3.66 7.06
6/16/2022 3:30:00 AM 24.45 76.01 0.396 8.1 3.84 7.02
6/16/2022 3:45:00 AM 24.41 75.938 0.396 8.09 4.34 6.99
6/16/2022 4:00:00 AM 24.37 75.866 0.396 8.08 3.8 6.96
6/16/2022 4:15:00 AM 24.34 75.812 0.396 8.07 3.77 6.88
6/16/2022 4:30:00 AM 24.3 75.74 0.396 8.07 4.22 6.86
6/16/2022 4:45:00 AM 24.27 75.686 0.396 8.06 4.33 6.85
6/16/2022 5:00:00 AM 24.23 75.614 0.396 8.05 4.07 6.82
6/16/2022 5:15:00 AM 24.19 75.542 0.396 8.04 4.03 6.78
6/16/2022 5:30:00 AM 24.15 75.47 0.396 8.03 4.52 6.72
6/16/2022 5:45:00 AM 24.11 75.398 0.397 8.02 4.41 6.68
6/16/2022 6:00:00 AM 24.08 75.344 0.397 8.02 3.98 6.69
6/16/2022 6:15:00 AM 24.05 75.29 0.397 8.02 4.43 6.67
6/16/2022 6:30:00 AM 24 75.2 0.397 8.01 4.25 6.65
6/16/2022 6:45:00 AM 23.97 75.146 0.397 8 3.9 6.63
6/16/2022 7:00:00 AM 23.95 75.11 0.397 7.99 4.03 6.61
6/16/2022 7:15:00 AM 23.94 75.092 0.397 7.99 3.79 6.66
6/16/2022 7:30:00 AM 23.93 75.074 0.397 8 4.49 6.68
6/16/2022 7:45:00 AM 23.92 75.056 0.397 8 3.96 6.75
6/16/2022 8:00:00 AM 23.89 75.002 0.398 8 3.96 6.74
6/16/2022 8:15:00 AM 23.87 74.966 0.398 8 3.79 6.8
6/16/2022 8:30:00 AM 23.87 74.966 0.398 8.01 4.13 6.9
6/16/2022 8:45:00 AM 23.92 75.056 0.398 8.03 3.97 7.03
6/16/2022 9:00:00 AM 23.98 75.164 0.398 8.05 3.71 7.19
6/16/2022 9:15:00 AM 24.02 75.236 0.398 8.07 3.78 7.31
6/16/2022 9:30:00 AM 24.05 75.29 0.398 8.08 3.44 7.41
6/16/2022 9:45:00 AM 24.13 75.434 0.398 8.09 3.54 7.56
6/16/2022 10:00:00 AM 24.2 75.56 0.398 8.11 3.53 7.69
6/16/2022 10:15:00 AM 24.25 75.65 0.399 8.14 3.5 7.84
6/16/2022 10:30:00 AM 24.37 75.866 0.399 8.16 3.96 8.01
6/16/2022 10:45:00 AM 24.51 76.118 0.399 8.19 3.89 8.15
6/16/2022 11:00:00 AM 24.64 76.352 0.399 8.21 3.44 8.32
6/16/2022 11:15:00 AM 24.81 76.658 0.399 8.23 3.45 8.42
6/16/2022 11:30:00 AM 24.98 76.964 0.399 8.25 3.4 8.58
6/16/2022 11:45:00 AM 25.11 77.198 0.399 8.27 5.25 8.68
6/16/2022 12:00:00 PM 25.2 77.36 0.4 8.28 3.98 8.76
6/16/2022 12:15:00 PM 25.29 77.522 0.4 8.3 4.05 8.84
6/16/2022 12:30:00 PM 25.4 77.72 0.4 8.31 3.93 8.89
6/16/2022 12:45:00 PM 25.52 77.936 0.4 8.33 3.66 9.03
6/16/2022 1:00:00 PM 25.64 78.152 0.4 8.35 3.71 9.12
6/16/2022 1:15:00 PM 25.72 78.296 0.401 8.36 3.75 9.22
6/16/2022 1:30:00 PM 25.82 78.476 0.401 8.37 4.43 9.23
6/16/2022 1:45:00 PM 25.9 78.62 0.401 8.39 3.55 9.34
6/16/2022 2:00:00 PM 25.96 78.728 0.401 8.4 3.25 9.4
6/16/2022 2:15:00 PM 26.04 78.872 0.401 8.41 3.81 9.48
6/16/2022 2:30:00 PM 26.09 78.962 0.401 8.42 3.52 9.52
6/16/2022 2:45:00 PM 26.14 79.052 0.402 8.44 3.2 9.6
6/16/2022 3:00:00 PM 26.19 79.142 0.402 8.45 3.38 9.65
6/16/2022 3:15:00 PM 26.23 79.214 0.402 8.46 3.32 9.71
6/16/2022 3:30:00 PM 26.29 79.32201 0.402 8.47 3.52 9.74
6/16/2022 3:45:00 PM 26.39 79.502 0.402 8.48 3.13 9.79
6/16/2022 4:00:00 PM 26.48 79.664 0.403 8.49 3.26 9.83
6/16/2022 4:15:00 PM 26.58 79.844 0.403 8.5 3.3 9.81
6/16/2022 4:30:00 PM 26.66 79.988 0.403 8.51 3.23 9.86
6/16/2022 4:45:00 PM 26.75 80.15 0.403 8.51 3.06 9.89
6/16/2022 5:00:00 PM 26.78 80.204 0.403 8.52 3.2 9.89
6/16/2022 5:15:00 PM 26.79 80.222 0.404 8.52 3.06 9.86
6/16/2022 5:30:00 PM 26.77 80.186 0.404 8.52 3.07 9.84
6/16/2022 5:45:00 PM 26.74 80.132 0.404 8.51 3.29 9.77
6/16/2022 6:00:00 PM 26.71 80.078 0.404 8.51 2.99 9.71
6/16/2022 6:15:00 PM 26.69 80.042 0.404 8.51 3.2 9.63
6/16/2022 6:30:00 PM 26.66 79.988 0.405 8.5 3.1 9.54
6/16/2022 6:45:00 PM 26.63 79.934 0.405 8.49 3.26 9.47
6/16/2022 7:00:00 PM 26.57 79.826 0.405 8.48 3.34 9.33
6/16/2022 7:15:00 PM 26.53 79.754 0.406 8.46 2.99 9.22
6/16/2022 7:30:00 PM 26.48 79.664 0.406 8.45 3.27 9.11
6/16/2022 7:45:00 PM 26.43 79.574 0.399 8.44 3.18 8.99
6/16/2022 8:00:00 PM 26.38 79.484 0.407 8.43 3.36 8.88
6/16/2022 8:15:00 PM 26.34 79.412 0.407 8.41 3.12 8.74
6/16/2022 8:30:00 PM 26.3 79.34 0.407 8.4 3.11 8.63
6/16/2022 8:45:00 PM 26.27 79.286 0.408 8.38 3.19 8.45
6/16/2022 9:00:00 PM 26.24 79.232 0.408 8.37 2.91 8.42
6/16/2022 9:15:00 PM 26.19 79.142 0.408 8.35 4.13 8.32
6/16/2022 9:30:00 PM 26.14 79.052 0.408 8.33 3.16 8.22
6/16/2022 9:45:00 PM 26.08 78.944 0.409 8.32 3.34 8.12
6/16/2022 10:00:00 PM 26.02 78.836 0.409 8.3 3.54 8
6/16/2022 10:15:00 PM 25.97 78.746 0.409 8.29 3.44 7.94
6/16/2022 10:30:00 PM 25.91 78.638 0.409 8.28 3.49 7.82
6/16/2022 10:45:00 PM 25.84 78.512 0.409 8.26 3.6 7.72
6/16/2022 11:00:00 PM 25.78 78.404 0.41 8.24 3.25 7.63
6/16/2022 11:15:00 PM 25.72 78.296 0.41 8.22 3 7.54
6/16/2022 11:30:00 PM 25.66 78.188 0.41 8.2 3.07 7.44
6/16/2022 11:45:00 PM 25.59 78.062 0.41 8.19 3.31 7.36
6/17/2022 12:00:00 AM 25.53 77.954 0.41 8.17 3.19 7.28
6/17/2022 12:15:00 AM 25.48 77.864 0.41 8.16 3.33 7.22
6/17/2022 12:30:00 AM 25.42 77.756 0.41 8.15 3.19 7.17
6/17/2022 12:45:00 AM 25.37 77.666 0.411 8.13 3.16 7.11
6/17/2022 1:00:00 AM 25.31 77.558 0.411 8.12 2.98 7.05
6/17/2022 1:15:00 AM 25.25 77.45 0.411 8.11 3.3 7
6/17/2022 1:30:00 AM 25.2 77.36 0.411 8.1 3.62 6.96
6/17/2022 1:45:00 AM 25.14 77.252 0.411 8.09 3.23 6.91
6/17/2022 2:00:00 AM 25.09 77.162 0.411 8.08 3.3 6.85
6/17/2022 2:15:00 AM 25.04 77.07201 0.411 8.07 3.46 6.83
6/17/2022 2:30:00 AM 24.98 76.964 0.411 8.06 3.17 6.78
6/17/2022 2:45:00 AM 24.92 76.856 0.411 8.05 3.41 6.74
6/17/2022 3:00:00 AM 24.88 76.784 0.411 8.04 3.14 6.7
6/17/2022 3:15:00 AM 24.83 76.694 0.411 8.03 3.54 6.65
6/17/2022 3:30:00 AM 24.78 76.604 0.411 8.02 3.34 6.65
6/17/2022 3:45:00 AM 24.73 76.514 0.411 8.01 3.15 6.6
6/17/2022 4:00:00 AM 24.68 76.424 0.411 8.01 4.42 6.58
6/17/2022 4:15:00 AM 24.63 76.334 0.411 8 4.02 6.53
6/17/2022 4:30:00 AM 24.59 76.262 0.411 7.99 3.6 6.5
6/17/2022 4:45:00 AM 24.54 76.172 0.411 7.98 3.23 6.48
6/17/2022 5:00:00 AM 24.49 76.082 0.411 7.97 3.54 6.44
6/17/2022 5:15:00 AM 24.45 76.01 0.411 7.96 3.67 6.39
6/17/2022 5:30:00 AM 24.4 75.92 0.411 7.96 3.82 6.4
6/17/2022 5:45:00 AM 24.35 75.83 0.411 7.95 3.52 6.36
6/17/2022 6:00:00 AM 24.3 75.74 0.411 7.94 3.83 6.38
6/17/2022 6:15:00 AM 24.27 75.686 0.411 7.94 3.21 6.35
6/17/2022 6:30:00 AM 24.24 75.632 0.411 7.94 3.48 6.36
6/17/2022 6:45:00 AM 24.23 75.614 0.41 7.93 3.7 6.35
6/17/2022 7:00:00 AM 24.23 75.614 0.41 7.93 3.5 6.39
6/17/2022 7:15:00 AM 24.24 75.632 0.41 7.93 3.39 6.4
6/17/2022 7:30:00 AM 24.25 75.65 0.41 7.93 3.53 6.45
6/17/2022 7:45:00 AM 24.28 75.704 0.41 7.94 3.5 6.51
6/17/2022 8:00:00 AM 24.31 75.758 0.41 7.95 3.43 6.62
6/17/2022 8:15:00 AM 24.33 75.794 0.41 7.96 3.4 6.68
6/17/2022 8:30:00 AM 24.35 75.83 0.41 7.97 3.42 6.77
6/17/2022 8:45:00 AM 24.37 75.866 0.41 7.97 3.39 6.86
6/17/2022 9:00:00 AM 24.43 75.974 0.41 7.99 3.14 6.96
6/17/2022 9:15:00 AM 24.52 76.136 0.41 8.01 4.03 7.14
6/17/2022 9:30:00 AM 24.59 76.262 0.41 8.03 3.74 7.27
6/17/2022 9:45:00 AM 24.69 76.442 0.41 8.06 3.46 7.46
6/17/2022 10:00:00 AM 24.74 76.532 0.41 8.07 6.75 7.61
6/17/2022 10:15:00 AM 24.79 76.622 0.41 8.09 3.59 7.72
6/17/2022 10:30:00 AM 24.89 76.802 0.41 8.12 3.08 7.84
6/17/2022 10:45:00 AM 25.01 77.018 0.41 8.13 3.32 7.97
6/17/2022 11:00:00 AM 25.14 77.252 0.41 8.15 4.51 8.11
6/17/2022 11:15:00 AM 25.2 77.36 0.41 8.18 8.01 8.21
6/17/2022 11:30:00 AM 25.26 77.468 0.41 8.19 3.07 8.32
6/17/2022 11:45:00 AM 25.31 77.558 0.41 8.2 3.47 8.35
6/17/2022 12:00:00 PM 25.33 77.594 0.41 8.22 3.82 8.47
6/17/2022 12:15:00 PM 25.37 77.666 0.41 8.24 2.94 8.57
6/17/2022 12:30:00 PM 25.43 77.774 0.41 8.26 3.13 8.7
6/17/2022 12:45:00 PM 25.52 77.936 0.41 8.27 3.24 8.77
6/17/2022 1:00:00 PM 25.53 77.954 0.41 8.28 2.84 8.81
6/17/2022 1:15:00 PM 25.6 78.08 0.41 8.3 3.17 8.9
6/17/2022 1:30:00 PM 25.61 78.098 0.41 8.31 2.96 8.97
6/17/2022 1:45:00 PM 25.65 78.17 0.41 8.33 3.18 9.02
6/17/2022 2:00:00 PM 25.67 78.206 0.41 8.35 3 9.11
6/17/2022 2:15:00 PM 25.72 78.296 0.41 8.36 2.82 9.18
6/17/2022 2:30:00 PM 25.85 78.53 0.41 8.37 2.8 9.25
6/17/2022 2:45:00 PM 25.83 78.494 0.41 8.38 3.28 9.29
6/17/2022 3:00:00 PM 25.87 78.566 0.41 8.39 3.15 9.33
6/17/2022 3:15:00 PM 25.85 78.53 0.41 8.4 3.02 9.33
6/17/2022 3:30:00 PM 25.87 78.566 0.41 8.41 2.79 9.36
6/17/2022 3:45:00 PM 25.89 78.602 0.41 8.42 2.95 9.4
6/17/2022 4:00:00 PM 25.83 78.494 0.41 8.42 2.93 9.41
6/17/2022 4:15:00 PM 25.8 78.44 0.411 8.42 2.93 9.4
6/17/2022 4:30:00 PM 25.79 78.422 0.411 8.42 4.06 9.29
6/17/2022 4:45:00 PM 25.82 78.476 0.411 8.43 2.92 9.42
6/17/2022 5:00:00 PM 25.81 78.458 0.411 8.44 4.44 9.43
6/17/2022 5:15:00 PM 25.79 78.422 0.411 8.44 2.51 9.43
6/17/2022 5:30:00 PM 25.75 78.35 0.411 8.45 3.28 9.41
6/17/2022 5:45:00 PM 25.72 78.296 0.411 8.45 2.99 9.37
6/17/2022 6:00:00 PM 25.7 78.26 0.411 8.45 2.68 9.37
6/17/2022 6:15:00 PM 25.68 78.224 0.411 8.44 3.6 9.34
6/17/2022 6:30:00 PM 25.69 78.242 0.412 8.45 3.22 9.35
6/17/2022 6:45:00 PM 25.65 78.17 0.412 8.46 2.66 9.29
6/17/2022 7:00:00 PM 25.61 78.098 0.412 8.46 2.72 9.28
6/17/2022 7:15:00 PM 25.53 77.954 0.412 8.44 2.56 9.21
6/17/2022 7:30:00 PM 25.49 77.882 0.412 8.45 2.82 9.13
6/17/2022 7:45:00 PM 25.44 77.792 0.412 8.45 2.83 9.06
6/17/2022 8:00:00 PM 25.38 77.684 0.412 8.44 3.53 9.03
6/17/2022 8:15:00 PM 25.33 77.594 0.412 8.43 2.84 8.96
6/17/2022 8:30:00 PM 25.3 77.54 0.412 8.42 3.19 8.86
6/17/2022 8:45:00 PM 25.27 77.486 0.413 8.41 3.04 8.76
6/17/2022 9:00:00 PM 25.24 77.432 0.413 8.4 2.87 8.7
6/17/2022 9:15:00 PM 25.19 77.342 0.413 8.39 2.96 8.6
6/17/2022 9:30:00 PM 25.15 77.27 0.413 8.38 3.14 8.48
6/17/2022 9:45:00 PM 25.08 77.144 0.413 8.36 3.05 8.37
6/17/2022 10:00:00 PM 25.01 77.018 0.413 8.35 3.29 8.26
6/17/2022 10:15:00 PM 24.95 76.91 0.413 8.34 3.42 8.16
6/17/2022 10:30:00 PM 24.89 76.802 0.414 8.32 3.3 8.06
6/17/2022 10:45:00 PM 24.8 76.64 0.414 8.3 3.03 7.98
6/17/2022 11:00:00 PM 24.73 76.514 0.414 8.29 2.67 7.89
6/17/2022 11:15:00 PM 24.68 76.424 0.414 8.27 2.77 7.81
6/17/2022 11:30:00 PM 24.6 76.28 0.414 8.26 2.73 7.74
6/17/2022 11:45:00 PM 24.5 76.1 0.414 8.25 2.82 7.68
6/18/2022 12:00:00 AM 24.36 75.848 0.414 8.23 3.17 7.6
6/18/2022 12:15:00 AM 24.27 75.686 0.414 8.23 2.83 7.53
6/18/2022 12:30:00 AM 24.18 75.524 0.415 8.21 3.29 7.45
6/18/2022 12:45:00 AM 24.07 75.326 0.415 8.2 3.05 7.43
6/18/2022 1:00:00 AM 23.97 75.146 0.415 8.19 2.84 7.36
6/18/2022 1:15:00 AM 23.89 75.002 0.415 8.18 2.91 7.31
6/18/2022 1:30:00 AM 23.83 74.894 0.415 8.17 2.97 7.26
6/18/2022 1:45:00 AM 23.75 74.75 0.415 8.15 2.85 7.21
6/18/2022 2:00:00 AM 23.67 74.606 0.415 8.14 2.97 7.16
6/18/2022 2:15:00 AM 23.57 74.426 0.415 8.13 3.14 7.13
6/18/2022 2:30:00 AM 23.5 74.3 0.415 8.13 3.43 7.08
6/18/2022 2:45:00 AM 23.46 74.228 0.415 8.12 3.14 7.06
6/18/2022 3:00:00 AM 23.38 74.084 0.415 8.11 2.97 7.02
6/18/2022 3:15:00 AM 23.29 73.922 0.415 8.1 3.1 6.99
6/18/2022 3:30:00 AM 23.21 73.778 0.415 8.09 3.37 6.97
6/18/2022 3:45:00 AM 23.15 73.67 0.415 8.09 2.87 6.92
6/18/2022 4:00:00 AM 23.08 73.544 0.415 8.08 3.84 6.91
6/18/2022 4:15:00 AM 23 73.4 0.415 8.07 3.17 6.88
6/18/2022 4:30:00 AM 22.9 73.22 0.415 8.06 3.53 6.88
6/18/2022 4:45:00 AM 22.81 73.058 0.415 8.06 3.47 6.87
6/18/2022 5:00:00 AM 22.7 72.86 0.415 8.05 4.58 6.85
6/18/2022 5:15:00 AM 22.61 72.698 0.415 8.05 3.63 6.83
6/18/2022 5:30:00 AM 22.55 72.59 0.415 8.03 3.75 6.76
6/18/2022 5:45:00 AM 22.46 72.42799 0.415 8.03 3.48 6.76
6/18/2022 6:00:00 AM 22.41 72.338 0.415 8.02 4.69 6.76
6/18/2022 6:15:00 AM 22.36 72.248 0.415 8.02 3.53 6.76
6/18/2022 6:30:00 AM 22.3 72.14 0.415 8.02 3.92 6.76
6/18/2022 6:45:00 AM 22.23 72.014 0.414 8.01 3.29 6.77
6/18/2022 7:00:00 AM 22.18 71.924 0.414 8 3.72 6.65
6/18/2022 7:15:00 AM 22.13 71.834 0.414 7.96 3.31 6.76
6/18/2022 7:30:00 AM 22.07 71.726 0.414 7.98 3.45 6.74
6/18/2022 7:45:00 AM 22.02 71.636 0.414 7.98 2.89 6.74
6/18/2022 8:00:00 AM 21.97 71.546 0.414 7.99 3.04 6.81
6/18/2022 8:15:00 AM 21.92 71.456 0.414 7.99 3.09 6.86
6/18/2022 8:30:00 AM 21.89 71.402 0.413 8 3.44 6.87
6/18/2022 8:45:00 AM 21.86 71.348 0.413 8.01 3.11 6.98
6/18/2022 9:00:00 AM 21.82 71.276 0.413 8.01 3.12 7.03
6/18/2022 9:15:00 AM 21.79 71.222 0.413 8.02 3.05 7.14
6/18/2022 9:30:00 AM 21.75 71.15 0.413 8.04 2.76 7.24
6/18/2022 9:45:00 AM 21.71 71.078 0.413 8.05 2.95 7.39
6/18/2022 10:00:00 AM 21.71 71.078 0.413 8.07 4.08 7.5
6/18/2022 10:15:00 AM 21.67 71.006 0.412 8.08 3.18 7.61
6/18/2022 10:30:00 AM 21.59 70.862 0.412 8.1 3.08 7.73
6/18/2022 10:45:00 AM 21.53 70.754 0.412 8.11 2.87 7.8
6/18/2022 11:00:00 AM 21.51 70.718 0.412 8.13 3.44 7.95
6/18/2022 11:15:00 AM 21.48 70.664 0.412 8.15 2.84 8.1
6/18/2022 11:30:00 AM 21.47 70.646 0.412 8.17 3.12 8.19
6/18/2022 11:45:00 AM 21.47 70.646 0.412 8.19 3.43 8.3
6/18/2022 12:00:00 PM 21.45 70.61 0.412 8.2 2.8 8.35
6/18/2022 12:15:00 PM 21.45 70.61 0.413 8.21 2.55 8.44
6/18/2022 12:30:00 PM 21.43 70.574 0.413 8.23 2.84 8.51
6/18/2022 12:45:00 PM 21.4 70.52 0.413 8.24 2.84 8.6
6/18/2022 1:00:00 PM 21.42 70.556 0.413 8.26 2.66 8.74
6/18/2022 1:15:00 PM 21.48 70.664 0.413 8.28 2.83 8.88
6/18/2022 1:30:00 PM 21.49 70.682 0.413 8.3 2.63 8.96
6/18/2022 1:45:00 PM 21.53 70.754 0.414 8.32 2.64 9.09
6/18/2022 2:00:00 PM 21.65 70.97 0.414 8.34 2.64 9.22
6/18/2022 2:15:00 PM 21.77 71.186 0.414 8.36 2.49 9.31
6/18/2022 2:30:00 PM 21.83 71.294 0.414 8.38 2.58 9.4
6/18/2022 2:45:00 PM 21.89 71.402 0.415 8.39 2.89 9.47
6/18/2022 3:00:00 PM 21.97 71.546 0.415 8.4 3.83 9.53
6/18/2022 3:15:00 PM 21.98 71.564 0.415 8.41 3.08 9.61
6/18/2022 3:30:00 PM 22.03 71.654 0.416 8.42 3.15 9.65
6/18/2022 3:45:00 PM 22.11 71.798 0.416 8.43 3.7 9.72
6/18/2022 4:00:00 PM 22.17 71.906 0.416 8.45 3.4 9.8
6/18/2022 4:15:00 PM 22.23 72.014 0.417 8.46 2.85 9.84
6/18/2022 4:30:00 PM 22.25 72.05 0.417 8.47 3.59 9.86
6/18/2022 4:45:00 PM 22.27 72.086 0.418 8.47 2.58 9.86
6/18/2022 5:00:00 PM 22.23 72.014 0.418 8.48 2.76 9.89
6/18/2022 5:15:00 PM 22.22 71.996 0.418 8.48 3.12 9.89
6/18/2022 5:30:00 PM 22.19 71.942 0.419 8.49 2.56 9.91
6/18/2022 5:45:00 PM 22.13 71.834 0.419 8.5 2.97 9.92
6/18/2022 6:00:00 PM 22.07 71.726 0.419 8.49 3.34 9.87
6/18/2022 6:15:00 PM 22.02 71.636 0.42 8.5 2.94 9.89
6/18/2022 6:30:00 PM 21.93 71.474 0.42 8.5 2.48 9.86
6/18/2022 6:45:00 PM 21.87 71.366 0.42 8.5 2.81 9.85
6/18/2022 7:00:00 PM 21.77 71.186 0.421 8.5 2.67 9.83
6/18/2022 7:15:00 PM 21.66 70.988 0.421 8.5 2.61 9.81
6/18/2022 7:30:00 PM 21.5 70.7 0.422 8.5 2.39 9.75
6/18/2022 7:45:00 PM 21.37 70.466 0.422 8.49 2.58 9.67
6/18/2022 8:00:00 PM 21.24 70.232 0.423 8.47 2.42 9.6
6/18/2022 8:15:00 PM 21.1 69.98 0.423 8.46 2.51 9.48
6/18/2022 8:30:00 PM 20.97 69.746 0.424 8.45 2.6 9.41
6/18/2022 8:45:00 PM 20.87 69.566 0.424 8.44 2.75 9.33
6/18/2022 9:00:00 PM 20.78 69.404 0.424 8.44 4.36 9.25
6/18/2022 9:15:00 PM 20.68 69.224 0.425 8.43 3.12 9.09
6/18/2022 9:30:00 PM 20.6 69.08 0.425 8.42 3.17 9.1
6/18/2022 9:45:00 PM 20.52 68.936 0.425 8.41 2.66 9.03
6/18/2022 10:00:00 PM 20.43 68.774 0.426 8.4 2.86 8.97
6/18/2022 10:15:00 PM 20.38 68.684 0.426 8.39 2.48 8.89
6/18/2022 10:30:00 PM 20.31 68.558 0.426 8.38 2.69 8.81
6/18/2022 10:45:00 PM 20.25 68.45 0.426 8.37 2.8 8.77
6/18/2022 11:00:00 PM 20.18 68.324 0.426 8.36 2.46 8.71
6/18/2022 11:15:00 PM 20.13 68.234 0.427 8.35 2.88 8.66
6/18/2022 11:30:00 PM 20.07 68.126 0.427 8.34 2.94 8.61
6/18/2022 11:45:00 PM 20.01 68.018 0.427 8.33 2.83 8.53
6/19/2022 12:00:00 AM 19.95 67.91 0.427 8.32 2.82 8.5
6/19/2022 12:15:00 AM 19.89 67.802 0.427 8.31 2.71 8.45
6/19/2022 12:30:00 AM 19.84 67.712 0.427 8.31 2.54 8.4
6/19/2022 12:45:00 AM 19.78 67.604 0.427 8.3 2.41 8.36
6/19/2022 1:00:00 AM 19.73 67.514 0.427 8.28 3.09 8.29
6/19/2022 1:15:00 AM 19.68 67.424 0.427 8.28 2.61 8.27
6/19/2022 1:30:00 AM 19.63 67.334 0.427 8.27 2.61 8.23
6/19/2022 1:45:00 AM 19.57 67.226 0.427 8.26 2.6 8.18
6/19/2022 2:00:00 AM 19.53 67.154 0.427 8.25 2.59 8.13
6/19/2022 2:15:00 AM 19.49 67.082 0.427 8.24 2.95 8.09
6/19/2022 2:30:00 AM 19.45 67.01 0.427 8.23 2.84 8.04
6/19/2022 2:45:00 AM 19.39 66.902 0.427 8.22 2.69 8
6/19/2022 3:00:00 AM 19.35 66.83 0.427 8.2 2.98 7.99
6/19/2022 3:15:00 AM 19.29 66.722 0.427 8.2 4.41 7.97
6/19/2022 3:30:00 AM 19.24 66.632 0.427 8.19 2.87 7.93
6/19/2022 3:45:00 AM 19.19 66.542 0.427 8.18 3.3 7.84
6/19/2022 4:00:00 AM 19.13 66.434 0.427 8.17 2.78 7.86
6/19/2022 4:15:00 AM 19.08 66.344 0.427 8.17 2.8 7.86
6/19/2022 4:30:00 AM 19.03 66.254 0.427 8.16 3.09 7.81
6/19/2022 4:45:00 AM 18.97 66.146 0.427 8.15 3.03 7.81
6/19/2022 5:00:00 AM 18.91 66.038 0.427 8.14 2.9 7.78
6/19/2022 5:15:00 AM 18.86 65.948 0.427 8.13 2.88 7.77
6/19/2022 5:30:00 AM 18.81 65.858 0.427 8.12 2.84 7.76
6/19/2022 5:45:00 AM 18.76 65.768 0.427 8.12 3.12 7.74
6/19/2022 6:00:00 AM 18.7 65.66 0.427 8.11 2.9 7.73
6/19/2022 6:15:00 AM 18.66 65.588 0.427 8.11 3.78 7.72
6/19/2022 6:30:00 AM 18.62 65.516 0.426 8.11 2.97 7.71
6/19/2022 6:45:00 AM 18.6 65.48 0.426 8.11 2.86 7.77
6/19/2022 7:00:00 AM 18.58 65.444 0.426 8.11 3.26 7.77
6/19/2022 7:15:00 AM 18.57 65.426 0.426 8.11 2.71 7.82
6/19/2022 7:30:00 AM 18.58 65.444 0.426 8.11 2.65 7.86
6/19/2022 7:45:00 AM 18.59 65.462 0.426 8.11 3.16 7.92
6/19/2022 8:00:00 AM 18.57 65.426 0.426 8.12 2.8 8.02
6/19/2022 8:15:00 AM 18.53 65.354 0.426 8.13 2.45 8.08
6/19/2022 8:30:00 AM 18.46 65.228 0.426 8.13 2.85 8.11
6/19/2022 8:45:00 AM 18.41 65.138 0.426 8.14 2.91 8.18
6/19/2022 9:00:00 AM 18.48 65.264 0.426 8.15 2.45 8.31
6/19/2022 9:15:00 AM 18.61 65.498 0.426 8.18 2.83 8.47
6/19/2022 9:30:00 AM 18.66 65.588 0.425 8.19 2.93 8.55
6/19/2022 9:45:00 AM 18.62 65.516 0.425 8.2 2.75 8.63
6/19/2022 10:00:00 AM 18.64 65.552 0.425 8.21 2.41 8.73
6/19/2022 10:15:00 AM 18.74 65.732 0.425 8.24 2.69 8.86
6/19/2022 10:30:00 AM 18.87 65.966 0.425 8.25 2.77 8.99
6/19/2022 10:45:00 AM 19.02 66.236 0.425 8.27 2.73 9.09
6/19/2022 11:00:00 AM 19.13 66.434 0.425 8.28 2.89 9.18
6/19/2022 11:15:00 AM 19.29 66.722 0.425 8.3 3.48 9.35
6/19/2022 11:30:00 AM 19.42 66.956 0.425 8.31 2.94 9.42
6/19/2022 11:45:00 AM 19.55 67.19 0.425 8.33 2.6 9.53
6/19/2022 12:00:00 PM 19.73 67.514 0.424 8.35 2.49 9.67
6/19/2022 12:15:00 PM 19.88 67.784 0.424 8.37 2.56 9.77
6/19/2022 12:30:00 PM 20.07 68.126 0.424 8.39 2.52 9.91
6/19/2022 12:45:00 PM 20.21 68.378 0.424 8.4 2.38 9.99
6/19/2022 1:00:00 PM 20.39 68.702 0.424 8.42 2.31 10.11
6/19/2022 1:15:00 PM 20.55 68.99 0.424 8.44 2.16 10.2
6/19/2022 1:30:00 PM 20.68 69.224 0.424 8.45 2.3 10.27
6/19/2022 1:45:00 PM 20.79 69.422 0.424 8.46 2.27 10.34
6/19/2022 2:00:00 PM 20.92 69.656 0.423 8.47 2.3 10.39
6/19/2022 2:15:00 PM 21.03 69.854 0.423 8.48 2.32 10.43
6/19/2022 2:30:00 PM 21.11 69.998 0.423 8.49 2.24 10.49
6/19/2022 2:45:00 PM 21.21 70.17799 0.423 8.5 2.3 10.53
6/19/2022 3:00:00 PM 21.31 70.358 0.423 8.51 2.61 10.55
6/19/2022 3:15:00 PM 21.37 70.466 0.423 8.52 2.33 10.6
6/19/2022 3:30:00 PM 21.44 70.592 0.423 8.52 2.4 10.6
6/19/2022 3:45:00 PM 21.48 70.664 0.423 8.53 2.6 10.63
6/19/2022 4:00:00 PM 21.53 70.754 0.422 8.54 2.29 10.65
6/19/2022 4:15:00 PM 21.57 70.826 0.422 8.54 2.21 10.67
6/19/2022 4:30:00 PM 21.59 70.862 0.422 8.55 2.73 10.67
6/19/2022 4:45:00 PM 21.58 70.844 0.422 8.55 2.47 10.68
6/19/2022 5:00:00 PM 21.58 70.844 0.422 8.56 2.27 10.69
6/19/2022 5:15:00 PM 21.57 70.826 0.422 8.56 2.14 10.68
6/19/2022 5:30:00 PM 21.54 70.772 0.422 8.57 2.29 10.67
6/19/2022 5:45:00 PM 21.5 70.7 0.421 8.57 2.59 10.66
6/19/2022 6:00:00 PM 21.46 70.628 0.421 8.57 2.3 10.61
6/19/2022 6:15:00 PM 21.44 70.592 0.421 8.57 2.14 10.58
6/19/2022 6:30:00 PM 21.38 70.484 0.421 8.57 2.19 10.57
6/19/2022 6:45:00 PM 21.32 70.376 0.421 8.57 2.07 10.53
6/19/2022 7:00:00 PM 21.26 70.268 0.421 8.57 7.72 10.48
6/19/2022 7:15:00 PM 21.18 70.124 0.421 8.57 2.2 10.47
6/19/2022 7:30:00 PM 21.08 69.944 0.421 8.57 2.68 10.4
6/19/2022 7:45:00 PM 20.99 69.782 0.421 8.56 3.06 10.31
6/19/2022 8:00:00 PM 20.88 69.584 0.421 8.55 2.21 10.21
6/19/2022 8:15:00 PM 20.79 69.422 0.421 8.55 2.22 10.12
6/19/2022 8:30:00 PM 20.71 69.278 0.421 8.54 2.32 10.03
6/19/2022 8:45:00 PM 20.63 69.134 0.421 8.53 2.11 9.91
6/19/2022 9:00:00 PM 20.57 69.026 0.421 8.52 2.44 9.84
6/19/2022 9:15:00 PM 20.51 68.918 0.421 8.51 2.36 9.75
6/19/2022 9:30:00 PM 20.47 68.846 0.421 8.5 2.28 9.66
6/19/2022 9:45:00 PM 20.41 68.738 0.421 8.5 2.22 9.56
6/19/2022 10:00:00 PM 20.38 68.684 0.421 8.48 2.3 9.48
6/19/2022 10:15:00 PM 20.34 68.612 0.422 8.48 2.05 9.39
6/19/2022 10:30:00 PM 20.3 68.54 0.422 8.47 2.22 9.29
6/19/2022 10:45:00 PM 20.27 68.486 0.422 8.46 2.19 9.23
6/19/2022 11:00:00 PM 20.22 68.396 0.422 8.45 2.51 9.15
6/19/2022 11:15:00 PM 20.18 68.324 0.422 8.44 2.15 9.07
6/19/2022 11:30:00 PM 20.14 68.252 0.422 8.43 2.37 9.01
6/19/2022 11:45:00 PM 20.09 68.162 0.422 8.42 2.32 8.95
6/20/2022 12:00:00 AM 20.03 68.054 0.422 8.41 2.44 8.89
6/20/2022 12:15:00 AM 19.99 67.982 0.422 8.4 2.21 8.8
6/20/2022 12:30:00 AM 19.93 67.874 0.422 8.39 2.41 8.74
6/20/2022 12:45:00 AM 19.88 67.784 0.423 8.38 2.46 8.69
6/20/2022 1:00:00 AM 19.82 67.676 0.423 8.37 2.26 8.61
6/20/2022 1:15:00 AM 19.78 67.604 0.423 8.36 2.41 8.54
6/20/2022 1:30:00 AM 19.72 67.496 0.423 8.35 2.45 8.48
6/20/2022 1:45:00 AM 19.66 67.388 0.423 8.34 2.31 8.42
6/20/2022 2:00:00 AM 19.61 67.298 0.423 8.33 2.67 8.35
6/20/2022 2:15:00 AM 19.55 67.19 0.424 8.32 2.54 8.32
6/20/2022 2:30:00 AM 19.5 67.1 0.424 8.32 2.65 8.29
6/20/2022 2:45:00 AM 19.43 66.974 0.423 8.31 2.88 8.26
6/20/2022 3:00:00 AM 19.37 66.866 0.424 8.3 2.8 8.22
6/20/2022 3:15:00 AM 19.31 66.758 0.424 8.29 2.33 8.17
6/20/2022 3:30:00 AM 19.24 66.632 0.425 8.28 2.53 8.16
6/20/2022 3:45:00 AM 19.18 66.524 0.425 8.27 2.55 8.11
6/20/2022 4:00:00 AM 19.12 66.416 0.425 8.27 2.51 8.09
6/20/2022 4:15:00 AM 19.04 66.272 0.425 8.26 2.61 8.05
6/20/2022 4:30:00 AM 18.97 66.146 0.425 8.25 2.62 8.05
6/20/2022 4:45:00 AM 18.9 66.02 0.426 8.24 2.61 8.01
6/20/2022 5:00:00 AM 18.84 65.912 0.426 8.23 2.49 7.91
6/20/2022 5:15:00 AM 18.78 65.804 0.426 8.23 2.55 7.96
6/20/2022 5:30:00 AM 18.7 65.66 0.426 8.22 3.36 7.91
6/20/2022 5:45:00 AM 18.64 65.552 0.426 8.22 3 7.92
6/20/2022 6:00:00 AM 18.59 65.462 0.426 8.21 2.75 7.9
6/20/2022 6:15:00 AM 18.54 65.372 0.426 8.2 2.97 7.85
6/20/2022 6:30:00 AM 18.49 65.282 0.427 8.2 2.72 7.91
6/20/2022 6:45:00 AM 18.46 65.228 0.427 8.2 2.76 7.9
6/20/2022 7:00:00 AM 18.44 65.192 0.427 8.21 2.68 7.97
6/20/2022 7:15:00 AM 18.45 65.21 0.427 8.2 3.88 7.99
6/20/2022 7:30:00 AM 18.48 65.264 0.427 8.21 2.88 8.08
6/20/2022 7:45:00 AM 18.52 65.336 0.427 8.22 2.86 8.15
6/20/2022 8:00:00 AM 18.56 65.408 0.426 8.23 2.35 8.21
6/20/2022 8:15:00 AM 18.59 65.462 0.426 8.23 2.61 8.28
6/20/2022 8:30:00 AM 18.62 65.516 0.426 8.24 6.63 8.36
6/20/2022 8:45:00 AM 18.69 65.642 0.426 8.26 2.83 8.47
6/20/2022 9:00:00 AM 18.79 65.82201 0.426 8.27 2.54 8.61
6/20/2022 9:15:00 AM 18.9 66.02 0.426 8.29 2.19 8.75
6/20/2022 9:30:00 AM 19.01 66.218 0.426 8.31 2.26 8.84
6/20/2022 9:45:00 AM 19.13 66.434 0.426 8.33 2.64 9
6/20/2022 10:00:00 AM 19.26 66.668 0.426 8.34 2.41 9.11
6/20/2022 10:15:00 AM 19.42 66.956 0.426 8.36 2.51 9.23
6/20/2022 10:30:00 AM 19.58 67.244 0.426 8.37 2.45 9.38
6/20/2022 10:45:00 AM 19.75 67.55 0.425 8.39 2.23 9.48
6/20/2022 11:00:00 AM 19.92 67.856 0.425 8.41 2.92 9.58
6/20/2022 11:15:00 AM 20.09 68.162 0.425 8.42 2.44 9.7
6/20/2022 11:30:00 AM 20.24 68.432 0.425 8.44 2.23 9.81
6/20/2022 11:45:00 AM 20.39 68.702 0.425 8.45 2.4 9.92
6/20/2022 12:00:00 PM 20.57 69.026 0.425 8.47 2.25 10.05
6/20/2022 12:15:00 PM 20.74 69.332 0.425 8.49 2.05 10.14
6/20/2022 12:30:00 PM 20.92 69.656 0.424 8.5 2.31 10.26
6/20/2022 12:45:00 PM 21.08 69.944 0.424 8.51 2.28 10.33
6/20/2022 1:00:00 PM 21.26 70.268 0.424 8.53 2.14 10.44
6/20/2022 1:15:00 PM 21.42 70.556 0.424 8.54 2.24 10.53
6/20/2022 1:30:00 PM 21.61 70.898 0.424 8.55 2.17 10.62
6/20/2022 1:45:00 PM 21.76 71.168 0.424 8.57 2.07 10.61
6/20/2022 2:00:00 PM 21.9 71.42 0.424 8.57 2.25 10.75
6/20/2022 2:15:00 PM 22.07 71.726 0.424 8.58 1.99 10.83
6/20/2022 2:30:00 PM 22.19 71.942 0.424 8.59 1.96 10.77
6/20/2022 2:45:00 PM 22.3 72.14 0.424 8.6 2.14 10.87
6/20/2022 3:00:00 PM 22.43 72.374 0.424 8.61 2.1 10.93
6/20/2022 3:15:00 PM 22.52 72.536 0.424 8.61 2.16 10.94
6/20/2022 3:30:00 PM 22.59 72.662 0.424 8.61 2.19 10.98
6/20/2022 3:45:00 PM 22.66 72.788 0.424 8.62 2.1 10.98
6/20/2022 4:00:00 PM 22.73 72.914 0.424 8.62 2.08 11.01
6/20/2022 4:15:00 PM 22.78 73.004 0.424 8.63 2.15 11.03
6/20/2022 4:30:00 PM 22.84 73.112 0.424 8.63 1.98 11.01
6/20/2022 4:45:00 PM 22.87 73.166 0.424 8.63 2.05 11.02
6/20/2022 5:00:00 PM 22.88 73.184 0.424 8.63 2.01 11
6/20/2022 5:15:00 PM 22.92 73.256 0.424 8.64 2.09 11
6/20/2022 5:30:00 PM 22.93 73.274 0.424 8.64 2.12 11.02
6/20/2022 5:45:00 PM 22.93 73.274 0.424 8.64 2.36 10.97
6/20/2022 6:00:00 PM 22.92 73.256 0.424 8.65 2.21 10.98
6/20/2022 6:15:00 PM 22.89 73.202 0.424 8.64 1.96 10.92
6/20/2022 6:30:00 PM 22.84 73.112 0.424 8.64 2.15 10.84
6/20/2022 6:45:00 PM 22.8 73.04 0.424 8.64 2.34 10.81
6/20/2022 7:00:00 PM 22.75 72.95 0.424 8.64 2.08 10.76
6/20/2022 7:15:00 PM 22.71 72.878 0.425 8.64 2.1 10.7
6/20/2022 7:30:00 PM 22.63 72.734 0.425 8.63 2.41 10.62
6/20/2022 7:45:00 PM 22.55 72.59 0.425 8.63 2.49 10.53
6/20/2022 8:00:00 PM 22.46 72.42799 0.425 8.62 2.14 10.4
6/20/2022 8:15:00 PM 22.38 72.284 0.426 8.61 2.34 10.28
6/20/2022 8:30:00 PM 22.3 72.14 0.426 8.6 2.38 10.17
6/20/2022 8:45:00 PM 22.23 72.014 0.426 8.59 2.24 10.04
6/20/2022 9:00:00 PM 22.17 71.906 0.426 8.58 2.24 9.96
6/20/2022 9:15:00 PM 22.11 71.798 0.426 8.57 2.31 9.84
6/20/2022 9:30:00 PM 22.06 71.708 0.426 8.56 2.29 9.73
6/20/2022 9:45:00 PM 22 71.6 0.427 8.55 2.52 9.62
6/20/2022 10:00:00 PM 21.95 71.51 0.427 8.54 2.76 9.51
6/20/2022 10:15:00 PM 21.9 71.42 0.427 8.53 2.23 9.41
6/20/2022 10:30:00 PM 21.86 71.348 0.427 8.52 2.21 9.3
6/20/2022 10:45:00 PM 21.81 71.258 0.427 8.51 2.34 9.21
6/20/2022 11:00:00 PM 21.77 71.186 0.427 8.5 2.14 9.13
6/20/2022 11:15:00 PM 21.72 71.096 0.427 8.49 2.48 9.05
6/20/2022 11:30:00 PM 21.67 71.006 0.427 8.48 2.42 8.96
6/20/2022 11:45:00 PM 21.61 70.898 0.427 8.47 2.3 8.86
6/21/2022 12:00:00 AM 21.56 70.808 0.427 8.46 2.6 8.78
6/21/2022 12:15:00 AM 21.52 70.736 0.427 8.44 2.37 8.68
6/21/2022 12:30:00 AM 21.46 70.628 0.427 8.43 2.55 8.62
6/21/2022 12:45:00 AM 21.42 70.556 0.426 8.42 2.17 8.54
6/21/2022 1:00:00 AM 21.37 70.466 0.426 8.41 2.42 8.48
6/21/2022 1:15:00 AM 21.32 70.376 0.426 8.4 2.56 8.41
6/21/2022 1:30:00 AM 21.26 70.268 0.426 8.39 2.72 8.35
6/21/2022 1:45:00 AM 21.21 70.17799 0.426 8.38 2.62 8.25
6/21/2022 2:00:00 AM 21.17 70.106 0.426 8.36 2.59 8.18
6/21/2022 2:15:00 AM 21.11 69.998 0.425 8.35 2.57 8.14
6/21/2022 2:30:00 AM 21.07 69.926 0.425 8.34 2.48 8.09
6/21/2022 2:45:00 AM 21.01 69.818 0.425 8.33 2.65 8.02
6/21/2022 3:00:00 AM 20.98 69.764 0.425 8.32 2.47 7.98
6/21/2022 3:15:00 AM 20.94 69.692 0.425 8.31 2.74 7.92
6/21/2022 3:30:00 AM 20.89 69.602 0.425 8.3 2.42 7.89
6/21/2022 3:45:00 AM 20.85 69.53 0.424 8.29 2.65 7.83
6/21/2022 4:00:00 AM 20.8 69.44 0.424 8.28 2.59 7.8
6/21/2022 4:15:00 AM 20.75 69.35 0.424 8.27 2.67 7.76
6/21/2022 4:30:00 AM 20.71 69.278 0.424 8.26 2.56 7.7
6/21/2022 4:45:00 AM 20.67 69.206 0.423 8.25 2.84 7.69
6/21/2022 5:00:00 AM 20.62 69.116 0.423 8.24 2.48 7.59
6/21/2022 5:15:00 AM 20.58 69.044 0.423 8.23 2.94 7.61
6/21/2022 5:30:00 AM 20.54 68.972 0.423 8.22 2.81 7.6
6/21/2022 5:45:00 AM 20.51 68.918 0.423 8.21 3 7.55
6/21/2022 6:00:00 AM 20.47 68.846 0.422 8.2 2.96 7.51
6/21/2022 6:15:00 AM 20.44 68.792 0.422 8.2 3.48 7.48
6/21/2022 6:30:00 AM 20.41 68.738 0.422 8.19 3.02 7.48
6/21/2022 6:45:00 AM 20.38 68.684 0.422 8.19 2.95 7.47
6/21/2022 7:00:00 AM 20.36 68.648 0.421 8.18 2.94 7.47
6/21/2022 7:15:00 AM 20.33 68.594 0.421 8.18 2.96 7.46
6/21/2022 7:30:00 AM 20.31 68.558 0.421 8.17 2.79 7.46
6/21/2022 7:45:00 AM 20.29 68.522 0.421 8.17 2.85 7.45
6/21/2022 8:00:00 AM 20.27 68.486 0.42 8.17 2.55 7.47
6/21/2022 8:15:00 AM 20.25 68.45 0.42 8.16 3.2 7.51
6/21/2022 8:30:00 AM 20.26 68.468 0.42 8.17 2.95 7.56
6/21/2022 8:45:00 AM 20.28 68.504 0.419 8.17 2.89 7.64
6/21/2022 9:00:00 AM 20.31 68.558 0.419 8.18 2.59 7.67
6/21/2022 9:15:00 AM 20.36 68.648 0.419 8.19 2.75 7.82
6/21/2022 9:30:00 AM 20.47 68.846 0.419 8.2 2.64 7.9
6/21/2022 9:45:00 AM 20.58 69.044 0.418 8.22 3.07 8.03
6/21/2022 10:00:00 AM 20.64 69.152 0.418 8.23 2.79 8.16
6/21/2022 10:15:00 AM 20.74 69.332 0.418 8.25 3.01 8.24
6/21/2022 10:30:00 AM 20.88 69.584 0.417 8.27 3.07 8.42
6/21/2022 10:45:00 AM 21 69.8 0.417 8.29 2.49 8.61
6/21/2022 11:00:00 AM 21.13 70.034 0.417 8.31 2.53 8.75
6/21/2022 11:15:00 AM 21.21 70.17799 0.417 8.33 2.91 8.85
6/21/2022 11:30:00 AM 21.25 70.25 0.416 8.34 2.56 8.91
6/21/2022 11:45:00 AM 21.29 70.32201 0.416 8.36 2.8 9.02
6/21/2022 12:00:00 PM 21.38 70.484 0.416 8.37 2.95 9.14
6/21/2022 12:15:00 PM 21.56 70.808 0.416 8.39 3.67 9.26
6/21/2022 12:30:00 PM 21.75 71.15 0.415 8.41 2.65 9.39
6/21/2022 12:45:00 PM 21.9 71.42 0.415 8.42 3.11 9.45
6/21/2022 1:00:00 PM 22.05 71.69 0.415 8.43 2.66 9.5
6/21/2022 1:15:00 PM 22.2 71.96 0.415 8.44 2.16 9.6
6/21/2022 1:30:00 PM 22.4 72.32 0.415 8.45 2.27 9.68
6/21/2022 1:45:00 PM 22.59 72.662 0.415 8.46 2.98 9.82
6/21/2022 2:00:00 PM 22.8 73.04 0.415 8.48 2.63 9.97
6/21/2022 2:15:00 PM 23 73.4 0.415 8.49 3.02 10.07
6/21/2022 2:30:00 PM 23.19 73.742 0.415 8.51 2.95 10.22
6/21/2022 2:45:00 PM 23.32 73.976 0.414 8.52 2.8 10.29
6/21/2022 3:00:00 PM 23.5 74.3 0.414 8.54 2.41 10.38
6/21/2022 3:15:00 PM 23.62 74.516 0.414 8.54 3.69 10.39
6/21/2022 3:30:00 PM 23.73 74.714 0.414 8.55 2.75 10.42
6/21/2022 3:45:00 PM 23.84 74.912 0.414 8.55 2.78 10.45
6/21/2022 4:00:00 PM 23.96 75.128 0.414 8.56 2.52 10.49
6/21/2022 4:15:00 PM 24.06 75.308 0.414 8.56 2.3 10.45
6/21/2022 4:30:00 PM 24.17 75.506 0.414 8.57 5.59 10.51
6/21/2022 4:45:00 PM 24.26 75.668 0.414 8.57 2.72 10.54
6/21/2022 5:00:00 PM 24.31 75.758 0.414 8.57 3.6 10.49
6/21/2022 5:15:00 PM 24.38 75.884 0.414 8.58 2.5 10.52
6/21/2022 5:30:00 PM 24.42 75.956 0.414 8.58 2.65 10.52
6/21/2022 5:45:00 PM 24.47 76.046 0.414 8.58 3.35 10.57
6/21/2022 6:00:00 PM 24.49 76.082 0.415 8.58 2.47 10.51
6/21/2022 6:15:00 PM 24.53 76.154 0.415 8.58 2.57 10.46
6/21/2022 6:30:00 PM 24.54 76.172 0.415 8.58 2.72 10.45
6/21/2022 6:45:00 PM 24.54 76.172 0.415 8.58 2.22 10.35
6/21/2022 7:00:00 PM 24.54 76.172 0.415 8.58 2.11 10.36
6/21/2022 7:15:00 PM 24.53 76.154 0.415 8.58 2.9 10.26
6/21/2022 7:30:00 PM 24.51 76.118 0.415 8.57 2.56 10.21
6/21/2022 7:45:00 PM 24.46 76.028 0.416 8.56 2.44 10.15
6/21/2022 8:00:00 PM 24.42 75.956 0.416 8.55 2.37 10.01
6/21/2022 8:15:00 PM 24.36 75.848 0.416 8.54 2.66 9.87
6/21/2022 8:30:00 PM 24.3 75.74 0.416 8.52 2.4 9.75
6/21/2022 8:45:00 PM 24.24 75.632 0.417 8.51 2.25 9.61
6/21/2022 9:00:00 PM 24.18 75.524 0.417 8.49 3.04 9.49
6/21/2022 9:15:00 PM 24.14 75.452 0.417 8.48 2.39 9.38
6/21/2022 9:30:00 PM 24.09 75.362 0.417 8.47 2.67 9.28
6/21/2022 9:45:00 PM 24.05 75.29 0.418 8.46 2.71 9.21
6/21/2022 10:00:00 PM 24.01 75.218 0.418 8.45 2.77 9.06
6/21/2022 10:15:00 PM 23.96 75.128 0.418 8.43 2.54 8.97
6/21/2022 10:30:00 PM 23.92 75.056 0.418 8.42 2.83 8.83
6/21/2022 10:45:00 PM 23.87 74.966 0.419 8.4 2.64 8.73
6/21/2022 11:00:00 PM 23.83 74.894 0.419 8.39 2.36 8.64
6/21/2022 11:15:00 PM 23.78 74.804 0.419 8.37 2.47 8.51
6/21/2022 11:30:00 PM 23.73 74.714 0.419 8.36 2.43 8.4
6/21/2022 11:45:00 PM 23.68 74.624 0.419 8.34 2.22 8.29
6/22/2022 12:00:00 AM 23.63 74.534 0.419 8.33 2.49 8.24
6/22/2022 12:15:00 AM 23.58 74.444 0.419 8.32 2.2 8.15
6/22/2022 12:30:00 AM 23.53 74.354 0.42 8.3 2.3 8.07
6/22/2022 12:45:00 AM 23.48 74.264 0.42 8.29 2.22 7.97
6/22/2022 1:00:00 AM 23.44 74.192 0.42 8.27 2.73 7.89
6/22/2022 1:15:00 AM 23.4 74.12 0.42 8.26 2.27 7.8
6/22/2022 1:30:00 AM 23.37 74.066 0.42 8.25 2.55 7.74
6/22/2022 1:45:00 AM 23.33 73.994 0.42 8.23 2.41 7.63
6/22/2022 2:00:00 AM 23.31 73.958 0.42 8.22 2.48 7.6
6/22/2022 2:15:00 AM 23.27 73.886 0.42 8.21 2.62 7.51
6/22/2022 2:30:00 AM 23.24 73.832 0.42 8.19 2.55 7.44
6/22/2022 2:45:00 AM 23.22 73.796 0.42 8.19 2.42 7.39
6/22/2022 3:00:00 AM 23.19 73.742 0.42 8.17 2.66 7.31
6/22/2022 3:15:00 AM 23.17 73.706 0.42 8.16 2.59 7.27
6/22/2022 3:30:00 AM 23.13 73.634 0.42 8.14 2.72 7.2
6/22/2022 3:45:00 AM 23.1 73.58 0.42 8.13 2.65 7.16
6/22/2022 4:00:00 AM 23.06 73.508 0.42 8.12 2.68 7.14
6/22/2022 4:15:00 AM 23.02 73.436 0.42 8.11 3.25 7.07
6/22/2022 4:30:00 AM 22.98 73.364 0.42 8.1 2.79 7
6/22/2022 4:45:00 AM 22.95 73.31 0.42 8.09 3.16 6.97
6/22/2022 5:00:00 AM 22.91 73.238 0.42 8.07 2.89 6.92
6/22/2022 5:15:00 AM 22.88 73.184 0.42 8.07 2.88 6.89
6/22/2022 5:30:00 AM 22.84 73.112 0.42 8.06 2.65 6.88
6/22/2022 5:45:00 AM 22.8 73.04 0.42 8.04 2.95 6.81
6/22/2022 6:00:00 AM 22.78 73.004 0.42 8.04 2.93 6.77
6/22/2022 6:15:00 AM 22.75 72.95 0.419 8.03 2.9 6.78
6/22/2022 6:30:00 AM 22.72 72.896 0.419 8.02 3.15 6.71
6/22/2022 6:45:00 AM 22.7 72.86 0.419 8.02 3.08 6.71
6/22/2022 7:00:00 AM 22.68 72.824 0.419 8.01 2.71 6.69
6/22/2022 7:15:00 AM 22.67 72.806 0.419 8.01 2.96 6.68
6/22/2022 7:30:00 AM 22.67 72.806 0.419 8.01 2.97 6.73
6/22/2022 7:45:00 AM 22.68 72.824 0.419 8.01 2.8 6.77
6/22/2022 8:00:00 AM 22.72 72.896 0.419 8.02 3.06 6.86
6/22/2022 8:15:00 AM 22.78 73.004 0.419 8.02 2.9 6.94
6/22/2022 8:30:00 AM 22.81 73.058 0.418 8.03 2.87 6.99
6/22/2022 8:45:00 AM 22.83 73.094 0.418 8.03 2.74 7.08
6/22/2022 9:00:00 AM 22.91 73.238 0.418 8.05 2.52 7.17
6/22/2022 9:15:00 AM 23.02 73.436 0.418 8.05 2.45 7.27
6/22/2022 9:30:00 AM 23.1 73.58 0.418 8.08 2.64 7.41
6/22/2022 9:45:00 AM 23.18 73.724 0.417 8.1 2.77 7.58
6/22/2022 10:00:00 AM 23.26 73.868 0.417 8.12 2.56 7.61
6/22/2022 10:15:00 AM 23.38 74.084 0.417 8.13 2.58 7.83
6/22/2022 10:30:00 AM 23.5 74.3 0.417 8.15 2.56 7.96
6/22/2022 10:45:00 AM 23.65 74.57 0.417 8.18 2.51 8.13
6/22/2022 11:00:00 AM 23.83 74.894 0.416 8.21 2.65 8.36
6/22/2022 11:15:00 AM 23.96 75.128 0.416 8.22 2.4 8.49
6/22/2022 11:30:00 AM 24.04 75.272 0.416 8.24 2.38 8.6
6/22/2022 11:45:00 AM 24.12 75.416 0.416 8.25 2.81 8.69
6/22/2022 12:00:00 PM 24.25 75.65 0.415 8.27 2.88 8.82
6/22/2022 12:15:00 PM 24.41 75.938 0.415 8.29 3.15 8.93
6/22/2022 12:30:00 PM 24.55 76.19 0.415 8.31 2.31 9.04
6/22/2022 12:45:00 PM 24.72 76.496 0.415 8.33 2.38 9.18
6/22/2022 1:00:00 PM 24.87 76.766 0.415 8.35 3.3 9.31
6/22/2022 1:15:00 PM 24.96 76.92799 0.415 8.37 2.8 9.37
6/22/2022 1:30:00 PM 25.13 77.234 0.415 8.38 2.47 9.5
6/22/2022 1:45:00 PM 25.31 77.558 0.414 8.4 2.88 9.55
6/22/2022 2:00:00 PM 25.41 77.738 0.414 8.41 2.24 9.64
6/22/2022 2:15:00 PM 25.47 77.846 0.414 8.42 2.89 9.7
6/22/2022 2:30:00 PM 25.56 78.008 0.414 8.43 2.5 9.78
6/22/2022 2:45:00 PM 25.7 78.26 0.414 8.45 2.26 9.84
6/22/2022 3:00:00 PM 25.8 78.44 0.414 8.46 2.55 9.94
6/22/2022 3:15:00 PM 25.94 78.692 0.414 8.48 3.51 9.98
6/22/2022 3:30:00 PM 26 78.8 0.414 8.47 2.76 9.97
6/22/2022 3:45:00 PM 26.09 78.962 0.414 8.48 2.65 10
6/22/2022 4:00:00 PM 26.11 78.998 0.414 8.48 2.95 9.95
6/22/2022 4:15:00 PM 26.16 79.088 0.414 8.49 3.17 9.98
6/22/2022 4:30:00 PM 26.17 79.106 0.414 8.5 2.66 9.96
6/22/2022 4:45:00 PM 26.15 79.07 0.414 8.5 2.84 9.94
6/22/2022 5:00:00 PM 26.2 79.16 0.414 8.5 3.01 9.99
6/22/2022 5:15:00 PM 26.18 79.124 0.415 8.5 3.42 9.92
6/22/2022 5:30:00 PM 26.15 79.07 0.415 8.5 2.58 9.87
6/22/2022 5:45:00 PM 26.07 78.926 0.415 8.49 2.84 9.74
6/22/2022 6:00:00 PM 25.98 78.764 0.416 8.48 2.72 9.63
6/22/2022 6:15:00 PM 25.91 78.638 0.416 8.47 2.53 9.53
6/22/2022 6:30:00 PM 25.8 78.44 0.416 8.46 2.91 9.35
6/22/2022 6:45:00 PM 25.72 78.296 0.417 8.46 3.04 9.33
6/22/2022 7:00:00 PM 25.61 78.098 0.417 8.44 3.55 9.17
6/22/2022 7:15:00 PM 25.57 78.026 0.417 8.44 2.47 9.09
6/22/2022 7:30:00 PM 25.48 77.864 0.417 8.42 2.63 8.96
6/22/2022 7:45:00 PM 25.41 77.738 0.417 8.41 2.42 8.82
6/22/2022 8:00:00 PM 25.33 77.594 0.418 8.39 2.54 8.63
6/22/2022 8:15:00 PM 25.28 77.504 0.418 8.38 2.66 8.59
6/22/2022 8:30:00 PM 25.22 77.396 0.418 8.36 2.71 8.52
6/22/2022 8:45:00 PM 25.13 77.234 0.419 8.34 2.9 8.35
6/22/2022 9:00:00 PM 25.07 77.126 0.419 8.33 3.07 8.26
6/22/2022 9:15:00 PM 25 77 0.419 8.3 2.53 8.09
6/22/2022 9:30:00 PM 24.93 76.874 0.42 8.3 2.6 8.03
6/22/2022 9:45:00 PM 24.87 76.766 0.42 8.28 3.12 7.94
6/22/2022 10:00:00 PM 24.81 76.658 0.42 8.27 2.69 7.86
6/22/2022 10:15:00 PM 24.76 76.568 0.421 8.25 2.65 7.75
6/22/2022 10:30:00 PM 24.7 76.46 0.421 8.24 2.7 7.67
6/22/2022 10:45:00 PM 24.63 76.334 0.421 8.23 2.66 7.6
6/22/2022 11:00:00 PM 24.57 76.226 0.421 8.22 2.59 7.54
6/22/2022 11:15:00 PM 24.52 76.136 0.422 8.2 2.47 7.45
6/22/2022 11:30:00 PM 24.47 76.046 0.422 8.19 2.61 7.37
6/22/2022 11:45:00 PM 24.42 75.956 0.423 8.17 2.56 7.28
6/23/2022 12:00:00 AM 24.38 75.884 0.423 8.16 3.7 7.17
6/23/2022 12:15:00 AM 24.33 75.794 0.423 8.14 2.75 7.15
6/23/2022 12:30:00 AM 24.29 75.722 0.423 8.13 2.48 7.07
6/23/2022 12:45:00 AM 24.25 75.65 0.424 8.12 2.88 7.01
6/23/2022 1:00:00 AM 24.22 75.596 0.424 8.11 2.95 6.96
6/23/2022 1:15:00 AM 24.19 75.542 0.424 8.1 2.99 6.91
6/23/2022 1:30:00 AM 24.15 75.47 0.425 8.09 2.54 6.87
6/23/2022 1:45:00 AM 24.1 75.38 0.425 8.08 2.67 6.78
6/23/2022 2:00:00 AM 24.11 75.398 0.425 8.08 2.79 6.81
6/23/2022 2:15:00 AM 24.08 75.344 0.425 8.08 2.6 6.8
6/23/2022 2:30:00 AM 24.06 75.308 0.425 8.07 3.12 6.75
6/23/2022 2:45:00 AM 24.02 75.236 0.425 8.06 2.78 6.66
6/23/2022 3:00:00 AM 24.01 75.218 0.426 8.06 2.88 6.69
6/23/2022 3:15:00 AM 24 75.2 0.426 8.06 2.73 6.69
6/23/2022 3:30:00 AM 23.95 75.11 0.426 8.05 2.85 6.61
6/23/2022 3:45:00 AM 23.96 75.128 0.426 8.05 2.8 6.62
6/23/2022 4:00:00 AM 23.94 75.092 0.426 8.05 2.95 6.62
6/23/2022 4:15:00 AM 23.92 75.056 0.426 8.04 3.21 6.58
6/23/2022 4:30:00 AM 23.9 75.02 0.426 8.03 3.45 6.55
6/23/2022 4:45:00 AM 23.88 74.984 0.426 8.03 3.14 6.56
6/23/2022 5:00:00 AM 23.85 74.93 0.426 8.03 3.03 6.51
6/23/2022 5:15:00 AM 23.82 74.876 0.427 8.02 3.31 6.5
6/23/2022 5:30:00 AM 23.79 74.82201 0.427 8.02 2.84 6.5
6/23/2022 5:45:00 AM 23.76 74.768 0.427 8.01 2.91 6.47
6/23/2022 6:00:00 AM 23.74 74.732 0.426 8.01 3.35 6.5
6/23/2022 6:15:00 AM 23.74 74.732 0.426 8.01 4.04 6.57
6/23/2022 6:30:00 AM 23.72 74.696 0.426 8.01 4.53 6.56
6/23/2022 6:45:00 AM 23.7 74.66 0.425 8.01 4.51 6.59
6/23/2022 7:00:00 AM 23.66 74.588 0.424 7.99 4.56 6.58
6/23/2022 7:15:00 AM 23.5 74.3 0.424 7.97 5.03 6.6
6/23/2022 7:30:00 AM 23.41 74.138 0.424 7.97 5.09 6.61
6/23/2022 7:45:00 AM 23.39 74.102 0.423 7.98 4.51 6.66
6/23/2022 8:00:00 AM 23.43 74.174 0.423 8 4.6 6.72
6/23/2022 8:15:00 AM 23.47 74.246 0.422 8.01 4.03 6.78
6/23/2022 8:30:00 AM 23.52 74.336 0.422 8.02 4.17 6.82
6/23/2022 8:45:00 AM 23.57 74.426 0.422 8.03 4.16 6.88
6/23/2022 9:00:00 AM 23.62 74.516 0.421 8.04 4.15 6.94
6/23/2022 9:15:00 AM 23.67 74.606 0.421 8.05 4.09 6.99
6/23/2022 9:30:00 AM 23.72 74.696 0.421 8.05 3.9 7.06
6/23/2022 9:45:00 AM 23.75 74.75 0.422 8.06 4.08 7.12
6/23/2022 10:00:00 AM 23.77 74.786 0.422 8.07 3.79 7.16
6/23/2022 10:15:00 AM 23.82 74.876 0.423 8.08 4.03 7.24
6/23/2022 10:30:00 AM 23.9 75.02 0.423 8.08 3.85 7.3
6/23/2022 10:45:00 AM 24.02 75.236 0.423 8.09 4.09 7.39
6/23/2022 11:00:00 AM 24.13 75.434 0.423 8.1 4.38 7.48
6/23/2022 11:15:00 AM 24.33 75.794 0.423 8.12 4.41 7.6
6/23/2022 11:30:00 AM 24.37 75.866 0.422 8.13 4.07 7.68
6/23/2022 11:45:00 AM 24.41 75.938 0.421 8.13 4.3 7.72
6/23/2022 12:00:00 PM 24.45 76.01 0.42 8.14 4.56 7.76
6/23/2022 12:15:00 PM 24.45 76.01 0.419 8.14 4.31 7.78
6/23/2022 12:30:00 PM 24.5 76.1 0.418 8.14 4.13 7.82
6/23/2022 12:45:00 PM 24.65 76.37 0.417 8.16 4.63 7.92
6/23/2022 1:00:00 PM 24.75 76.55 0.415 8.17 4.45 8.02
6/23/2022 1:15:00 PM 24.84 76.712 0.414 8.17 10.2 8.09
6/23/2022 1:30:00 PM 24.86 76.748 0.412 8.19 4.23 8.15
6/23/2022 1:45:00 PM 24.99 76.982 0.41 8.2 4.49 8.24
6/23/2022 2:00:00 PM 25.03 77.054 0.408 8.21 4.67 8.3
6/23/2022 2:15:00 PM 25.05 77.09 0.407 8.22 4.45 8.34
6/23/2022 2:30:00 PM 25.14 77.252 0.405 8.23 4.51 8.42
6/23/2022 2:45:00 PM 25.19 77.342 0.403 8.24 4.33 8.46
6/23/2022 3:00:00 PM 25.29 77.522 0.401 8.25 4.23 8.52
6/23/2022 3:15:00 PM 25.37 77.666 0.399 8.26 4.17 8.57
6/23/2022 3:30:00 PM 25.46 77.828 0.396 8.27 4.45 8.64
6/23/2022 3:45:00 PM 25.51 77.918 0.393 8.27 4.62 8.67
6/23/2022 4:00:00 PM 25.52 77.936 0.391 8.28 4.97 8.65
6/23/2022 4:15:00 PM 25.57 78.026 0.388 8.28 5.59 8.65
6/23/2022 4:30:00 PM 25.61 78.098 0.386 8.28 6.37 8.6
6/23/2022 4:45:00 PM 25.6 78.08 0.383 8.27 7.23 8.57
6/23/2022 5:00:00 PM 25.64 78.152 0.38 8.25 9.65 8.51
6/23/2022 5:15:00 PM 25.65 78.17 0.377 8.24 10.58 8.41
6/23/2022 5:30:00 PM 25.6 78.08 0.374 8.22 13.28 8.27
6/23/2022 5:45:00 PM 25.55 77.99 0.371 8.18 15.48 8.11
6/23/2022 6:00:00 PM 25.53 77.954 0.368 8.16 18.08 7.99
6/23/2022 6:15:00 PM 25.49 77.882 0.365 8.13 21.49 7.86
6/23/2022 6:30:00 PM 25.45 77.81 0.361 8.1 27.9 7.72
6/23/2022 6:45:00 PM 25.4 77.72 0.359 8.06 29.77 7.55
6/23/2022 7:00:00 PM 25.33 77.594 0.355 8.04 36.98 7.39
6/23/2022 7:15:00 PM 25.26 77.468 0.352 8 42.66 7.28
6/23/2022 7:30:00 PM 25.18 77.324 0.349 7.97 49.04 7.14
6/23/2022 7:45:00 PM 25.11 77.198 0.345 7.94 52.06 7
6/23/2022 8:00:00 PM 25.04 77.07201 0.342 7.91 58.58 6.91
6/23/2022 8:15:00 PM 24.97 76.946 0.339 7.88 62.73 6.76
6/23/2022 8:30:00 PM 24.88 76.784 0.337 7.86 69.57 6.71
6/23/2022 8:45:00 PM 24.79 76.622 0.333 7.84 78.46 6.63
6/23/2022 9:00:00 PM 24.7 76.46 0.331 7.82 80.73 6.51
6/23/2022 9:15:00 PM 24.61 76.298 0.328 7.8 87.34 6.43
6/23/2022 9:30:00 PM 24.51 76.118 0.326 7.78 87.06 6.38
6/23/2022 9:45:00 PM 24.43 75.974 0.323 7.76 94.16 6.29
6/23/2022 10:00:00 PM 24.36 75.848 0.321 7.75 94.98 6.22
6/23/2022 10:15:00 PM 24.29 75.722 0.319 7.74 106.07 6.17
6/23/2022 10:30:00 PM 24.21 75.578 0.318 7.73 97.7 6.13
6/23/2022 10:45:00 PM 24.13 75.434 0.316 7.71 101.27 6.1
6/23/2022 11:00:00 PM 24.06 75.308 0.313 7.7 105.18 6.01
6/23/2022 11:15:00 PM 23.98 75.164 0.312 7.69 105.02 5.98
6/23/2022 11:30:00 PM 23.92 75.056 0.311 7.68 106.66 5.92
6/23/2022 11:45:00 PM 23.85 74.93 0.31 7.67 105.97 5.91
6/24/2022 12:00:00 AM 23.79 74.82201 0.309 7.67 114.46 5.88
6/24/2022 12:15:00 AM 23.72 74.696 0.308 7.66 102.44 5.87
6/24/2022 12:30:00 AM 23.65 74.57 0.308 7.65 104.98 5.82
6/24/2022 12:45:00 AM 23.58 74.444 0.307 7.65 103.34 5.81
6/24/2022 1:00:00 AM 23.52 74.336 0.306 7.64 103.4 5.82
6/24/2022 1:15:00 AM 23.44 74.192 0.306 7.64 98.41 5.81
6/24/2022 1:30:00 AM 23.37 74.066 0.306 7.63 100.79 5.78
6/24/2022 1:45:00 AM 23.3 73.94 0.305 7.63 97.83 5.76
6/24/2022 2:00:00 AM 23.24 73.832 0.305 7.63 91.14 5.73
6/24/2022 2:15:00 AM 23.16 73.688 0.305 7.63 96.23 5.74
6/24/2022 2:30:00 AM 23.09 73.562 0.305 7.62 94.97 5.75
6/24/2022 2:45:00 AM 23.03 73.454 0.304 7.62 91.18 5.74
6/24/2022 3:00:00 AM 22.96 73.328 0.304 7.62 89.6 5.76
6/24/2022 3:15:00 AM 22.89 73.202 0.304 7.62 90.79 5.7
6/24/2022 3:30:00 AM 22.83 73.094 0.304 7.62 87.76 5.72
6/24/2022 3:45:00 AM 22.77 72.986 0.303 7.62 87.11 5.73
6/24/2022 4:00:00 AM 22.7 72.86 0.303 7.62 81.33 5.74
6/24/2022 4:15:00 AM 22.64 72.752 0.303 7.62 655.3 5.75
6/24/2022 4:30:00 AM 22.59 72.662 0.303 7.61 82.03 5.75
6/24/2022 4:45:00 AM 22.54 72.57201 0.302 7.62 82 5.78
6/24/2022 5:00:00 AM 22.5 72.5 0.302 7.62 81.81 5.78
6/24/2022 5:15:00 AM 22.46 72.42799 0.302 7.61 84.65 5.76
6/24/2022 5:30:00 AM 22.42 72.356 0.302 7.61 76.83 5.79
6/24/2022 5:45:00 AM 22.39 72.302 0.302 7.61 75.73 5.75
6/24/2022 6:00:00 AM 22.35 72.23 0.302 7.61 72.59 5.78
6/24/2022 6:15:00 AM 22.32 72.176 0.301 7.61 77.49 5.79
6/24/2022 6:30:00 AM 22.29 72.122 0.301 7.61 75.28 5.82
6/24/2022 6:45:00 AM 22.27 72.086 0.301 7.61 76.96 5.81
6/24/2022 7:00:00 AM 22.26 72.068 0.301 7.61 69.41 5.82
6/24/2022 7:15:00 AM 22.25 72.05 0.301 7.61 72.41 5.82
6/24/2022 7:30:00 AM 22.24 72.032 0.301 7.61 69.94 5.83
6/24/2022 7:45:00 AM 22.24 72.032 0.301 7.61 64.76 5.83
6/24/2022 8:00:00 AM 22.25 72.05 0.301 7.62 66.33 5.85
6/24/2022 8:15:00 AM 22.26 72.068 0.301 7.62 67.54 5.89
6/24/2022 8:30:00 AM 22.27 72.086 0.301 7.62 61.45 5.9
6/24/2022 8:45:00 AM 22.29 72.122 0.301 7.62 62.34 5.93
6/24/2022 9:00:00 AM 22.31 72.158 0.301 7.62 58.78 5.95
6/24/2022 9:15:00 AM 22.34 72.212 0.301 7.63 54.74 5.97
6/24/2022 9:30:00 AM 22.39 72.302 0.301 7.63 53.12 6
6/24/2022 9:45:00 AM 22.44 72.392 0.301 7.63 59.55 6.05
6/24/2022 10:00:00 AM 22.51 72.518 0.301 7.64 52.87 6.09
6/24/2022 10:15:00 AM 22.59 72.662 0.301 7.65 54.02 6.1
6/24/2022 10:30:00 AM 22.74 72.932 0.301 7.65 49.5 6.16
6/24/2022 10:45:00 AM 22.89 73.202 0.301 7.66 50.39 6.22
6/24/2022 11:00:00 AM 23.07 73.526 0.302 7.67 48.3 6.27
6/24/2022 11:15:00 AM 23.22 73.796 0.302 7.67 47.47 6.35
6/24/2022 11:30:00 AM 23.39 74.102 0.302 7.68 46.52 6.46
6/24/2022 11:45:00 AM 23.56 74.408 0.302 7.7 46.33 6.53
6/24/2022 12:00:00 PM 23.67 74.606 0.302 7.71 46.08 6.62
6/24/2022 12:15:00 PM 23.78 74.804 0.302 7.72 44.39 6.67
6/24/2022 12:30:00 PM 23.98 75.164 0.302 7.73 45.56 6.78
6/24/2022 12:45:00 PM 24.17 75.506 0.303 7.75 44.27 6.85
6/24/2022 1:00:00 PM 24.32 75.776 0.303 7.75 42.77 6.88
6/24/2022 1:15:00 PM 24.5 76.1 0.303 7.77 41.92 6.97
6/24/2022 1:30:00 PM 24.69 76.442 0.303 7.78 41.83 7.06
6/24/2022 1:45:00 PM 24.91 76.838 0.304 7.8 40 7.18
6/24/2022 2:00:00 PM 24.99 76.982 0.304 7.81 39.03 7.2
6/24/2022 2:15:00 PM 25.18 77.324 0.304 7.83 42.58 7.33
6/24/2022 2:30:00 PM 25.35 77.63 0.305 7.85 37.43 7.39
6/24/2022 2:45:00 PM 25.51 77.918 0.307 7.86 36.95 7.46
6/24/2022 3:00:00 PM 25.65 78.17 0.307 7.87 38.47 7.57
6/24/2022 3:15:00 PM 25.68 78.224 0.307 7.88 35.81 7.55
6/24/2022 3:30:00 PM 25.69 78.242 0.308 7.89 35.3 7.56
6/24/2022 3:45:00 PM 25.68 78.224 0.308 7.89 35.64 7.57
6/24/2022 4:00:00 PM 25.69 78.242 0.309 7.9 35.07 7.62
6/24/2022 4:15:00 PM 25.69 78.242 0.309 7.9 33.96 7.64
6/24/2022 4:30:00 PM 25.72 78.296 0.31 7.9 35.75 7.57
6/24/2022 4:45:00 PM 25.8 78.44 0.311 7.91 34.36 7.63
6/24/2022 5:00:00 PM 25.86 78.548 0.311 7.92 33.17 7.61
6/24/2022 5:15:00 PM 25.88 78.584 0.312 7.92 31.96 7.62
6/24/2022 5:30:00 PM 25.86 78.548 0.312 7.91 30.75 7.58
6/24/2022 5:45:00 PM 25.84 78.512 0.313 7.92 32.8 7.59
6/24/2022 6:00:00 PM 25.84 78.512 0.313 7.92 30.19 7.57
6/24/2022 6:15:00 PM 25.82 78.476 0.314 7.93 30.16 7.62
6/24/2022 6:30:00 PM 25.81 78.458 0.314 7.93 32.21 7.63
6/24/2022 6:45:00 PM 25.79 78.422 0.315 7.93 29.77 7.61
6/24/2022 7:00:00 PM 25.76 78.368 0.315 7.94 28.3 7.63
6/24/2022 7:15:00 PM 25.73 78.314 0.316 7.95 28.14 7.66
6/24/2022 7:30:00 PM 25.66 78.188 0.316 7.94 27.44 7.61
6/24/2022 7:45:00 PM 25.61 78.098 0.317 7.94 28.08 7.57
6/24/2022 8:00:00 PM 25.56 78.008 0.317 7.93 27.72 7.54
6/24/2022 8:15:00 PM 25.51 77.918 0.318 7.93 27.52 7.5
6/24/2022 8:30:00 PM 25.47 77.846 0.318 7.92 26.69 7.47
6/24/2022 8:45:00 PM 25.42 77.756 0.319 7.92 25.19 7.42
6/24/2022 9:00:00 PM 25.37 77.666 0.319 7.91 24.12 7.37
6/24/2022 9:15:00 PM 25.33 77.594 0.32 7.9 24.76 7.34
6/24/2022 9:30:00 PM 25.3 77.54 0.32 7.9 26.96 7.31
6/24/2022 9:45:00 PM 25.26 77.468 0.321 7.9 25.04 7.25
6/24/2022 10:00:00 PM 25.23 77.414 0.321 7.89 23.67 7.23
6/24/2022 10:15:00 PM 25.19 77.342 0.321 7.89 23.51 7.18
6/24/2022 10:30:00 PM 25.15 77.27 0.322 7.88 26.68 7.13
6/24/2022 10:45:00 PM 25.1 77.18 0.322 7.87 21.62 7.11
6/24/2022 11:00:00 PM 25.05 77.09 0.322 7.86 22.85 7.04
6/24/2022 11:15:00 PM 25.01 77.018 0.323 7.85 22.8 6.99
6/24/2022 11:30:00 PM 24.97 76.946 0.323 7.85 21.51 6.97
6/24/2022 11:45:00 PM 24.91 76.838 0.323 7.84 22.71 6.93
6/25/2022 12:00:00 AM 24.86 76.748 0.323 7.84 23.11 6.86
6/25/2022 12:15:00 AM 24.81 76.658 0.324 7.83 29.82 6.83
6/25/2022 12:30:00 AM 24.75 76.55 0.324 7.82 20.05 6.8
6/25/2022 12:45:00 AM 24.69 76.442 0.324 7.82 19.52 6.77
6/25/2022 1:00:00 AM 24.62 76.316 0.324 7.81 19.05 6.74
6/25/2022 1:15:00 AM 24.55 76.19 0.325 7.81 19.31 6.68
6/25/2022 1:30:00 AM 24.48 76.064 0.325 7.8 19.71 6.64
6/25/2022 1:45:00 AM 24.4 75.92 0.325 7.8 18.57 6.64
6/25/2022 2:00:00 AM 24.32 75.776 0.326 7.79 19.22 6.59
6/25/2022 2:15:00 AM 24.24 75.632 0.326 7.78 19.45 6.57
6/25/2022 2:30:00 AM 24.16 75.488 0.326 7.78 19.39 6.52
6/25/2022 2:45:00 AM 24.07 75.326 0.326 7.77 17.79 6.52
6/25/2022 3:00:00 AM 23.99 75.182 0.326 7.77 16.66 6.5
6/25/2022 3:15:00 AM 23.91 75.038 0.326 7.77 17.3 6.48
6/25/2022 3:30:00 AM 23.83 74.894 0.326 7.76 17.11 6.46
6/25/2022 3:45:00 AM 23.75 74.75 0.327 7.76 16.41 6.47
6/25/2022 4:00:00 AM 23.68 74.624 0.327 7.76 17.87 6.45
6/25/2022 4:15:00 AM 23.6 74.48 0.327 7.75 18.23 6.43
6/25/2022 4:30:00 AM 23.53 74.354 0.327 7.75 15.71 6.41
6/25/2022 4:45:00 AM 23.47 74.246 0.328 7.75 16.25 6.44
6/25/2022 5:00:00 AM 23.4 74.12 0.328 7.74 15.97 6.4
6/25/2022 5:15:00 AM 23.33 73.994 0.328 7.74 15.89 6.38
6/25/2022 5:30:00 AM 23.27 73.886 0.328 7.74 15.57 6.38
6/25/2022 5:45:00 AM 23.22 73.796 0.329 7.74 15.4 6.37
6/25/2022 6:00:00 AM 23.15 73.67 0.329 7.73 14.6 6.37
6/25/2022 6:15:00 AM 23.11 73.598 0.329 7.73 14.79 6.37
6/25/2022 6:30:00 AM 23.08 73.544 0.33 7.73 13.94 6.33
6/25/2022 6:45:00 AM 23.06 73.508 0.33 7.73 13.18 6.35
6/25/2022 7:00:00 AM 23.05 73.49 0.331 7.73 13.88 6.39
6/25/2022 7:15:00 AM 23.05 73.49 0.331 7.74 13.31 6.4
6/25/2022 7:30:00 AM 23.06 73.508 0.331 7.74 13.36 6.44
6/25/2022 7:45:00 AM 23.08 73.544 0.332 7.74 11.82 6.48
6/25/2022 8:00:00 AM 23.1 73.58 0.332 7.75 11.97 6.54
6/25/2022 8:15:00 AM 23.13 73.634 0.332 7.76 11.57 6.59
6/25/2022 8:30:00 AM 23.16 73.688 0.333 7.76 12.58 6.63
6/25/2022 8:45:00 AM 23.24 73.832 0.333 7.77 12.01 6.73
6/25/2022 9:00:00 AM 23.32 73.976 0.333 7.78 10.99 6.82
6/25/2022 9:15:00 AM 23.42 74.156 0.334 7.8 11.38 6.94
6/25/2022 9:30:00 AM 23.5 74.3 0.334 7.82 11.2 7.05
6/25/2022 9:45:00 AM 23.57 74.426 0.334 7.83 10.55 7.14
6/25/2022 10:00:00 AM 23.7 74.66 0.335 7.85 10.44 7.29
6/25/2022 10:15:00 AM 23.83 74.894 0.335 7.87 10.39 7.39
6/25/2022 10:30:00 AM 23.99 75.182 0.336 7.89 10.36 7.51
6/25/2022 10:45:00 AM 24.17 75.506 0.336 7.92 10.36 7.66
6/25/2022 11:00:00 AM 24.32 75.776 0.336 7.94 9.97 7.82
6/25/2022 11:15:00 AM 24.48 76.064 0.337 7.96 9.34 7.93
6/25/2022 11:30:00 AM 24.63 76.334 0.337 7.97 9.56 8.05
6/25/2022 11:45:00 AM 24.81 76.658 0.337 8.01 9.1 8.19
6/25/2022 12:00:00 PM 24.97 76.946 0.338 8.03 9.87 8.32
6/25/2022 12:15:00 PM 25.17 77.306 0.338 8.06 8.68 8.46
6/25/2022 12:30:00 PM 25.32 77.576 0.338 8.08 9.37 8.54
6/25/2022 12:45:00 PM 25.51 77.918 0.339 8.11 8.54 8.68
6/25/2022 1:00:00 PM 25.62 78.116 0.339 8.13 9.33 8.74
6/25/2022 1:15:00 PM 25.8 78.44 0.34 8.16 8.63 8.87
6/25/2022 1:30:00 PM 25.92 78.656 0.34 8.17 9.68 8.92
6/25/2022 1:45:00 PM 26.04 78.872 0.34 8.19 8.27 9.01
6/25/2022 2:00:00 PM 26.22 79.196 0.341 8.21 7.45 9.08
6/25/2022 2:15:00 PM 26.25 79.25 0.341 8.22 8.21 9.09
6/25/2022 2:30:00 PM 26.3 79.34 0.342 8.24 7.31 9.13
6/25/2022 2:45:00 PM 26.47 79.646 0.342 8.25 7.54 9.21
6/25/2022 3:00:00 PM 26.65 79.97 0.342 8.27 7.69 9.3
6/25/2022 3:15:00 PM 26.78 80.204 0.343 8.29 7.32 9.32
6/25/2022 3:30:00 PM 26.91 80.438 0.343 8.3 7.51 9.32
6/25/2022 3:45:00 PM 27.08 80.744 0.344 8.31 7.58 9.39
6/25/2022 4:00:00 PM 27.21 80.978 0.344 8.32 6.98 9.43
6/25/2022 4:15:00 PM 27.27 81.086 0.345 8.32 6.76 9.41
6/25/2022 4:30:00 PM 27.38 81.284 0.345 8.34 7.32 9.48
6/25/2022 4:45:00 PM 27.46 81.42799 0.345 8.35 6.99 9.5
6/25/2022 5:00:00 PM 27.54 81.57201 0.346 8.36 7.02 9.5
6/25/2022 5:15:00 PM 27.58 81.644 0.346 8.36 6.77 9.51
6/25/2022 5:30:00 PM 27.6 81.68 0.347 8.37 6.66 9.5
6/25/2022 5:45:00 PM 27.6 81.68 0.347 8.37 6.92 9.46
6/25/2022 6:00:00 PM 27.59 81.662 0.347 8.37 6.11 9.46
6/25/2022 6:15:00 PM 27.58 81.644 0.348 8.38 6.47 9.44
6/25/2022 6:30:00 PM 27.54 81.57201 0.348 8.37 6.21 9.41
6/25/2022 6:45:00 PM 27.5 81.5 0.349 8.36 6.48 9.29
6/25/2022 7:00:00 PM 27.45 81.41 0.349 8.37 6.38 9.25
6/25/2022 7:15:00 PM 27.42 81.356 0.349 8.37 6.63 9.23
6/25/2022 7:30:00 PM 27.37 81.266 0.35 8.37 6.56 9.15
6/25/2022 7:45:00 PM 27.31 81.158 0.35 8.36 6.43 9.09
6/25/2022 8:00:00 PM 27.25 81.05 0.351 8.35 5.89 8.98
6/25/2022 8:15:00 PM 27.18 80.924 0.351 8.32 6.82 8.83
6/25/2022 8:30:00 PM 27.12 80.816 0.352 8.32 6.69 8.76
6/25/2022 8:45:00 PM 27.06 80.708 0.352 8.3 6.19 8.66
6/25/2022 9:00:00 PM 27.02 80.636 0.353 8.29 6.53 8.56
6/25/2022 9:15:00 PM 26.96 80.528 0.353 8.28 6.63 8.46
6/25/2022 9:30:00 PM 26.9 80.42 0.354 8.26 7.46 8.36
6/25/2022 9:45:00 PM 26.84 80.312 0.354 8.25 7.27 8.26
6/25/2022 10:00:00 PM 26.79 80.222 0.355 8.23 6.08 8.16
6/25/2022 10:15:00 PM 26.74 80.132 0.355 8.21 6.95 8.04
6/25/2022 10:30:00 PM 26.67 80.006 0.356 8.18 5.87 7.92
6/25/2022 10:45:00 PM 26.64 79.952 0.356 8.17 6.36 7.87
6/25/2022 11:00:00 PM 26.58 79.844 0.357 8.15 6.23 7.74
6/25/2022 11:15:00 PM 26.51 79.718 0.357 8.14 5.69 7.64
6/25/2022 11:30:00 PM 26.47 79.646 0.358 8.13 5.84 7.58
6/25/2022 11:45:00 PM 26.4 79.52 0.358 8.11 5.62 7.49
6/26/2022 12:00:00 AM 26.33 79.394 0.359 8.08 5.61 7.38
6/26/2022 12:15:00 AM 26.27 79.286 0.359 8.07 6.18 7.31
6/26/2022 12:30:00 AM 26.21 79.17799 0.359 8.06 5.73 7.26
6/26/2022 12:45:00 AM 26.14 79.052 0.36 8.04 5.69 7.19
6/26/2022 1:00:00 AM 26.07 78.926 0.36 8.03 5.47 7.11
6/26/2022 1:15:00 AM 26.02 78.836 0.361 8.02 5.54 7.03
6/26/2022 1:30:00 AM 25.96 78.728 0.361 8 6.04 6.99
6/26/2022 1:45:00 AM 25.91 78.638 0.361 7.99 5.6 6.92
6/26/2022 2:00:00 AM 25.85 78.53 0.362 7.98 5.73 6.83
6/26/2022 2:15:00 AM 25.8 78.44 0.362 7.97 6.46 6.79
6/26/2022 2:30:00 AM 25.74 78.332 0.362 7.96 5.92 6.76
6/26/2022 2:45:00 AM 25.67 78.206 0.363 7.95 5.62 6.7
6/26/2022 3:00:00 AM 25.62 78.116 0.363 7.94 6.19 6.66
6/26/2022 3:15:00 AM 25.56 78.008 0.363 7.93 5.73 6.62
6/26/2022 3:30:00 AM 25.49 77.882 0.364 7.92 5.98 6.59
6/26/2022 3:45:00 AM 25.42 77.756 0.364 7.91 5.8 6.54
6/26/2022 4:00:00 AM 25.35 77.63 0.364 7.9 6.24 6.46
6/26/2022 4:15:00 AM 25.3 77.54 0.364 7.9 5.3 6.47
6/26/2022 4:30:00 AM 25.22 77.396 0.365 7.89 6.18 6.43
6/26/2022 4:45:00 AM 25.16 77.288 0.365 7.88 6.22 6.4
6/26/2022 5:00:00 AM 25.09 77.162 0.365 7.86 9.02 6.31
6/26/2022 5:15:00 AM 25.02 77.036 0.365 7.86 7.58 6.31
6/26/2022 5:30:00 AM 24.96 76.92799 0.366 7.86 6.26 6.29
6/26/2022 5:45:00 AM 24.88 76.784 0.366 7.85 7.09 6.21
6/26/2022 6:00:00 AM 24.82 76.676 0.366 7.84 6.21 6.19
6/26/2022 6:15:00 AM 24.76 76.568 0.366 7.84 7.31 6.22
6/26/2022 6:30:00 AM 24.72 76.496 0.366 7.84 5.99 6.24
6/26/2022 6:45:00 AM 24.7 76.46 0.366 7.83 6.03 6.22
6/26/2022 7:00:00 AM 24.67 76.406 0.366 7.83 12.53 6.24
6/26/2022 7:15:00 AM 24.66 76.388 0.367 7.83 6.58 6.23
6/26/2022 7:30:00 AM 24.64 76.352 0.367 7.83 6.17 6.31
6/26/2022 7:45:00 AM 24.66 76.388 0.367 7.83 5.57 6.29
6/26/2022 8:00:00 AM 24.7 76.46 0.367 7.84 5.28 6.4
6/26/2022 8:15:00 AM 24.72 76.496 0.367 7.84 6.48 6.41
6/26/2022 8:30:00 AM 24.74 76.532 0.367 7.85 6.27 6.5
6/26/2022 8:45:00 AM 24.8 76.64 0.368 7.86 5.95 6.62
6/26/2022 9:00:00 AM 24.88 76.784 0.368 7.88 5.86 6.71
6/26/2022 9:15:00 AM 24.95 76.91 0.368 7.89 5.48 6.81
6/26/2022 9:30:00 AM 25.06 77.108 0.368 7.91 5.55 7.01
6/26/2022 9:45:00 AM 25.16 77.288 0.368 7.93 4.84 7.17
6/26/2022 10:00:00 AM 25.27 77.486 0.368 7.96 5.9 7.28
6/26/2022 10:15:00 AM 25.36 77.648 0.368 7.99 5.68 7.49
6/26/2022 10:30:00 AM 25.44 77.792 0.368 8 5.38 7.6
6/26/2022 10:45:00 AM 25.58 78.044 0.368 8.03 4.71 7.71
6/26/2022 11:00:00 AM 25.76 78.368 0.368 8.06 5.17 7.88
6/26/2022 11:15:00 AM 25.91 78.638 0.368 8.08 4.81 8.03
6/26/2022 11:30:00 AM 26.09 78.962 0.369 8.12 5.29 8.21
6/26/2022 11:45:00 AM 26.23 79.214 0.369 8.15 4.95 8.31
6/26/2022 12:00:00 PM 26.4 79.52 0.369 8.18 5.55 8.52
6/26/2022 12:15:00 PM 26.51 79.718 0.369 8.19 6.63 8.57
6/26/2022 12:30:00 PM 26.71 80.078 0.369 8.22 4.9 8.72
6/26/2022 12:45:00 PM 26.85 80.33 0.369 8.26 4.67 8.82
6/26/2022 1:00:00 PM 26.99 80.582 0.369 8.29 4.6 8.95
6/26/2022 1:15:00 PM 27.16 80.888 0.369 8.31 6.16 9.05
6/26/2022 1:30:00 PM 27.3 81.14 0.37 8.33 5.87 9.2
6/26/2022 1:45:00 PM 27.37 81.266 0.37 8.35 7.07 9.23
6/26/2022 2:00:00 PM 27.48 81.464 0.37 8.38 4.37 9.37
6/26/2022 2:15:00 PM 27.58 81.644 0.37 8.39 4.43 9.41
6/26/2022 2:30:00 PM 27.71 81.878 0.37 8.42 4.16 9.53
6/26/2022 2:45:00 PM 27.89 82.202 0.37 8.44 5.17 9.66
6/26/2022 3:00:00 PM 27.96 82.328 0.371 8.46 4.5 9.66
6/26/2022 3:15:00 PM 27.91 82.238 0.371 8.46 3.98 9.6
6/26/2022 3:30:00 PM 27.87 82.166 0.371 8.46 4.24 9.52
6/26/2022 3:45:00 PM 27.8 82.04 0.372 8.45 4.68 9.46
6/26/2022 4:00:00 PM 27.79 82.022 0.372 8.46 5.09 9.47
6/26/2022 4:15:00 PM 27.83 82.094 0.372 8.47 4.83 9.54
6/26/2022 4:30:00 PM 27.83 82.094 0.373 8.47 4.49 9.5
6/26/2022 4:45:00 PM 27.75 81.95 0.373 8.48 8.4 9.44
6/26/2022 5:00:00 PM 27.59 81.662 0.372 8.44 10.17 9.14
6/26/2022 5:15:00 PM 27.52 81.536 0.371 8.42 7.17 8.93
6/26/2022 5:30:00 PM 27.51 81.518 0.372 8.43 6.94 8.96
6/26/2022 5:45:00 PM 27.5 81.5 0.373 8.42 4.52 8.95
6/26/2022 6:00:00 PM 27.46 81.42799 0.374 8.42 5.04 8.86
6/26/2022 6:15:00 PM 27.39 81.302 0.374 8.41 5.05 8.73
6/26/2022 6:30:00 PM 27.33 81.194 0.375 8.39 4.1 8.62
6/26/2022 6:45:00 PM 27.26 81.068 0.375 8.38 4.06 8.61
6/26/2022 7:00:00 PM 27.19 80.942 0.375 8.37 4.28 8.55
6/26/2022 7:15:00 PM 27.16 80.888 0.375 8.37 4.08 8.51
6/26/2022 7:30:00 PM 27.13 80.834 0.376 8.37 4.18 8.51
6/26/2022 7:45:00 PM 27.08 80.744 0.376 8.36 3.92 8.43
6/26/2022 8:00:00 PM 27.03 80.654 0.377 8.34 4.74 8.33
6/26/2022 8:15:00 PM 26.98 80.564 0.378 8.33 4.13 8.27
6/26/2022 8:30:00 PM 26.92 80.456 0.379 8.32 4.01 8.18
6/26/2022 8:45:00 PM 26.87 80.366 0.379 8.3 4.76 8.09
6/26/2022 9:00:00 PM 26.81 80.258 0.38 8.28 5.92 7.98
6/26/2022 9:15:00 PM 26.75 80.15 0.381 8.27 4.74 7.9
6/26/2022 9:30:00 PM 26.69 80.042 0.381 8.24 5.72 7.79
6/26/2022 9:45:00 PM 26.63 79.934 0.382 8.22 4.73 7.67
6/26/2022 10:00:00 PM 26.58 79.844 0.382 8.2 4.82 7.56
6/26/2022 10:15:00 PM 26.53 79.754 0.382 8.19 4.21 7.48
6/26/2022 10:30:00 PM 26.49 79.682 0.382 8.17 3.87 7.39
6/26/2022 10:45:00 PM 26.45 79.61 0.383 8.15 4.22 7.3
6/26/2022 11:00:00 PM 26.41 79.538 0.383 8.13 4.17 7.22
6/26/2022 11:15:00 PM 26.39 79.502 0.384 8.12 3.88 7.16
6/26/2022 11:30:00 PM 26.36 79.448 0.385 8.11 4.3 7.07
6/26/2022 11:45:00 PM 26.34 79.412 0.386 8.09 4.41 7.02
6/27/2022 12:00:00 AM 26.3 79.34 0.386 8.08 3.97 6.92
6/27/2022 12:15:00 AM 26.28 79.304 0.387 8.07 3.77 6.87
6/27/2022 12:30:00 AM 26.26 79.268 0.388 8.06 5.26 6.82
6/27/2022 12:45:00 AM 26.23 79.214 0.388 8.05 4.99 6.73
6/27/2022 1:00:00 AM 26.2 79.16 0.389 8.04 3.69 6.71
6/27/2022 1:15:00 AM 26.18 79.124 0.389 8.02 3.97 6.66
6/27/2022 1:30:00 AM 26.14 79.052 0.39 8.01 4.2 6.59
6/27/2022 1:45:00 AM 26.11 78.998 0.39 8 4.5 6.56
6/27/2022 2:00:00 AM 26.08 78.944 0.391 8 4.37 6.49
6/27/2022 2:15:00 AM 26.05 78.89 0.39 7.98 6.39 6.45
6/27/2022 2:30:00 AM 26.01 78.818 0.392 7.97 9.73 6.38
6/27/2022 2:45:00 AM 25.98 78.764 0.393 7.96 4.66 6.35
6/27/2022 3:00:00 AM 25.95 78.71 0.393 7.95 4.44 6.33
6/27/2022 3:15:00 AM 25.92 78.656 0.394 7.94 4.12 6.26
6/27/2022 3:30:00 AM 25.88 78.584 0.394 7.93 4.14 6.23
6/27/2022 3:45:00 AM 25.85 78.53 0.395 7.92 3.83 6.2
6/27/2022 4:00:00 AM 25.81 78.458 0.395 7.92 4.68 6.19
6/27/2022 4:15:00 AM 25.78 78.404 0.395 7.91 4.44 6.14
6/27/2022 4:30:00 AM 25.73 78.314 0.396 7.9 4.63 6.13
6/27/2022 4:45:00 AM 25.68 78.224 0.396 7.9 4.97 6.1
6/27/2022 5:00:00 AM 25.64 78.152 0.396 7.89 4.54 6.06
6/27/2022 5:15:00 AM 25.6 78.08 0.397 7.88 4.9 5.96
6/27/2022 5:30:00 AM 25.57 78.026 0.397 7.88 5.45 6
6/27/2022 5:45:00 AM 25.53 77.954 0.397 7.87 4.72 6.02
6/27/2022 6:00:00 AM 25.49 77.882 0.398 7.87 4.37 6
6/27/2022 6:15:00 AM 25.44 77.792 0.398 7.86 4.43 5.98
6/27/2022 6:30:00 AM 25.39 77.702 0.398 7.86 4.4 5.97
6/27/2022 6:45:00 AM 25.34 77.612 0.399 7.86 3.92 5.95
6/27/2022 7:00:00 AM 25.3 77.54 0.399 7.85 4.31 5.96
6/27/2022 7:15:00 AM 25.25 77.45 0.399 7.85 4.18 5.95
6/27/2022 7:30:00 AM 25.23 77.414 0.4 7.85 5.01 5.95
6/27/2022 7:45:00 AM 25.24 77.432 0.4 7.86 4.67 6.02
6/27/2022 8:00:00 AM 25.21 77.378 0.4 7.86 4.62 6.07
6/27/2022 8:15:00 AM 25.2 77.36 0.401 7.87 4.37 6.16
6/27/2022 8:30:00 AM 25.21 77.378 0.401 7.88 4.83 6.26
6/27/2022 8:45:00 AM 25.27 77.486 0.401 7.9 4.3 6.41
6/27/2022 9:00:00 AM 25.26 77.468 0.401 7.92 6.86 6.53
6/27/2022 9:15:00 AM 25.31 77.558 0.402 7.94 4.23 6.71
6/27/2022 9:30:00 AM 25.37 77.666 0.402 7.96 4.28 6.83
6/27/2022 9:45:00 AM 25.45 77.81 0.402 7.99 4.06 7.03
6/27/2022 10:00:00 AM 25.52 77.936 0.402 8.02 3.95 7.22
6/27/2022 10:15:00 AM 25.65 78.17 0.402 8.05 4.05 7.35
6/27/2022 10:30:00 AM 25.79 78.422 0.402 8.08 3.57